
Distance (Route):
Temperature : 0°C
Humidity : 0%
Pressure : 0hPa| Receiver | Frames | First received | Last received |
|---|---|---|---|
| DB0UT-7 | 367 | 2026-09-04 14:19:31 | 2026-09-04 17:47:32 |
| DF1GD-15 | 258 | 2026-09-04 15:13:32 | 2026-09-04 17:17:25 |
| DL1ZP-14 | 94 | 2026-09-04 14:58:09 | 2026-09-04 16:38:35 |
| HARRO8 | 58 | 2026-09-04 14:57:49 | 2026-09-04 16:18:33 |
| DJ2DS-15 | 38 | 2026-09-04 15:24:24 | 2026-09-04 15:49:38 |
| DL9SK-14 | 9 | 2026-09-04 14:55:38 | 2026-09-04 14:59:46 |
| DM0DOS-11 | 2 | 2026-09-04 16:15:38 | 2026-09-04 16:16:36 |
| Receiver | Date | Latitude | Longitude | Direction | Speed | Altitude | Climb | Temperature | Humidity | Pressure | Voltage | Killtimer | Uptime | BKT | XDATA |
|---|---|---|---|---|---|---|---|---|---|---|---|---|---|---|---|
| DB0UT-7 | 2026-09-04 17:47:32 | 48.63000 | 5.74950 | 85° | 46km/h | 1478m | -1.3m/s | 0°C | 0% | 0hPa | 2.0V | 00:00:00 | 00:00:00 | 00:00:00 | |
| DB0UT-7 | 2026-09-04 17:47:22 | 48.62999 | 5.74778 | 88° | 47km/h | 1496m | -1.7m/s | 0°C | 0% | 0hPa | 2.0V | 00:00:00 | 00:00:00 | 00:00:00 | |
| DB0UT-7 | 2026-09-04 17:47:12 | 48.62978 | 5.74593 | 79° | 47km/h | 1513m | -1.6m/s | 0°C | 0% | 0hPa | 2.0V | 00:00:00 | 00:00:00 | 00:00:00 | |
| DB0UT-7 | 2026-09-04 17:44:10 | 48.62613 | 5.71381 | 75° | 47km/h | 1827m | -1.7m/s | 0°C | 0% | 0hPa | 2.0V | 00:00:00 | 00:00:00 | 00:00:00 | |
| DB0UT-7 | 2026-09-04 17:44:00 | 48.62576 | 5.71208 | 78° | 49km/h | 1845m | -1.7m/s | 0°C | 0% | 0hPa | 2.0V | 00:00:00 | 00:00:00 | 00:00:00 | |
| DB0UT-7 | 2026-09-04 17:43:50 | 48.62560 | 5.71024 | 82° | 55km/h | 1864m | -1.8m/s | 0°C | 0% | 0hPa | 2.0V | 00:00:00 | 00:00:00 | 00:00:00 | |
| DB0UT-7 | 2026-09-04 17:43:40 | 48.62523 | 5.70824 | 72° | 49km/h | 1882m | -1.6m/s | 0°C | 0% | 0hPa | 2.0V | 00:00:00 | 00:00:00 | 00:00:00 | |
| DB0UT-7 | 2026-09-04 17:43:30 | 48.62497 | 5.70646 | 83° | 51km/h | 1903m | -1.7m/s | 0°C | 0% | 0hPa | 2.0V | 00:00:00 | 00:00:00 | 00:00:00 | |
| DB0UT-7 | 2026-09-04 17:42:27 | 48.62405 | 5.69332 | 90° | 55km/h | 2021m | -0.9m/s | 0°C | 0% | 0hPa | 2.0V | 00:00:00 | 00:00:00 | 00:00:00 | |
| DB0UT-7 | 2026-09-04 17:42:07 | 48.62373 | 5.68909 | 88° | 58km/h | 2057m | -1.4m/s | 0°C | 0% | 0hPa | 2.0V | 00:00:00 | 00:00:00 | 00:00:00 | |
| DB0UT-7 | 2026-09-04 17:41:47 | 48.62341 | 5.68475 | 83° | 55km/h | 2094m | -1.2m/s | 0°C | 0% | 0hPa | 2.0V | 00:00:00 | 00:00:00 | 00:00:00 | |
| DB0UT-7 | 2026-09-04 17:40:45 | 48.62286 | 5.67182 | 80° | 58km/h | 2220m | -1.7m/s | 0°C | 0% | 0hPa | 2.0V | 00:00:00 | 00:00:00 | 00:00:00 | |
| DB0UT-7 | 2026-09-04 17:40:24 | 48.62285 | 5.66723 | 81° | 58km/h | 2266m | -2.1m/s | 0°C | 0% | 0hPa | 2.0V | 00:00:00 | 00:00:00 | 00:00:00 | |
| DB0UT-7 | 2026-09-04 17:40:04 | 48.62290 | 5.66279 | 90° | 68km/h | 2313m | -1.0m/s | 0°C | 0% | 0hPa | 2.0V | 00:00:00 | 00:00:00 | 00:00:00 | |
| DB0UT-7 | 2026-09-04 17:39:02 | 48.62298 | 5.64803 | 88° | 66km/h | 2438m | -2.4m/s | 0°C | 0% | 0hPa | 2.0V | 00:00:00 | 00:00:00 | 00:00:00 | |
| DB0UT-7 | 2026-09-04 17:38:40 | 48.62294 | 5.64253 | 86° | 64km/h | 2489m | -2.9m/s | 0°C | 0% | 0hPa | 2.0V | 00:00:00 | 00:00:00 | 00:00:00 | |
| DB0UT-7 | 2026-09-04 17:38:20 | 48.62297 | 5.63755 | 87° | 69km/h | 2528m | -2.9m/s | 0°C | 0% | 0hPa | 2.0V | 00:00:00 | 00:00:00 | 00:00:00 | |
| DB0UT-7 | 2026-09-04 17:37:18 | 48.62290 | 5.62207 | 91° | 66km/h | 2655m | -1.5m/s | 0°C | 0% | 0hPa | 2.0V | 00:00:00 | 00:00:00 | 00:00:00 | |
| DB0UT-7 | 2026-09-04 17:36:58 | 48.62287 | 5.61710 | 89° | 64km/h | 2694m | -1.0m/s | 0°C | 0% | 0hPa | 2.0V | 00:00:00 | 00:00:00 | 00:00:00 | |
| DB0UT-7 | 2026-09-04 17:36:37 | 48.62284 | 5.61192 | 89° | 69km/h | 2731m | -1.3m/s | 0°C | 0% | 0hPa | 2.0V | 00:00:00 | 00:00:00 | 00:00:00 | |
| DB0UT-7 | 2026-09-04 17:35:33 | 48.62304 | 5.59607 | 89° | 64km/h | 2835m | -1.5m/s | 0°C | 0% | 0hPa | 2.0V | 00:00:00 | 00:00:00 | 00:00:00 | |
| DB0UT-7 | 2026-09-04 17:35:13 | 48.62313 | 5.59123 | 96° | 66km/h | 2865m | -2.2m/s | 0°C | 0% | 0hPa | 2.0V | 00:00:00 | 00:00:00 | 00:00:00 | |
| DB0UT-7 | 2026-09-04 17:34:53 | 48.62317 | 5.58629 | 93° | 68km/h | 2907m | -1.9m/s | 0°C | 0% | 0hPa | 2.0V | 00:00:00 | 00:00:00 | 00:00:00 | |
| DB0UT-7 | 2026-09-04 17:34:29 | 48.62311 | 5.58014 | 86° | 68km/h | 2955m | -1.0m/s | 0°C | 0% | 0hPa | 2.0V | 00:00:00 | 00:00:00 | 00:00:00 | |
| DB0UT-7 | 2026-09-04 17:34:06 | 48.62292 | 5.57423 | 82° | 68km/h | 3000m | -2.2m/s | 0°C | 0% | 0hPa | 2.0V | 00:00:00 | 00:00:00 | 00:00:00 | |
| DB0UT-7 | 2026-09-04 17:33:36 | 48.62259 | 5.56669 | 93° | 71km/h | 3067m | -2.2m/s | 0°C | 0% | 0hPa | 2.0V | 00:00:00 | 00:00:00 | 00:00:00 | |
| DB0UT-7 | 2026-09-04 17:33:06 | 48.62215 | 5.55862 | 78° | 69km/h | 3135m | -2.4m/s | 0°C | 0% | 0hPa | 2.0V | 00:00:00 | 00:00:00 | 00:00:00 | |
| DB0UT-7 | 2026-09-04 17:32:34 | 48.62147 | 5.55019 | 87° | 73km/h | 3211m | -2.6m/s | 0°C | 0% | 0hPa | 2.0V | 00:00:00 | 00:00:00 | 00:00:00 | |
| DB0UT-7 | 2026-09-04 17:32:04 | 48.62053 | 5.54206 | 80° | 69km/h | 3281m | -2.1m/s | 0°C | 0% | 0hPa | 2.0V | 00:00:00 | 00:00:00 | 00:00:00 | |
| DB0UT-7 | 2026-09-04 17:31:34 | 48.61978 | 5.53416 | 85° | 73km/h | 3349m | -1.8m/s | 0°C | 0% | 0hPa | 2.0V | 00:00:00 | 00:00:00 | 00:00:00 | |
| DB0UT-7 | 2026-09-04 17:31:04 | 48.61873 | 5.52612 | 78° | 71km/h | 3414m | -1.6m/s | 0°C | 0% | 0hPa | 2.0V | 00:00:00 | 00:00:00 | 00:00:00 | |
| DB0UT-7 | 2026-09-04 17:30:28 | 48.61764 | 5.51667 | 77° | 69km/h | 3484m | -2.1m/s | 0°C | 0% | 0hPa | 2.0V | 00:00:00 | 00:00:00 | 00:00:00 | |
| DB0UT-7 | 2026-09-04 17:29:58 | 48.61683 | 5.50886 | 79° | 69km/h | 3545m | -1.8m/s | 0°C | 0% | 0hPa | 2.0V | 00:00:00 | 00:00:00 | 00:00:00 | |
| DB0UT-7 | 2026-09-04 17:29:28 | 48.61581 | 5.50108 | 85° | 73km/h | 3606m | -1.0m/s | 0°C | 0% | 0hPa | 2.0V | 00:00:00 | 00:00:00 | 00:00:00 | |
| DB0UT-7 | 2026-09-04 17:28:58 | 48.61479 | 5.49298 | 77° | 71km/h | 3659m | -1.8m/s | 0°C | 0% | 0hPa | 2.0V | 00:00:00 | 00:00:00 | 00:00:00 | |
| DB0UT-7 | 2026-09-04 17:28:28 | 48.61406 | 5.48500 | 84° | 73km/h | 3720m | -1.2m/s | 0°C | 0% | 0hPa | 2.0V | 00:00:00 | 00:00:00 | 00:00:00 | |
| DB0UT-7 | 2026-09-04 17:27:58 | 48.61293 | 5.47684 | 81° | 75km/h | 3773m | -2.1m/s | 0°C | 0% | 0hPa | 2.0V | 00:00:00 | 00:00:00 | 00:00:00 | |
| DB0UT-7 | 2026-09-04 17:27:28 | 48.61186 | 5.46843 | 72° | 73km/h | 3833m | -1.3m/s | 0°C | 0% | 0hPa | 2.0V | 00:00:00 | 00:00:00 | 00:00:00 | |
| DB0UT-7 | 2026-09-04 17:26:58 | 48.61075 | 5.46035 | 85° | 75km/h | 3884m | -1.8m/s | 0°C | 0% | 0hPa | 2.0V | 00:00:00 | 00:00:00 | 00:00:00 | |
| DB0UT-7 | 2026-09-04 17:26:28 | 48.60947 | 5.45197 | 79° | 75km/h | 3942m | -1.9m/s | 0°C | 0% | 0hPa | 2.0V | 00:00:00 | 00:00:00 | 00:00:00 | |
| DB0UT-7 | 2026-09-04 17:25:58 | 48.60831 | 5.44353 | 76° | 75km/h | 3999m | -2.0m/s | 0°C | 0% | 0hPa | 2.0V | 00:00:00 | 00:00:00 | 00:00:00 | |
| DB0UT-7 | 2026-09-04 17:25:28 | 48.60702 | 5.43532 | 84° | 77km/h | 4059m | -1.8m/s | 0°C | 0% | 0hPa | 2.0V | 00:00:00 | 00:00:00 | 00:00:00 | |
| DB0UT-7 | 2026-09-04 17:24:58 | 48.60573 | 5.42689 | 73° | 75km/h | 4117m | -1.8m/s | 0°C | 0% | 0hPa | 2.0V | 00:00:00 | 00:00:00 | 00:00:00 | |
| DB0UT-7 | 2026-09-04 17:24:28 | 48.60450 | 5.41847 | 75° | 78km/h | 4175m | -1.9m/s | 0°C | 0% | 0hPa | 2.0V | 00:00:00 | 00:00:00 | 00:00:00 | |
| DB0UT-7 | 2026-09-04 17:23:58 | 48.60303 | 5.40987 | 78° | 80km/h | 4236m | -2.4m/s | 0°C | 0% | 0hPa | 2.0V | 00:00:00 | 00:00:00 | 00:00:00 | |
| DB0UT-7 | 2026-09-04 17:23:28 | 48.60156 | 5.40098 | 79° | 82km/h | 4304m | -1.8m/s | 0°C | 0% | 0hPa | 2.0V | 00:00:00 | 00:00:00 | 00:00:00 | |
| DB0UT-7 | 2026-09-04 17:22:58 | 48.60004 | 5.39191 | 73° | 80km/h | 4366m | -2.0m/s | 0°C | 0% | 0hPa | 2.0V | 00:00:00 | 00:00:00 | 00:00:00 | |
| DB0UT-7 | 2026-09-04 17:22:28 | 48.59840 | 5.38299 | 72° | 82km/h | 4433m | -2.2m/s | 0°C | 0% | 0hPa | 2.0V | 00:00:00 | 00:00:00 | 00:00:00 | |
| DB0UT-7 | 2026-09-04 17:21:58 | 48.59667 | 5.37392 | 77° | 82km/h | 4501m | -2.6m/s | 0°C | 0% | 0hPa | 2.0V | 00:00:00 | 00:00:00 | 00:00:00 | |
| DB0UT-7 | 2026-09-04 17:21:28 | 48.59471 | 5.36491 | 74° | 84km/h | 4574m | -2.3m/s | 0°C | 0% | 0hPa | 2.0V | 00:00:00 | 00:00:00 | 00:00:00 | |
| DB0UT-7 | 2026-09-04 17:20:58 | 48.59284 | 5.35575 | 73° | 84km/h | 4645m | -2.3m/s | 0°C | 0% | 0hPa | 2.0V | 00:00:00 | 00:00:00 | 00:00:00 | |
| DB0UT-7 | 2026-09-04 17:20:29 | 48.59107 | 5.34654 | 78° | 84km/h | 4711m | -2.1m/s | 0°C | 0% | 0hPa | 2.0V | 00:00:00 | 00:00:00 | 00:00:00 | |
| DB0UT-7 | 2026-09-04 17:19:58 | 48.58959 | 5.33724 | 76° | 84km/h | 4775m | -2.2m/s | 0°C | 0% | 0hPa | 2.0V | 00:00:00 | 00:00:00 | 00:00:00 | |
| DB0UT-7 | 2026-09-04 17:19:28 | 48.58815 | 5.32791 | 80° | 84km/h | 4834m | -2.1m/s | 0°C | 0% | 0hPa | 2.0V | 00:00:00 | 00:00:00 | 00:00:00 | |
| DB0UT-7 | 2026-09-04 17:18:58 | 48.58676 | 5.31860 | 80° | 86km/h | 4891m | -1.8m/s | 0°C | 0% | 0hPa | 2.0V | 00:00:00 | 00:00:00 | 00:00:00 | |
| DB0UT-7 | 2026-09-04 17:18:28 | 48.58539 | 5.30906 | 74° | 86km/h | 4942m | -1.7m/s | 0°C | 0% | 0hPa | 2.0V | 00:00:00 | 00:00:00 | 00:00:00 | |
| DB0UT-7 | 2026-09-04 17:17:58 | 48.58376 | 5.29947 | 75° | 88km/h | 4990m | -1.3m/s | 0°C | 0% | 0hPa | 2.0V | 00:00:00 | 00:00:00 | 00:00:00 | |
| DB0UT-7 | 2026-09-04 17:17:28 | 48.58208 | 5.28971 | 79° | 91km/h | 5036m | -1.5m/s | 0°C | 0% | 0hPa | 2.0V | 00:00:00 | 00:00:00 | 00:00:00 | |
| DF1GD-15 | 2026-09-04 17:17:25 | 48.58190 | 5.28863 | 74° | 99km/h | 5040m | -1.6m/s | 0°C | 0% | 0hPa | 2.0V | 00:00:00 | 00:00:00 | 00:00:00 | |
| DF1GD-15 | 2026-09-04 17:17:01 | 48.58039 | 5.28068 | 80° | 95km/h | 5076m | -1.5m/s | 0°C | 0% | 0hPa | 2.0V | 00:00:00 | 00:00:00 | 00:00:00 | |
| DB0UT-7 | 2026-09-04 17:16:58 | 48.58022 | 5.27958 | 74° | 93km/h | 5081m | -1.6m/s | 0°C | 0% | 0hPa | 2.0V | 00:00:00 | 00:00:00 | 00:00:00 | |
| DF1GD-15 | 2026-09-04 17:16:34 | 48.57860 | 5.27149 | 80° | 93km/h | 5118m | -1.5m/s | 0°C | 0% | 0hPa | 2.0V | 00:00:00 | 00:00:00 | 00:00:00 | |
| DB0UT-7 | 2026-09-04 17:16:28 | 48.57822 | 5.26930 | 70° | 93km/h | 5127m | -1.4m/s | 0°C | 0% | 0hPa | 2.0V | 00:00:00 | 00:00:00 | 00:00:00 | |
| DF1GD-15 | 2026-09-04 17:16:13 | 48.57718 | 5.26421 | 70° | 97km/h | 5150m | -1.8m/s | 0°C | 0% | 0hPa | 2.0V | 00:00:00 | 00:00:00 | 00:00:00 | |
| DB0UT-7 | 2026-09-04 17:15:58 | 48.57616 | 5.25908 | 70° | 95km/h | 5177m | -1.7m/s | 0°C | 0% | 0hPa | 2.0V | 00:00:00 | 00:00:00 | 00:00:00 | |
| DF1GD-15 | 2026-09-04 17:15:53 | 48.57574 | 5.25746 | 72° | 84km/h | 5186m | -1.8m/s | 0°C | 0% | 0hPa | 2.0V | 00:00:00 | 00:00:00 | 00:00:00 | |
| DF1GD-15 | 2026-09-04 17:15:32 | 48.57440 | 5.25017 | 78° | 102km/h | 5226m | -1.9m/s | 0°C | 0% | 0hPa | 2.0V | 00:00:00 | 00:00:00 | 00:00:00 | |
| DB0UT-7 | 2026-09-04 17:15:28 | 48.57410 | 5.24866 | 70° | 93km/h | 5234m | -1.6m/s | 0°C | 0% | 0hPa | 2.0V | 00:00:00 | 00:00:00 | 00:00:00 | |
| DF1GD-15 | 2026-09-04 17:15:10 | 48.57288 | 5.24260 | 75° | 84km/h | 5269m | -1.2m/s | 0°C | 0% | 0hPa | 2.0V | 00:00:00 | 00:00:00 | 00:00:00 | |
| DF1GD-15 | 2026-09-04 17:14:50 | 48.57183 | 5.23576 | 83° | 97km/h | 5308m | -2.1m/s | 0°C | 0% | 0hPa | 2.0V | 00:00:00 | 00:00:00 | 00:00:00 | |
| DF1GD-15 | 2026-09-04 17:14:29 | 48.57077 | 5.22827 | 74° | 102km/h | 5355m | -2.2m/s | 0°C | 0% | 0hPa | 2.0V | 00:00:00 | 00:00:00 | 00:00:00 | |
| DB0UT-7 | 2026-09-04 17:14:28 | 48.57069 | 5.22791 | 72° | 97km/h | 5357m | -1.9m/s | 0°C | 0% | 0hPa | 2.0V | 00:00:00 | 00:00:00 | 00:00:00 | |
| DF1GD-15 | 2026-09-04 17:14:09 | 48.56964 | 5.22122 | 77° | 86km/h | 5400m | -2.6m/s | 0°C | 0% | 0hPa | 2.0V | 00:00:00 | 00:00:00 | 00:00:00 | |
| DB0UT-7 | 2026-09-04 17:13:58 | 48.56912 | 5.21722 | 73° | 95km/h | 5427m | -2.6m/s | 0°C | 0% | 0hPa | 2.0V | 00:00:00 | 00:00:00 | 00:00:00 | |
| DF1GD-15 | 2026-09-04 17:13:48 | 48.56860 | 5.21377 | 82° | 102km/h | 5449m | -2.6m/s | 0°C | 0% | 0hPa | 2.0V | 00:00:00 | 00:00:00 | 00:00:00 | |
| DB0UT-7 | 2026-09-04 17:13:28 | 48.56749 | 5.20658 | 72° | 97km/h | 5496m | -1.9m/s | 0°C | 0% | 0hPa | 2.0V | 00:00:00 | 00:00:00 | 00:00:00 | |
| DF1GD-15 | 2026-09-04 17:13:27 | 48.56741 | 5.20623 | 72° | 97km/h | 5498m | -1.6m/s | 0°C | 0% | 0hPa | 2.0V | 00:00:00 | 00:00:00 | 00:00:00 | |
| DF1GD-15 | 2026-09-04 17:13:07 | 48.56629 | 5.19928 | 82° | 86km/h | 5545m | -1.8m/s | 0°C | 0% | 0hPa | 2.0V | 00:00:00 | 00:00:00 | 00:00:00 | |
| DB0UT-7 | 2026-09-04 17:12:58 | 48.56583 | 5.19593 | 71° | 97km/h | 5566m | -1.6m/s | 0°C | 0% | 0hPa | 2.0V | 00:00:00 | 00:00:00 | 00:00:00 | |
| DB0UT-7 | 2026-09-04 17:12:28 | 48.56417 | 5.18527 | 71° | 97km/h | 5638m | -2.3m/s | 0°C | 0% | 0hPa | 2.0V | 00:00:00 | 00:00:00 | 00:00:00 | |
| DF1GD-15 | 2026-09-04 17:12:25 | 48.56396 | 5.18430 | 76° | 86km/h | 5645m | -2.0m/s | 0°C | 0% | 0hPa | 2.0V | 00:00:00 | 00:00:00 | 00:00:00 | |
| DF1GD-15 | 2026-09-04 17:12:05 | 48.56291 | 5.17724 | 84° | 102km/h | 5691m | -2.0m/s | 0°C | 0% | 0hPa | 2.0V | 00:00:00 | 00:00:00 | 00:00:00 | |
| DB0UT-7 | 2026-09-04 17:11:58 | 48.56244 | 5.17458 | 71° | 97km/h | 5708m | -2.1m/s | 0°C | 0% | 0hPa | 2.0V | 00:00:00 | 00:00:00 | 00:00:00 | |
| DF1GD-15 | 2026-09-04 17:11:44 | 48.56163 | 5.16952 | 71° | 95km/h | 5740m | -2.8m/s | 0°C | 0% | 0hPa | 2.0V | 00:00:00 | 00:00:00 | 00:00:00 | |
| DB0UT-7 | 2026-09-04 17:11:26 | 48.56055 | 5.16316 | 79° | 100km/h | 5782m | -2.0m/s | 0°C | 0% | 0hPa | 2.0V | 00:00:00 | 00:00:00 | 00:00:00 | |
| DF1GD-15 | 2026-09-04 17:11:01 | 48.55899 | 5.15375 | 69° | 102km/h | 5841m | -2.2m/s | 0°C | 0% | 0hPa | 2.0V | 00:00:00 | 00:00:00 | 00:00:00 | |
| DF1GD-15 | 2026-09-04 17:10:41 | 48.55773 | 5.14657 | 82° | 93km/h | 5886m | -2.0m/s | 0°C | 0% | 0hPa | 2.0V | 00:00:00 | 00:00:00 | 00:00:00 | |
| DB0UT-7 | 2026-09-04 17:10:26 | 48.55674 | 5.14107 | 81° | 99km/h | 5919m | -2.7m/s | 0°C | 0% | 0hPa | 2.0V | 00:00:00 | 00:00:00 | 00:00:00 | |
| DF1GD-15 | 2026-09-04 17:10:20 | 48.55644 | 5.13875 | 75° | 110km/h | 5932m | -2.0m/s | 0°C | 0% | 0hPa | 2.0V | 00:00:00 | 00:00:00 | 00:00:00 | |
| DF1GD-15 | 2026-09-04 17:10:00 | 48.55511 | 5.13150 | 74° | 89km/h | 5973m | -3.3m/s | 0°C | 0% | 0hPa | 2.0V | 00:00:00 | 00:00:00 | 00:00:00 | |
| DB0UT-7 | 2026-09-04 17:09:55 | 48.55489 | 5.12982 | 83° | 99km/h | 5987m | -1.9m/s | 0°C | 0% | 0hPa | 2.0V | 00:00:00 | 00:00:00 | 00:00:00 | |
| DF1GD-15 | 2026-09-04 17:09:40 | 48.55413 | 5.12433 | 85° | 102km/h | 6018m | -2.2m/s | 0°C | 0% | 0hPa | 2.0V | 00:00:00 | 00:00:00 | 00:00:00 | |
| DB0UT-7 | 2026-09-04 17:09:25 | 48.55336 | 5.11872 | 83° | 102km/h | 6050m | -1.6m/s | 0°C | 0% | 0hPa | 2.0V | 00:00:00 | 00:00:00 | 00:00:00 | |
| DF1GD-15 | 2026-09-04 17:09:20 | 48.55310 | 5.11669 | 76° | 110km/h | 6061m | -2.1m/s | 0°C | 0% | 0hPa | 2.0V | 00:00:00 | 00:00:00 | 00:00:00 | |
| DF1GD-15 | 2026-09-04 17:08:59 | 48.55181 | 5.10878 | 78° | 93km/h | 6106m | -1.8m/s | 0°C | 0% | 0hPa | 2.0V | 00:00:00 | 00:00:00 | 00:00:00 | |
| DB0UT-7 | 2026-09-04 17:08:55 | 48.55167 | 5.10727 | 83° | 102km/h | 6114m | -1.7m/s | 0°C | 0% | 0hPa | 2.0V | 00:00:00 | 00:00:00 | 00:00:00 | |
| DF1GD-15 | 2026-09-04 17:08:38 | 48.55069 | 5.10077 | 80° | 111km/h | 6151m | -2.3m/s | 0°C | 0% | 0hPa | 2.0V | 00:00:00 | 00:00:00 | 00:00:00 | |
| DB0UT-7 | 2026-09-04 17:08:25 | 48.54989 | 5.09596 | 83° | 100km/h | 6178m | -1.8m/s | 0°C | 0% | 0hPa | 2.0V | 00:00:00 | 00:00:00 | 00:00:00 | |
| DF1GD-15 | 2026-09-04 17:08:18 | 48.54945 | 5.09320 | 73° | 97km/h | 6195m | -2.9m/s | 0°C | 0% | 0hPa | 2.0V | 00:00:00 | 00:00:00 | 00:00:00 | |
| DF1GD-15 | 2026-09-04 17:07:58 | 48.54821 | 5.08601 | 82° | 93km/h | 6238m | -2.1m/s | 0°C | 0% | 0hPa | 2.0V | 00:00:00 | 00:00:00 | 00:00:00 | |
| DB0UT-7 | 2026-09-04 17:07:57 | 48.54807 | 5.08487 | 79° | 99km/h | 6245m | -1.9m/s | 0°C | 0% | 0hPa | 2.0V | 00:00:00 | 00:00:00 | 00:00:00 | |
| DF1GD-15 | 2026-09-04 17:07:37 | 48.54688 | 5.07830 | 72° | 106km/h | 6285m | -1.0m/s | 0°C | 0% | 0hPa | 2.0V | 00:00:00 | 00:00:00 | 00:00:00 | |
| DB0UT-7 | 2026-09-04 17:07:25 | 48.54607 | 5.07409 | 77° | 97km/h | 6308m | -2.4m/s | 0°C | 0% | 0hPa | 2.0V | 00:00:00 | 00:00:00 | 00:00:00 | |
| DF1GD-15 | 2026-09-04 17:07:16 | 48.54533 | 5.07092 | 74° | 86km/h | 6329m | -1.8m/s | 0°C | 0% | 0hPa | 2.0V | 00:00:00 | 00:00:00 | 00:00:00 | |
| DF1GD-15 | 2026-09-04 17:06:56 | 48.54397 | 5.06381 | 79° | 106km/h | 6371m | -2.0m/s | 0°C | 0% | 0hPa | 2.0V | 00:00:00 | 00:00:00 | 00:00:00 | |
| DB0UT-7 | 2026-09-04 17:06:55 | 48.54390 | 5.06342 | 76° | 99km/h | 6373m | -2.6m/s | 0°C | 0% | 0hPa | 2.0V | 00:00:00 | 00:00:00 | 00:00:00 | |
| DF1GD-15 | 2026-09-04 17:06:36 | 48.54229 | 5.05662 | 66° | 99km/h | 6411m | -1.9m/s | 0°C | 0% | 0hPa | 2.0V | 00:00:00 | 00:00:00 | 00:00:00 | |
| DB0UT-7 | 2026-09-04 17:06:25 | 48.54130 | 5.05280 | 64° | 97km/h | 6435m | -2.3m/s | 0°C | 0% | 0hPa | 2.0V | 00:00:00 | 00:00:00 | 00:00:00 | |
| DB0UT-7 | 2026-09-04 17:05:55 | 48.53866 | 5.04248 | 66° | 99km/h | 6492m | -2.0m/s | 0°C | 0% | 0hPa | 2.0V | 00:00:00 | 00:00:00 | 00:00:00 | |
| DF1GD-15 | 2026-09-04 17:05:54 | 48.53855 | 5.04212 | 64° | 102km/h | 6494m | -1.5m/s | 0°C | 0% | 0hPa | 2.0V | 00:00:00 | 00:00:00 | 00:00:00 | |
| DF1GD-15 | 2026-09-04 17:05:33 | 48.53662 | 5.03490 | 75° | 91km/h | 6532m | -2.0m/s | 0°C | 0% | 0hPa | 2.0V | 00:00:00 | 00:00:00 | 00:00:00 | |
| DB0UT-7 | 2026-09-04 17:05:25 | 48.53592 | 5.03194 | 65° | 100km/h | 6548m | -2.1m/s | 0°C | 0% | 0hPa | 2.0V | 00:00:00 | 00:00:00 | 00:00:00 | |
| DF1GD-15 | 2026-09-04 17:05:12 | 48.53485 | 5.02742 | 70° | 111km/h | 6573m | -2.4m/s | 0°C | 0% | 0hPa | 2.0V | 00:00:00 | 00:00:00 | 00:00:00 | |
| DB0UT-7 | 2026-09-04 17:04:55 | 48.53335 | 5.02128 | 66° | 99km/h | 6604m | -1.9m/s | 0°C | 0% | 0hPa | 2.0V | 00:00:00 | 00:00:00 | 00:00:00 | |
| DF1GD-15 | 2026-09-04 17:04:51 | 48.53299 | 5.01997 | 73° | 88km/h | 6613m | -1.8m/s | 0°C | 0% | 0hPa | 2.0V | 00:00:00 | 00:00:00 | 00:00:00 | |
| DF1GD-15 | 2026-09-04 17:04:31 | 48.53163 | 5.01279 | 78° | 106km/h | 6653m | -1.6m/s | 0°C | 0% | 0hPa | 2.0V | 00:00:00 | 00:00:00 | 00:00:00 | |
| DB0UT-7 | 2026-09-04 17:04:25 | 48.53112 | 5.01050 | 70° | 100km/h | 6665m | -2.6m/s | 0°C | 0% | 0hPa | 2.0V | 00:00:00 | 00:00:00 | 00:00:00 | |
| DF1GD-15 | 2026-09-04 17:04:10 | 48.53016 | 5.00504 | 71° | 95km/h | 6698m | -1.5m/s | 0°C | 0% | 0hPa | 2.0V | 00:00:00 | 00:00:00 | 00:00:00 | |
| DB0UT-7 | 2026-09-04 17:03:55 | 48.52917 | 4.99940 | 70° | 104km/h | 6728m | -1.4m/s | 0°C | 0% | 0hPa | 2.0V | 00:00:00 | 00:00:00 | 00:00:00 | |
| DF1GD-15 | 2026-09-04 17:03:47 | 48.52875 | 4.99644 | 79° | 113km/h | 6743m | -1.9m/s | 0°C | 0% | 0hPa | 2.0V | 00:00:00 | 00:00:00 | 00:00:00 | |
| DF1GD-15 | 2026-09-04 17:03:26 | 48.52722 | 4.98830 | 72° | 99km/h | 6787m | -2.1m/s | 0°C | 0% | 0hPa | 2.0V | 00:00:00 | 00:00:00 | 00:00:00 | |
| DB0UT-7 | 2026-09-04 17:03:25 | 48.52715 | 4.98795 | 73° | 104km/h | 6789m | -1.8m/s | 0°C | 0% | 0hPa | 2.0V | 00:00:00 | 00:00:00 | 00:00:00 | |
| DB0UT-7 | 2026-09-04 17:02:55 | 48.52501 | 4.97639 | 75° | 104km/h | 6852m | -2.1m/s | 0°C | 0% | 0hPa | 2.0V | 00:00:00 | 00:00:00 | 00:00:00 | |
| DF1GD-15 | 2026-09-04 17:02:52 | 48.52485 | 4.97532 | 82° | 100km/h | 6858m | -2.0m/s | 0°C | 0% | 0hPa | 2.0V | 00:00:00 | 00:00:00 | 00:00:00 | |
| DF1GD-15 | 2026-09-04 17:02:31 | 48.52340 | 4.96714 | 72° | 113km/h | 6902m | -2.5m/s | 0°C | 0% | 0hPa | 2.0V | 00:00:00 | 00:00:00 | 00:00:00 | |
| DB0UT-7 | 2026-09-04 17:02:25 | 48.52288 | 4.96496 | 75° | 102km/h | 6918m | -2.8m/s | 0°C | 0% | 0hPa | 2.0V | 00:00:00 | 00:00:00 | 00:00:00 | |
| DF1GD-15 | 2026-09-04 17:02:07 | 48.52166 | 4.95825 | 82° | 102km/h | 6959m | -1.8m/s | 0°C | 0% | 0hPa | 2.0V | 00:00:00 | 00:00:00 | 00:00:00 | |
| DB0UT-7 | 2026-09-04 17:01:55 | 48.52070 | 4.95369 | 75° | 102km/h | 6983m | -3.0m/s | 0°C | 0% | 0hPa | 2.0V | 00:00:00 | 00:00:00 | 00:00:00 | |
| DF1GD-15 | 2026-09-04 17:01:46 | 48.52015 | 4.95019 | 70° | 110km/h | 7010m | -1.9m/s | 0°C | 0% | 0hPa | 2.0V | 00:00:00 | 00:00:00 | 00:00:00 | |
| DF1GD-15 | 2026-09-04 17:01:26 | 48.51862 | 4.94284 | 75° | 91km/h | 7056m | -2.2m/s | 0°C | 0% | 0hPa | 2.0V | 00:00:00 | 00:00:00 | 00:00:00 | |
| DB0UT-7 | 2026-09-04 17:01:25 | 48.51856 | 4.94250 | 78° | 100km/h | 7058m | -2.6m/s | 0°C | 0% | 0hPa | 2.0V | 00:00:00 | 00:00:00 | 00:00:00 | |
| DF1GD-15 | 2026-09-04 17:01:06 | 48.51738 | 4.93543 | 81° | 110km/h | 7106m | -2.5m/s | 0°C | 0% | 0hPa | 2.0V | 00:00:00 | 00:00:00 | 00:00:00 | |
| DB0UT-7 | 2026-09-04 17:00:55 | 48.51663 | 4.93141 | 82° | 99km/h | 7131m | -2.6m/s | 0°C | 0% | 0hPa | 2.0V | 00:00:00 | 00:00:00 | 00:00:00 | |
| DF1GD-15 | 2026-09-04 17:00:44 | 48.51586 | 4.92725 | 72° | 89km/h | 7160m | -2.6m/s | 0°C | 0% | 0hPa | 2.0V | 00:00:00 | 00:00:00 | 00:00:00 | |
| DB0UT-7 | 2026-09-04 17:00:25 | 48.51469 | 4.92047 | 82° | 99km/h | 7209m | -2.1m/s | 0°C | 0% | 0hPa | 2.0V | 00:00:00 | 00:00:00 | 00:00:00 | |
| DF1GD-15 | 2026-09-04 17:00:23 | 48.51461 | 4.91972 | 81° | 106km/h | 7214m | -2.2m/s | 0°C | 0% | 0hPa | 2.0V | 00:00:00 | 00:00:00 | 00:00:00 | |
| DF1GD-15 | 2026-09-04 17:00:02 | 48.51319 | 4.91196 | 70° | 99km/h | 7269m | -3.1m/s | 0°C | 0% | 0hPa | 2.0V | 00:00:00 | 00:00:00 | 00:00:00 | |
| DB0UT-7 | 2026-09-04 16:59:55 | 48.51276 | 4.90966 | 82° | 97km/h | 7286m | -1.9m/s | 0°C | 0% | 0hPa | 2.0V | 00:00:00 | 00:00:00 | 00:00:00 | |
| DF1GD-15 | 2026-09-04 16:59:41 | 48.51183 | 4.90464 | 81° | 91km/h | 7319m | -1.7m/s | 0°C | 0% | 0hPa | 2.0V | 00:00:00 | 00:00:00 | 00:00:00 | |
| DB0UT-7 | 2026-09-04 16:59:25 | 48.51079 | 4.89896 | 82° | 97km/h | 7360m | -3.0m/s | 0°C | 0% | 0hPa | 2.0V | 00:00:00 | 00:00:00 | 00:00:00 | |
| DF1GD-15 | 2026-09-04 16:59:19 | 48.51039 | 4.89668 | 71° | 102km/h | 7376m | -2.4m/s | 0°C | 0% | 0hPa | 2.0V | 00:00:00 | 00:00:00 | 00:00:00 | |
| DF1GD-15 | 2026-09-04 16:58:58 | 48.50889 | 4.88941 | 77° | 86km/h | 7430m | -2.1m/s | 0°C | 0% | 0hPa | 2.0V | 00:00:00 | 00:00:00 | 00:00:00 | |
| DB0UT-7 | 2026-09-04 16:58:55 | 48.50876 | 4.88840 | 81° | 95km/h | 7439m | -2.0m/s | 0°C | 0% | 0hPa | 2.0V | 00:00:00 | 00:00:00 | 00:00:00 | |
| DF1GD-15 | 2026-09-04 16:58:37 | 48.50755 | 4.88204 | 76° | 108km/h | 7484m | -2.5m/s | 0°C | 0% | 0hPa | 2.0V | 00:00:00 | 00:00:00 | 00:00:00 | |
| DB0UT-7 | 2026-09-04 16:58:25 | 48.50667 | 4.87807 | 82° | 95km/h | 7512m | -2.4m/s | 0°C | 0% | 0hPa | 2.0V | 00:00:00 | 00:00:00 | 00:00:00 | |
| DF1GD-15 | 2026-09-04 16:58:16 | 48.50597 | 4.87481 | 68° | 88km/h | 7535m | -2.2m/s | 0°C | 0% | 0hPa | 2.0V | 00:00:00 | 00:00:00 | 00:00:00 | |
| DF1GD-15 | 2026-09-04 16:57:56 | 48.50448 | 4.86817 | 77° | 91km/h | 7585m | -1.7m/s | 0°C | 0% | 0hPa | 2.0V | 00:00:00 | 00:00:00 | 00:00:00 | |
| DB0UT-7 | 2026-09-04 16:57:55 | 48.50442 | 4.86782 | 77° | 95km/h | 7587m | -2.5m/s | 0°C | 0% | 0hPa | 2.0V | 00:00:00 | 00:00:00 | 00:00:00 | |
| DF1GD-15 | 2026-09-04 16:57:36 | 48.50292 | 4.86121 | 70° | 106km/h | 7640m | -2.1m/s | 0°C | 0% | 0hPa | 2.0V | 00:00:00 | 00:00:00 | 00:00:00 | |
| DB0UT-7 | 2026-09-04 16:57:25 | 48.50198 | 4.85762 | 78° | 97km/h | 7662m | -2.6m/s | 0°C | 0% | 0hPa | 2.0V | 00:00:00 | 00:00:00 | 00:00:00 | |
| DF1GD-15 | 2026-09-04 16:57:15 | 48.50104 | 4.85407 | 68° | 86km/h | 7689m | -1.5m/s | 0°C | 0% | 0hPa | 2.0V | 00:00:00 | 00:00:00 | 00:00:00 | |
| DB0UT-7 | 2026-09-04 16:56:55 | 48.49959 | 4.84710 | 78° | 100km/h | 7740m | -2.6m/s | 0°C | 0% | 0hPa | 2.0V | 00:00:00 | 00:00:00 | 00:00:00 | |
| DF1GD-15 | 2026-09-04 16:56:54 | 48.49953 | 4.84671 | 77° | 106km/h | 7743m | -2.7m/s | 0°C | 0% | 0hPa | 2.0V | 00:00:00 | 00:00:00 | 00:00:00 | |
| DF1GD-15 | 2026-09-04 16:56:34 | 48.49797 | 4.83932 | 69° | 102km/h | 7794m | -2.6m/s | 0°C | 0% | 0hPa | 2.0V | 00:00:00 | 00:00:00 | 00:00:00 | |
| DB0UT-7 | 2026-09-04 16:56:25 | 48.49743 | 4.83607 | 78° | 104km/h | 7818m | -2.5m/s | 0°C | 0% | 0hPa | 2.0V | 00:00:00 | 00:00:00 | 00:00:00 | |
| DF1GD-15 | 2026-09-04 16:56:13 | 48.49652 | 4.83158 | 82° | 102km/h | 7849m | -2.6m/s | 0°C | 0% | 0hPa | 2.0V | 00:00:00 | 00:00:00 | 00:00:00 | |
| DB0UT-7 | 2026-09-04 16:55:55 | 48.49536 | 4.82463 | 79° | 104km/h | 7898m | -2.6m/s | 0°C | 0% | 0hPa | 2.0V | 00:00:00 | 00:00:00 | 00:00:00 | |
| DF1GD-15 | 2026-09-04 16:55:52 | 48.49513 | 4.82337 | 72° | 111km/h | 7906m | -2.5m/s | 0°C | 0% | 0hPa | 2.0V | 00:00:00 | 00:00:00 | 00:00:00 | |
| DF1GD-15 | 2026-09-04 16:55:31 | 48.49379 | 4.81548 | 82° | 95km/h | 7962m | -2.7m/s | 0°C | 0% | 0hPa | 2.0V | 00:00:00 | 00:00:00 | 00:00:00 | |
| DB0UT-7 | 2026-09-04 16:55:25 | 48.49354 | 4.81306 | 76° | 104km/h | 7978m | -2.6m/s | 0°C | 0% | 0hPa | 2.0V | 00:00:00 | 00:00:00 | 00:00:00 | |
| DF1GD-15 | 2026-09-04 16:55:10 | 48.49273 | 4.80726 | 77° | 113km/h | 8019m | -2.7m/s | 0°C | 0% | 0hPa | 2.0V | 00:00:00 | 00:00:00 | 00:00:00 | |
| DB0UT-7 | 2026-09-04 16:54:55 | 48.49198 | 4.80146 | 76° | 104km/h | 8059m | -2.7m/s | 0°C | 0% | 0hPa | 2.0V | 00:00:00 | 00:00:00 | 00:00:00 | |
| DF1GD-15 | 2026-09-04 16:54:50 | 48.49165 | 4.79959 | 80° | 93km/h | 8073m | -2.8m/s | 0°C | 0% | 0hPa | 2.0V | 00:00:00 | 00:00:00 | 00:00:00 | |
| DF1GD-15 | 2026-09-04 16:54:29 | 48.49080 | 4.79142 | 84° | 113km/h | 8129m | -2.6m/s | 0°C | 0% | 0hPa | 2.0V | 00:00:00 | 00:00:00 | 00:00:00 | |
| DB0UT-7 | 2026-09-04 16:54:25 | 48.49057 | 4.78979 | 74° | 102km/h | 8139m | -2.8m/s | 0°C | 0% | 0hPa | 2.0V | 00:00:00 | 00:00:00 | 00:00:00 | |
| DF1GD-15 | 2026-09-04 16:54:09 | 48.48980 | 4.78371 | 75° | 95km/h | 8183m | -2.7m/s | 0°C | 0% | 0hPa | 2.0V | 00:00:00 | 00:00:00 | 00:00:00 | |
| DB0UT-7 | 2026-09-04 16:53:56 | 48.48909 | 4.77842 | 74° | 100km/h | 8220m | -2.7m/s | 0°C | 0% | 0hPa | 2.0V | 00:00:00 | 00:00:00 | 00:00:00 | |
| DF1GD-15 | 2026-09-04 16:53:46 | 48.48873 | 4.77516 | 80° | 111km/h | 8244m | -2.8m/s | 0°C | 0% | 0hPa | 2.0V | 00:00:00 | 00:00:00 | 00:00:00 | |
| DB0UT-7 | 2026-09-04 16:53:25 | 48.48750 | 4.76738 | 76° | 99km/h | 8302m | -2.8m/s | 0°C | 0% | 0hPa | 2.0V | 00:00:00 | 00:00:00 | 00:00:00 | |
| DF1GD-15 | 2026-09-04 16:53:04 | 48.48649 | 4.75971 | 82° | 108km/h | 8360m | -2.8m/s | 0°C | 0% | 0hPa | 2.0V | 00:00:00 | 00:00:00 | 00:00:00 | |
| DB0UT-7 | 2026-09-04 16:52:55 | 48.48588 | 4.75636 | 79° | 100km/h | 8386m | -2.8m/s | 0°C | 0% | 0hPa | 2.0V | 00:00:00 | 00:00:00 | 00:00:00 | |
| DF1GD-15 | 2026-09-04 16:52:43 | 48.48523 | 4.75180 | 72° | 93km/h | 8419m | -2.8m/s | 0°C | 0% | 0hPa | 2.0V | 00:00:00 | 00:00:00 | 00:00:00 | |
| DB0UT-7 | 2026-09-04 16:52:25 | 48.48420 | 4.74514 | 83° | 102km/h | 8469m | -2.7m/s | 0°C | 0% | 0hPa | 2.0V | 00:00:00 | 00:00:00 | 00:00:00 | |
| DF1GD-15 | 2026-09-04 16:52:22 | 48.48411 | 4.74398 | 84° | 110km/h | 8478m | -2.8m/s | 0°C | 0% | 0hPa | 2.0V | 00:00:00 | 00:00:00 | 00:00:00 | |
| DF1GD-15 | 2026-09-04 16:52:02 | 48.48297 | 4.73620 | 73° | 106km/h | 8535m | -2.7m/s | 0°C | 0% | 0hPa | 2.0V | 00:00:00 | 00:00:00 | 00:00:00 | |
| DB0UT-7 | 2026-09-04 16:51:55 | 48.48259 | 4.73376 | 85° | 100km/h | 8555m | -2.9m/s | 0°C | 0% | 0hPa | 2.0V | 00:00:00 | 00:00:00 | 00:00:00 | |
| DF1GD-15 | 2026-09-04 16:51:42 | 48.48189 | 4.72884 | 84° | 93km/h | 8590m | -2.8m/s | 0°C | 0% | 0hPa | 2.0V | 00:00:00 | 00:00:00 | 00:00:00 | |
| DB0UT-7 | 2026-09-04 16:51:25 | 48.48109 | 4.72248 | 86° | 100km/h | 8639m | -2.8m/s | 0°C | 0% | 0hPa | 2.0V | 00:00:00 | 00:00:00 | 00:00:00 | |
| DF1GD-15 | 2026-09-04 16:51:21 | 48.48094 | 4.72087 | 78° | 111km/h | 8651m | -2.7m/s | 0°C | 0% | 0hPa | 2.0V | 00:00:00 | 00:00:00 | 00:00:00 | |
| DF1GD-15 | 2026-09-04 16:51:00 | 48.47969 | 4.71308 | 76° | 89km/h | 8711m | -3.0m/s | 0°C | 0% | 0hPa | 2.0V | 00:00:00 | 00:00:00 | 00:00:00 | |
| DB0UT-7 | 2026-09-04 16:50:55 | 48.47952 | 4.71129 | 83° | 102km/h | 8725m | -2.6m/s | 0°C | 0% | 0hPa | 2.0V | 00:00:00 | 00:00:00 | 00:00:00 | |
| DF1GD-15 | 2026-09-04 16:50:40 | 48.47867 | 4.70565 | 83° | 108km/h | 8767m | -2.8m/s | 0°C | 0% | 0hPa | 2.0V | 00:00:00 | 00:00:00 | 00:00:00 | |
| DB0UT-7 | 2026-09-04 16:50:25 | 48.47783 | 4.70003 | 82° | 102km/h | 8810m | -2.6m/s | 0°C | 0% | 0hPa | 2.0V | 00:00:00 | 00:00:00 | 00:00:00 | |
| DF1GD-15 | 2026-09-04 16:50:20 | 48.47739 | 4.69766 | 71° | 99km/h | 8827m | -2.8m/s | 0°C | 0% | 0hPa | 2.0V | 00:00:00 | 00:00:00 | 00:00:00 | |
| DF1GD-15 | 2026-09-04 16:49:57 | 48.47622 | 4.68953 | 85° | 108km/h | 8889m | -2.8m/s | 0°C | 0% | 0hPa | 2.0V | 00:00:00 | 00:00:00 | 00:00:00 | |
| DB0UT-7 | 2026-09-04 16:49:55 | 48.47614 | 4.68870 | 80° | 104km/h | 8895m | -2.8m/s | 0°C | 0% | 0hPa | 2.0V | 00:00:00 | 00:00:00 | 00:00:00 | |
| DF1GD-15 | 2026-09-04 16:49:37 | 48.47510 | 4.68179 | 73° | 104km/h | 8944m | -2.8m/s | 0°C | 0% | 0hPa | 2.0V | 00:00:00 | 00:00:00 | 00:00:00 | |
| DB0UT-7 | 2026-09-04 16:49:25 | 48.47456 | 4.67725 | 78° | 104km/h | 8977m | -2.6m/s | 0°C | 0% | 0hPa | 2.0V | 00:00:00 | 00:00:00 | 00:00:00 | |
| DF1GD-15 | 2026-09-04 16:49:14 | 48.47399 | 4.67316 | 86° | 108km/h | 9007m | -2.8m/s | 0°C | 0% | 0hPa | 2.0V | 00:00:00 | 00:00:00 | 00:00:00 | |
| DB0UT-7 | 2026-09-04 16:48:55 | 48.47307 | 4.66566 | 76° | 104km/h | 9059m | -2.5m/s | 0°C | 0% | 0hPa | 2.0V | 00:00:00 | 00:00:00 | 00:00:00 | |
| DF1GD-15 | 2026-09-04 16:48:52 | 48.47285 | 4.66450 | 74° | 99km/h | 9067m | -2.7m/s | 0°C | 0% | 0hPa | 2.0V | 00:00:00 | 00:00:00 | 00:00:00 | |
| DF1GD-15 | 2026-09-04 16:48:31 | 48.47189 | 4.65664 | 88° | 102km/h | 9122m | -2.6m/s | 0°C | 0% | 0hPa | 2.0V | 00:00:00 | 00:00:00 | 00:00:00 | |
| DB0UT-7 | 2026-09-04 16:48:25 | 48.47162 | 4.65416 | 74° | 100km/h | 9138m | -2.5m/s | 0°C | 0% | 0hPa | 2.0V | 00:00:00 | 00:00:00 | 00:00:00 | |
| DF1GD-15 | 2026-09-04 16:48:10 | 48.47089 | 4.64856 | 74° | 102km/h | 9178m | -2.6m/s | 0°C | 0% | 0hPa | 2.0V | 00:00:00 | 00:00:00 | 00:00:00 | |
| DB0UT-7 | 2026-09-04 16:47:54 | 48.47013 | 4.64258 | 73° | 100km/h | 9221m | -2.6m/s | 0°C | 0% | 0hPa | 2.0V | 00:00:00 | 00:00:00 | 00:00:00 | |
| DF1GD-15 | 2026-09-04 16:47:50 | 48.46993 | 4.64125 | 85° | 89km/h | 9231m | -2.6m/s | 0°C | 0% | 0hPa | 2.0V | 00:00:00 | 00:00:00 | 00:00:00 | |
| DF1GD-15 | 2026-09-04 16:47:30 | 48.46914 | 4.63369 | 82° | 113km/h | 9283m | -2.7m/s | 0°C | 0% | 0hPa | 2.0V | 00:00:00 | 00:00:00 | 00:00:00 | |
| DB0UT-7 | 2026-09-04 16:47:23 | 48.46868 | 4.63102 | 78° | 102km/h | 9302m | -2.6m/s | 0°C | 0% | 0hPa | 2.0V | 00:00:00 | 00:00:00 | 00:00:00 | |
| DB0UT-7 | 2026-09-04 16:46:53 | 48.46729 | 4.61968 | 80° | 104km/h | 9381m | -2.5m/s | 0°C | 0% | 0hPa | 2.0V | 00:00:00 | 00:00:00 | 00:00:00 | |
| DF1GD-15 | 2026-09-04 16:46:43 | 48.46688 | 4.61570 | 74° | 108km/h | 9407m | -2.6m/s | 0°C | 0% | 0hPa | 2.0V | 00:00:00 | 00:00:00 | 00:00:00 | |
| DB0UT-7 | 2026-09-04 16:46:23 | 48.46584 | 4.60818 | 83° | 104km/h | 9460m | -2.7m/s | 0°C | 0% | 0hPa | 2.0V | 00:00:00 | 00:00:00 | 00:00:00 | |
| DF1GD-15 | 2026-09-04 16:46:20 | 48.46577 | 4.60706 | 86° | 106km/h | 9468m | -2.5m/s | 0°C | 0% | 0hPa | 2.0V | 00:00:00 | 00:00:00 | 00:00:00 | |
| DF1GD-15 | 2026-09-04 16:45:57 | 48.46451 | 4.59797 | 74° | 97km/h | 9531m | -2.6m/s | 0°C | 0% | 0hPa | 2.0V | 00:00:00 | 00:00:00 | 00:00:00 | |
| DB0UT-7 | 2026-09-04 16:45:52 | 48.46429 | 4.59622 | 86° | 104km/h | 9545m | -2.7m/s | 0°C | 0% | 0hPa | 2.0V | 00:00:00 | 00:00:00 | 00:00:00 | |
| DF1GD-15 | 2026-09-04 16:45:35 | 48.46347 | 4.58965 | 86° | 110km/h | 9591m | -2.5m/s | 0°C | 0% | 0hPa | 2.0V | 00:00:00 | 00:00:00 | 00:00:00 | |
| DB0UT-7 | 2026-09-04 16:45:22 | 48.46274 | 4.58467 | 86° | 102km/h | 9626m | -2.7m/s | 0°C | 0% | 0hPa | 2.0V | 00:00:00 | 00:00:00 | 00:00:00 | |
| DF1GD-15 | 2026-09-04 16:45:11 | 48.46208 | 4.58036 | 78° | 89km/h | 9656m | -2.8m/s | 0°C | 0% | 0hPa | 2.0V | 00:00:00 | 00:00:00 | 00:00:00 | |
| DB0UT-7 | 2026-09-04 16:44:52 | 48.46113 | 4.57322 | 85° | 102km/h | 9706m | -2.5m/s | 0°C | 0% | 0hPa | 2.0V | 00:00:00 | 00:00:00 | 00:00:00 | |
| DF1GD-15 | 2026-09-04 16:44:49 | 48.46102 | 4.57197 | 80° | 115km/h | 9715m | -2.7m/s | 0°C | 0% | 0hPa | 2.0V | 00:00:00 | 00:00:00 | 00:00:00 | |
| DF1GD-15 | 2026-09-04 16:44:29 | 48.45978 | 4.56432 | 73° | 95km/h | 9769m | -2.7m/s | 0°C | 0% | 0hPa | 2.0V | 00:00:00 | 00:00:00 | 00:00:00 | |
| DB0UT-7 | 2026-09-04 16:44:22 | 48.45951 | 4.56186 | 85° | 102km/h | 9789m | -2.6m/s | 0°C | 0% | 0hPa | 2.0V | 00:00:00 | 00:00:00 | 00:00:00 | |
| DF1GD-15 | 2026-09-04 16:44:08 | 48.45873 | 4.55659 | 86° | 106km/h | 9827m | -2.8m/s | 0°C | 0% | 0hPa | 2.0V | 00:00:00 | 00:00:00 | 00:00:00 | |
| DB0UT-7 | 2026-09-04 16:43:51 | 48.45789 | 4.55006 | 80° | 102km/h | 9872m | -2.6m/s | 0°C | 0% | 0hPa | 2.0V | 00:00:00 | 00:00:00 | 00:00:00 | |
| DF1GD-15 | 2026-09-04 16:43:47 | 48.45760 | 4.54842 | 72° | 106km/h | 9884m | -2.8m/s | 0°C | 0% | 0hPa | 2.0V | 00:00:00 | 00:00:00 | 00:00:00 | |
| DF1GD-15 | 2026-09-04 16:43:27 | 48.45659 | 4.54089 | 84° | 91km/h | 9939m | -2.9m/s | 0°C | 0% | 0hPa | 2.0V | 00:00:00 | 00:00:00 | 00:00:00 | |
| DB0UT-7 | 2026-09-04 16:43:21 | 48.45647 | 4.53853 | 82° | 104km/h | 9955m | -2.7m/s | 0°C | 0% | 0hPa | 2.0V | 00:00:00 | 00:00:00 | 00:00:00 | |
| DF1GD-15 | 2026-09-04 16:43:07 | 48.45590 | 4.53312 | 85° | 115km/h | 9994m | -2.7m/s | 0°C | 0% | 0hPa | 2.0V | 00:00:00 | 00:00:00 | 00:00:00 | |
| DB0UT-7 | 2026-09-04 16:42:51 | 48.45526 | 4.52681 | 81° | 104km/h | 10038m | -2.6m/s | 0°C | 0% | 0hPa | 2.0V | 00:00:00 | 00:00:00 | 00:00:00 | |
| DF1GD-15 | 2026-09-04 16:42:46 | 48.45494 | 4.52484 | 77° | 95km/h | 10052m | -2.9m/s | 0°C | 0% | 0hPa | 2.0V | 00:00:00 | 00:00:00 | 00:00:00 | |
| DB0UT-7 | 2026-09-04 16:42:21 | 48.45418 | 4.51518 | 80° | 100km/h | 10121m | -2.7m/s | 0°C | 0% | 0hPa | 2.0V | 00:00:00 | 00:00:00 | 00:00:00 | |
| DF1GD-15 | 2026-09-04 16:42:04 | 48.45364 | 4.50864 | 77° | 104km/h | 10168m | -2.8m/s | 0°C | 0% | 0hPa | 2.0V | 00:00:00 | 00:00:00 | 00:00:00 | |
| DB0UT-7 | 2026-09-04 16:41:51 | 48.45333 | 4.50375 | 80° | 99km/h | 10204m | -2.6m/s | 0°C | 0% | 0hPa | 2.0V | 00:00:00 | 00:00:00 | 00:00:00 | |
| DF1GD-15 | 2026-09-04 16:41:43 | 48.45306 | 4.50095 | 92° | 91km/h | 10226m | -2.8m/s | 0°C | 0% | 0hPa | 2.0V | 00:00:00 | 00:00:00 | 00:00:00 | |
| DB0UT-7 | 2026-09-04 16:41:21 | 48.45266 | 4.49262 | 80° | 97km/h | 10287m | -2.8m/s | 0°C | 0% | 0hPa | 2.0V | 00:00:00 | 00:00:00 | 00:00:00 | |
| DF1GD-15 | 2026-09-04 16:41:00 | 48.45209 | 4.48501 | 88° | 82km/h | 10346m | -2.8m/s | 0°C | 0% | 0hPa | 2.0V | 00:00:00 | 00:00:00 | 00:00:00 | |
| DB0UT-7 | 2026-09-04 16:40:51 | 48.45201 | 4.48162 | 79° | 93km/h | 10371m | -2.7m/s | 0°C | 0% | 0hPa | 2.0V | 00:00:00 | 00:00:00 | 00:00:00 | |
| DF1GD-15 | 2026-09-04 16:40:39 | 48.45178 | 4.47747 | 88° | 106km/h | 10406m | -2.9m/s | 0°C | 0% | 0hPa | 2.0V | 00:00:00 | 00:00:00 | 00:00:00 | |
| DB0UT-7 | 2026-09-04 16:40:21 | 48.45132 | 4.47111 | 77° | 89km/h | 10460m | -2.9m/s | 0°C | 0% | 0hPa | 2.0V | 00:00:00 | 00:00:00 | 00:00:00 | |
| DF1GD-15 | 2026-09-04 16:40:17 | 48.45112 | 4.46982 | 81° | 78km/h | 10472m | -3.2m/s | 0°C | 0% | 0hPa | 2.0V | 00:00:00 | 00:00:00 | 00:00:00 | |
| DB0UT-7 | 2026-09-04 16:39:51 | 48.45062 | 4.46098 | 78° | 84km/h | 10550m | -3.0m/s | 0°C | 0% | 0hPa | 2.0V | 00:00:00 | 00:00:00 | 00:00:00 | |
| DF1GD-15 | 2026-09-04 16:39:33 | 48.45025 | 4.45525 | 82° | 73km/h | 10605m | -3.2m/s | 0°C | 0% | 0hPa | 2.0V | 00:00:00 | 00:00:00 | 00:00:00 | |
| DB0UT-7 | 2026-09-04 16:39:20 | 48.45017 | 4.45119 | 79° | 80km/h | 10645m | -2.9m/s | 0°C | 0% | 0hPa | 2.0V | 00:00:00 | 00:00:00 | 00:00:00 | |
| DF1GD-15 | 2026-09-04 16:39:09 | 48.45021 | 4.44790 | 86° | 91km/h | 10678m | -3.1m/s | 0°C | 0% | 0hPa | 2.0V | 00:00:00 | 00:00:00 | 00:00:00 | |
| DB0UT-7 | 2026-09-04 16:38:50 | 48.44989 | 4.44201 | 78° | 84km/h | 10737m | -3.0m/s | 0°C | 0% | 0hPa | 2.0V | 00:00:00 | 00:00:00 | 00:00:00 | |
| DF1GD-15 | 2026-09-04 16:38:47 | 48.44983 | 4.44122 | 91° | 69km/h | 10746m | -3.0m/s | 0°C | 0% | 0hPa | 2.0V | 00:00:00 | 00:00:00 | 00:00:00 | |
| DL1ZP-14 | 2026-09-04 16:38:35 | 48.44974 | 4.43464 | 89° | 95km/h | 10809m | -3.1m/s | -46.2°C | 0.0% | 252.0hPa | 2.0V | 00:00:00 | 00:00:00 | 00:00:00 | |
| DF1GD-15 | 2026-09-04 16:38:26 | 48.44974 | 4.43464 | 91° | 97km/h | 10810m | -3.1m/s | 0°C | 0% | 0hPa | 2.0V | 00:00:00 | 00:00:00 | 00:00:00 | |
| DB0UT-7 | 2026-09-04 16:38:20 | 48.44953 | 4.43263 | 78° | 84km/h | 10828m | -3.0m/s | 0°C | 0% | 0hPa | 2.0V | 00:00:00 | 00:00:00 | 00:00:00 | |
| DF1GD-15 | 2026-09-04 16:38:06 | 48.44931 | 4.42813 | 77° | 82km/h | 10871m | -3.0m/s | 0°C | 0% | 0hPa | 2.0V | 00:00:00 | 00:00:00 | 00:00:00 | |
| DL1ZP-14 | 2026-09-04 16:38:04 | 48.44920 | 4.42429 | 79° | 93km/h | 10905m | -2.8m/s | -46.9°C | 0.0% | 248.4hPa | 2.0V | 00:00:00 | 00:00:00 | 00:00:00 | |
| DB0UT-7 | 2026-09-04 16:37:50 | 48.44903 | 4.42306 | 82° | 82km/h | 10916m | -2.9m/s | 0°C | 0% | 0hPa | 2.0V | 00:00:00 | 00:00:00 | 00:00:00 | |
| DF1GD-15 | 2026-09-04 16:37:44 | 48.44907 | 4.42132 | 96° | 91km/h | 10933m | -2.8m/s | 0°C | 0% | 0hPa | 2.0V | 00:00:00 | 00:00:00 | 00:00:00 | |
| DL1ZP-14 | 2026-09-04 16:37:33 | 48.44892 | 4.41747 | 97° | 75km/h | 10968m | -3.2m/s | -47.4°C | 0.0% | 246.1hPa | 2.0V | 00:00:00 | 00:00:00 | 00:00:00 | |
| DF1GD-15 | 2026-09-04 16:37:24 | 48.44899 | 4.41476 | 82° | 86km/h | 10991m | -2.7m/s | 0°C | 0% | 0hPa | 2.0V | 00:00:00 | 00:00:00 | 00:00:00 | |
| DB0UT-7 | 2026-09-04 16:37:20 | 48.44889 | 4.41362 | 88° | 77km/h | 11002m | -2.9m/s | 0°C | 0% | 0hPa | 2.0V | 00:00:00 | 00:00:00 | 00:00:00 | |
| DF1GD-15 | 2026-09-04 16:37:04 | 48.44897 | 4.40893 | 98° | 64km/h | 11048m | -2.9m/s | 0°C | 0% | 0hPa | 2.0V | 00:00:00 | 00:00:00 | 00:00:00 | |
| DL1ZP-14 | 2026-09-04 16:37:02 | 48.44924 | 4.40363 | 98° | 84km/h | 11103m | -2.9m/s | -47.9°C | 0.0% | 241.1hPa | 2.0V | 00:00:00 | 00:00:00 | 00:00:00 | |
| DB0UT-7 | 2026-09-04 16:36:50 | 48.44905 | 4.40497 | 97° | 73km/h | 11089m | -2.8m/s | 0°C | 0% | 0hPa | 2.0V | 00:00:00 | 00:00:00 | 00:00:00 | |
| DF1GD-15 | 2026-09-04 16:36:42 | 48.44928 | 4.40265 | 89° | 86km/h | 11112m | -2.9m/s | 0°C | 0% | 0hPa | 2.0V | 00:00:00 | 00:00:00 | 00:00:00 | |
| DF1GD-15 | 2026-09-04 16:36:22 | 48.44930 | 4.39718 | 91° | 57km/h | 11170m | -2.8m/s | 0°C | 0% | 0hPa | 2.0V | 00:00:00 | 00:00:00 | 00:00:00 | |
| DB0UT-7 | 2026-09-04 16:36:20 | 48.44934 | 4.39675 | 103° | 69km/h | 11176m | -2.9m/s | 0°C | 0% | 0hPa | 2.0V | 00:00:00 | 00:00:00 | 00:00:00 | |
| DF1GD-15 | 2026-09-04 16:36:00 | 48.44971 | 4.39141 | 96° | 82km/h | 11235m | -2.7m/s | 0°C | 0% | 0hPa | 2.0V | 00:00:00 | 00:00:00 | 00:00:00 | |
| DB0UT-7 | 2026-09-04 16:35:50 | 48.44973 | 4.38894 | 108° | 68km/h | 11264m | -2.9m/s | 0°C | 0% | 0hPa | 2.0V | 00:00:00 | 00:00:00 | 00:00:00 | |
| DF1GD-15 | 2026-09-04 16:35:39 | 48.44992 | 4.38601 | 93° | 53km/h | 11296m | -2.9m/s | 0°C | 0% | 0hPa | 2.0V | 00:00:00 | 00:00:00 | 00:00:00 | |
| DB0UT-7 | 2026-09-04 16:35:19 | 48.45053 | 4.38123 | 112° | 68km/h | 11355m | -2.9m/s | 0°C | 0% | 0hPa | 2.0V | 00:00:00 | 00:00:00 | 00:00:00 | |
| DF1GD-15 | 2026-09-04 16:35:17 | 48.45066 | 4.38068 | 107° | 80km/h | 11361m | -3.0m/s | 0°C | 0% | 0hPa | 2.0V | 00:00:00 | 00:00:00 | 00:00:00 | |
| DL1ZP-14 | 2026-09-04 16:34:58 | 48.45166 | 4.37291 | 97° | 78km/h | 11453m | -2.8m/s | -50.9°C | 0.0% | 228.5hPa | 2.0V | 00:00:00 | 00:00:00 | 00:00:00 | |
| DB0UT-7 | 2026-09-04 16:34:49 | 48.45151 | 4.37377 | 111° | 66km/h | 11444m | -2.8m/s | 0°C | 0% | 0hPa | 0V | 00:00:00 | 00:00:00 | 00:00:00 | |
| DB0UT-7 | 2026-09-04 16:34:19 | 48.45232 | 4.36650 | 107° | 66km/h | 11533m | -2.9m/s | 0°C | 0% | 0hPa | 0V | 00:00:00 | 00:00:00 | 00:00:00 | |
| DB0UT-7 | 2026-09-04 16:33:49 | 48.45284 | 4.35907 | 99° | 68km/h | 11622m | -3.2m/s | 0°C | 0% | 0hPa | 0V | 00:00:00 | 00:00:00 | 00:00:00 | |
| DF1GD-15 | 2026-09-04 16:33:39 | 48.45278 | 4.35661 | 105° | 55km/h | 11652m | -3.0m/s | 0°C | 0% | 0hPa | 0V | 00:00:00 | 00:00:00 | 00:00:00 | |
| DB0UT-7 | 2026-09-04 16:33:19 | 48.45301 | 4.35149 | 93° | 69km/h | 11709m | -3.0m/s | 0°C | 0% | 0hPa | 0V | 00:00:00 | 00:00:00 | 00:00:00 | |
| DF1GD-15 | 2026-09-04 16:33:17 | 48.45299 | 4.35088 | 84° | 78km/h | 11715m | -3.0m/s | 0°C | 0% | 0hPa | 0V | 00:00:00 | 00:00:00 | 00:00:00 | |
| DF1GD-15 | 2026-09-04 16:32:56 | 48.45291 | 4.34563 | 99° | 55km/h | 11777m | -3.0m/s | 0°C | 0% | 0hPa | 0V | 00:00:00 | 00:00:00 | 00:00:00 | |
| DB0UT-7 | 2026-09-04 16:32:49 | 48.45310 | 4.34370 | 89° | 69km/h | 11798m | -2.9m/s | 0°C | 0% | 0hPa | 0V | 00:00:00 | 00:00:00 | 00:00:00 | |
| DF1GD-15 | 2026-09-04 16:32:34 | 48.45319 | 4.33975 | 87° | 82km/h | 11842m | -2.9m/s | 0°C | 0% | 0hPa | 0V | 00:00:00 | 00:00:00 | 00:00:00 | |
| DB0UT-7 | 2026-09-04 16:32:18 | 48.45325 | 4.33551 | 81° | 73km/h | 11890m | -3.1m/s | 0°C | 0% | 0hPa | 0V | 00:00:00 | 00:00:00 | 00:00:00 | |
| DF1GD-15 | 2026-09-04 16:32:13 | 48.45314 | 4.33433 | 96° | 55km/h | 11904m | -2.8m/s | 0°C | 0% | 0hPa | 0V | 00:00:00 | 00:00:00 | 00:00:00 | |
| DF1GD-15 | 2026-09-04 16:31:53 | 48.45343 | 4.32893 | 100° | 86km/h | 11964m | -2.9m/s | 0°C | 0% | 0hPa | 0V | 00:00:00 | 00:00:00 | 00:00:00 | |
| DB0UT-7 | 2026-09-04 16:31:48 | 48.45343 | 4.32735 | 83° | 75km/h | 11979m | -3.0m/s | 0°C | 0% | 0hPa | 0V | 00:00:00 | 00:00:00 | 00:00:00 | |
| DB0UT-7 | 2026-09-04 16:31:18 | 48.45392 | 4.31902 | 82° | 75km/h | 12071m | -3.3m/s | 0°C | 0% | 0hPa | 0V | 00:00:00 | 00:00:00 | 00:00:00 | |
| DF1GD-15 | 2026-09-04 16:30:57 | 48.45434 | 4.31352 | 110° | 77km/h | 12135m | -2.8m/s | 0°C | 0% | 0hPa | 0V | 00:00:00 | 00:00:00 | 00:00:00 | |
| DB0UT-7 | 2026-09-04 16:30:48 | 48.45447 | 4.31079 | 88° | 75km/h | 12160m | -2.7m/s | 0°C | 0% | 0hPa | 0V | 00:00:00 | 00:00:00 | 00:00:00 | |
| DF1GD-15 | 2026-09-04 16:30:30 | 48.45482 | 4.30578 | 104° | 60km/h | 12214m | -3.9m/s | 0°C | 0% | 0hPa | 0V | 00:00:00 | 00:00:00 | 00:00:00 | |
| DB0UT-7 | 2026-09-04 16:30:18 | 48.45500 | 4.30219 | 85° | 77km/h | 12256m | -3.6m/s | 0°C | 0% | 0hPa | 0V | 00:00:00 | 00:00:00 | 00:00:00 | |
| DB0UT-7 | 2026-09-04 16:29:48 | 48.45515 | 4.29350 | 80° | 78km/h | 12347m | -2.9m/s | 0°C | 0% | 0hPa | 0V | 00:00:00 | 00:00:00 | 00:00:00 | |
| DB0UT-7 | 2026-09-04 16:29:18 | 48.45434 | 4.28488 | 69° | 78km/h | 12434m | -2.7m/s | 0°C | 0% | 0hPa | 0V | 00:00:00 | 00:00:00 | 00:00:00 | |
| DB0UT-7 | 2026-09-04 16:28:48 | 48.45303 | 4.27617 | 69° | 82km/h | 12519m | -2.6m/s | 0°C | 0% | 0hPa | 0V | 00:00:00 | 00:00:00 | 00:00:00 | |
| DF1GD-15 | 2026-09-04 16:28:28 | 48.45221 | 4.27021 | 88° | 89km/h | 12575m | -3.0m/s | 0°C | 0% | 0hPa | 0V | 00:00:00 | 00:00:00 | 00:00:00 | |
| DB0UT-7 | 2026-09-04 16:28:18 | 48.45158 | 4.26696 | 78° | 84km/h | 12605m | -2.9m/s | 0°C | 0% | 0hPa | 0V | 00:00:00 | 00:00:00 | 00:00:00 | |
| DF1GD-15 | 2026-09-04 16:28:07 | 48.45113 | 4.26337 | 67° | 82km/h | 12639m | -3.1m/s | 0°C | 0% | 0hPa | 0V | 00:00:00 | 00:00:00 | 00:00:00 | |
| DB0UT-7 | 2026-09-04 16:27:48 | 48.45034 | 4.25776 | 89° | 84km/h | 12699m | -3.0m/s | 0°C | 0% | 0hPa | 0V | 00:00:00 | 00:00:00 | 00:00:00 | |
| DF1GD-15 | 2026-09-04 16:27:45 | 48.45036 | 4.25686 | 92° | 89km/h | 12709m | -3.3m/s | 0°C | 0% | 0hPa | 0V | 00:00:00 | 00:00:00 | 00:00:00 | |
| DF1GD-15 | 2026-09-04 16:27:22 | 48.44940 | 4.24953 | 72° | 71km/h | 12782m | -2.7m/s | 0°C | 0% | 0hPa | 0V | 00:00:00 | 00:00:00 | 00:00:00 | |
| DB0UT-7 | 2026-09-04 16:27:18 | 48.44932 | 4.24849 | 92° | 88km/h | 12793m | -2.5m/s | 0°C | 0% | 0hPa | 0V | 00:00:00 | 00:00:00 | 00:00:00 | |
| DF1GD-15 | 2026-09-04 16:26:55 | 48.44853 | 4.24075 | 71° | 88km/h | 12865m | -3.0m/s | 0°C | 0% | 0hPa | 0V | 00:00:00 | 00:00:00 | 00:00:00 | |
| DB0UT-7 | 2026-09-04 16:26:48 | 48.44829 | 4.23874 | 92° | 89km/h | 12888m | -3.0m/s | 0°C | 0% | 0hPa | 0V | 00:00:00 | 00:00:00 | 00:00:00 | |
| DF1GD-15 | 2026-09-04 16:26:33 | 48.44772 | 4.23377 | 91° | 89km/h | 12935m | -3.0m/s | 0°C | 0% | 0hPa | 0V | 00:00:00 | 00:00:00 | 00:00:00 | |
| DB0UT-7 | 2026-09-04 16:26:18 | 48.44711 | 4.22880 | 90° | 93km/h | 12981m | -3.0m/s | 0°C | 0% | 0hPa | 0V | 00:00:00 | 00:00:00 | 00:00:00 | |
| DB0UT-7 | 2026-09-04 16:25:48 | 48.44587 | 4.21851 | 88° | 93km/h | 13076m | -3.0m/s | 0°C | 0% | 0hPa | 0V | 00:00:00 | 00:00:00 | 00:00:00 | |
| DF1GD-15 | 2026-09-04 16:25:28 | 48.44494 | 4.21141 | 71° | 95km/h | 13137m | -3.0m/s | 0°C | 0% | 0hPa | 0V | 00:00:00 | 00:00:00 | 00:00:00 | |
| DB0UT-7 | 2026-09-04 16:25:18 | 48.44459 | 4.20824 | 87° | 93km/h | 13167m | -3.1m/s | 0°C | 0% | 0hPa | 0V | 00:00:00 | 00:00:00 | 00:00:00 | |
| DB0UT-7 | 2026-09-04 16:24:48 | 48.44347 | 4.19779 | 88° | 91km/h | 13261m | -3.1m/s | 0°C | 0% | 0hPa | 0V | 00:00:00 | 00:00:00 | 00:00:00 | |
| DF1GD-15 | 2026-09-04 16:24:46 | 48.44342 | 4.19699 | 81° | 108km/h | 13267m | -3.1m/s | 0°C | 0% | 0hPa | 0V | 00:00:00 | 00:00:00 | 00:00:00 | |
| DB0UT-7 | 2026-09-04 16:24:18 | 48.44243 | 4.18785 | 86° | 84km/h | 13353m | -2.9m/s | 0°C | 0% | 0hPa | 0V | 00:00:00 | 00:00:00 | 00:00:00 | |
| DF1GD-15 | 2026-09-04 16:24:15 | 48.44228 | 4.18672 | 74° | 97km/h | 13363m | -3.2m/s | 0°C | 0% | 0hPa | 0V | 00:00:00 | 00:00:00 | 00:00:00 | |
| DF1GD-15 | 2026-09-04 16:23:53 | 48.44129 | 4.18013 | 90° | 71km/h | 13435m | -3.3m/s | 0°C | 0% | 0hPa | 0V | 00:00:00 | 00:00:00 | 00:00:00 | |
| DB0UT-7 | 2026-09-04 16:23:48 | 48.44129 | 4.17849 | 85° | 91km/h | 13452m | -3.5m/s | 0°C | 0% | 0hPa | 0V | 00:00:00 | 00:00:00 | 00:00:00 | |
| DF1GD-15 | 2026-09-04 16:23:26 | 48.44042 | 4.17110 | 82° | 75km/h | 13528m | -3.2m/s | 0°C | 0% | 0hPa | 0V | 00:00:00 | 00:00:00 | 00:00:00 | |
| DB0UT-7 | 2026-09-04 16:23:18 | 48.44043 | 4.16830 | 85° | 97km/h | 13557m | -3.4m/s | 0°C | 0% | 0hPa | 0V | 00:00:00 | 00:00:00 | 00:00:00 | |
| DF1GD-15 | 2026-09-04 16:23:05 | 48.44010 | 4.16375 | 90° | 110km/h | 13602m | -3.5m/s | 0°C | 0% | 0hPa | 0V | 00:00:00 | 00:00:00 | 00:00:00 | |
| DB0UT-7 | 2026-09-04 16:22:48 | 48.43974 | 4.15746 | 83° | 99km/h | 13664m | -3.6m/s | 0°C | 0% | 0hPa | 0V | 00:00:00 | 00:00:00 | 00:00:00 | |
| DB0UT-7 | 2026-09-04 16:22:18 | 48.43883 | 4.14647 | 74° | 93km/h | 13775m | -3.9m/s | 0°C | 0% | 0hPa | 0V | 00:00:00 | 00:00:00 | 00:00:00 | |
| DF1GD-15 | 2026-09-04 16:22:06 | 48.43833 | 4.14248 | 82° | 108km/h | 13821m | -3.6m/s | 0°C | 0% | 0hPa | 0V | 00:00:00 | 00:00:00 | 00:00:00 | |
| DB0UT-7 | 2026-09-04 16:21:48 | 48.43744 | 4.13609 | 71° | 93km/h | 13890m | -3.7m/s | 0°C | 0% | 0hPa | 0V | 00:00:00 | 00:00:00 | 00:00:00 | |
| DF1GD-15 | 2026-09-04 16:21:44 | 48.43715 | 4.13482 | 79° | 77km/h | 13904m | -3.7m/s | 0°C | 0% | 0hPa | 0V | 00:00:00 | 00:00:00 | 00:00:00 | |
| DF1GD-15 | 2026-09-04 16:21:20 | 48.43658 | 4.12625 | 76° | 106km/h | 13995m | -3.8m/s | 0°C | 0% | 0hPa | 0V | 00:00:00 | 00:00:00 | 00:00:00 | |
| DB0UT-7 | 2026-09-04 16:21:18 | 48.43643 | 4.12554 | 71° | 88km/h | 14002m | -3.7m/s | 0°C | 0% | 0hPa | 0V | 00:00:00 | 00:00:00 | 00:00:00 | |
| DF1GD-15 | 2026-09-04 16:21:00 | 48.43600 | 4.11977 | 91° | 68km/h | 14071m | -4.2m/s | 0°C | 0% | 0hPa | 0V | 00:00:00 | 00:00:00 | 00:00:00 | |
| DB0UT-7 | 2026-09-04 16:20:48 | 48.43595 | 4.11581 | 78° | 86km/h | 14119m | -3.8m/s | 0°C | 0% | 0hPa | 0V | 00:00:00 | 00:00:00 | 00:00:00 | |
| DF1GD-15 | 2026-09-04 16:20:37 | 48.43605 | 4.11232 | 80° | 95km/h | 14160m | -3.8m/s | 0°C | 0% | 0hPa | 0V | 00:00:00 | 00:00:00 | 00:00:00 | |
| DB0UT-7 | 2026-09-04 16:20:17 | 48.43573 | 4.10612 | 95° | 84km/h | 14235m | -3.6m/s | 0°C | 0% | 0hPa | 0V | 00:00:00 | 00:00:00 | 00:00:00 | |
| DF1GD-15 | 2026-09-04 16:20:12 | 48.43588 | 4.10449 | 93° | 104km/h | 14253m | -3.6m/s | 0°C | 0% | 0hPa | 0V | 00:00:00 | 00:00:00 | 00:00:00 | |
| DF1GD-15 | 2026-09-04 16:19:50 | 48.43534 | 4.09734 | 80° | 64km/h | 14333m | -3.6m/s | 0°C | 0% | 0hPa | 0V | 00:00:00 | 00:00:00 | 00:00:00 | |
| DB0UT-7 | 2026-09-04 16:19:47 | 48.43533 | 4.09660 | 97° | 84km/h | 14344m | -3.5m/s | 0°C | 0% | 0hPa | 0V | 00:00:00 | 00:00:00 | 00:00:00 | |
| DF1GD-15 | 2026-09-04 16:19:28 | 48.43494 | 4.09053 | 85° | 106km/h | 14411m | -3.7m/s | 0°C | 0% | 0hPa | 0V | 00:00:00 | 00:00:00 | 00:00:00 | |
| DB0UT-7 | 2026-09-04 16:19:17 | 48.43463 | 4.08718 | 100° | 89km/h | 14452m | -4.0m/s | 0°C | 0% | 0hPa | 0V | 00:00:00 | 00:00:00 | 00:00:00 | |
| DB0UT-7 | 2026-09-04 16:18:47 | 48.43466 | 4.07725 | 101° | 91km/h | 14555m | -3.5m/s | 0°C | 0% | 0hPa | 0V | 00:00:00 | 00:00:00 | 00:00:00 | |
| DF1GD-15 | 2026-09-04 16:18:46 | 48.43470 | 4.07685 | 96° | 110km/h | 14559m | -3.8m/s | 0°C | 0% | 0hPa | 0V | 00:00:00 | 00:00:00 | 00:00:00 | |
| HARRO8 | 2026-09-04 16:18:33 | 48.43477 | 4.07031 | 78° | 78km/h | 14627m | -3.8m/s | -61.5°C | -1.0% | 137.6hPa | 0V | 00:00:00 | 00:00:00 | 00:00:00 | |
| DF1GD-15 | 2026-09-04 16:18:22 | 48.43480 | 4.06896 | 106° | 84km/h | 14646m | -3.5m/s | 0°C | 0% | 0hPa | 0V | 00:00:00 | 00:00:00 | 00:00:00 | |
| DB0UT-7 | 2026-09-04 16:18:16 | 48.43495 | 4.06663 | 83° | 86km/h | 14669m | -4.1m/s | 0°C | 0% | 0hPa | 0V | 00:00:00 | 00:00:00 | 00:00:00 | |
| DF1GD-15 | 2026-09-04 16:17:55 | 48.43461 | 4.06000 | 97° | 64km/h | 14750m | -4.1m/s | 0°C | 0% | 0hPa | 0V | 00:00:00 | 00:00:00 | 00:00:00 | |
| DB0UT-7 | 2026-09-04 16:17:45 | 48.43459 | 4.05662 | 71° | 82km/h | 14789m | -4.1m/s | 0°C | 0% | 0hPa | 0V | 00:00:00 | 00:00:00 | 00:00:00 | |
| DF1GD-15 | 2026-09-04 16:17:27 | 48.43413 | 4.05129 | 91° | 60km/h | 14861m | -4.0m/s | 0°C | 0% | 0hPa | 0V | 00:00:00 | 00:00:00 | 00:00:00 | |
| DB0UT-7 | 2026-09-04 16:17:15 | 48.43383 | 4.04738 | 71° | 86km/h | 14910m | -4.1m/s | 0°C | 0% | 0hPa | 0V | 00:00:00 | 00:00:00 | 00:00:00 | |
| DF1GD-15 | 2026-09-04 16:17:01 | 48.43349 | 4.04297 | 75° | 66km/h | 14965m | -4.0m/s | 0°C | 0% | 0hPa | 0V | 00:00:00 | 00:00:00 | 00:00:00 | |
| HARRO8 | 2026-09-04 16:17:00 | 48.43319 | 4.03878 | 68° | 71km/h | 15017m | -4.3m/s | -60.9°C | -1.0% | 129.2hPa | 0V | 00:00:00 | 00:00:00 | 00:00:00 | |
| DB0UT-7 | 2026-09-04 16:16:45 | 48.43310 | 4.03807 | 93° | 84km/h | 15030m | -3.9m/s | 0°C | 0% | 0hPa | 0V | 00:00:00 | 00:00:00 | 00:00:00 | |
| DM0DOS-11 | 2026-09-04 16:16:36 | 48.43266 | 4.03371 | 92° | 64km/h | 15086m | -3.9m/s | 0°C | 0% | 0hPa | 0V | 00:00:00 | 00:00:00 | 00:00:00 | |
| DB0UT-7 | 2026-09-04 16:16:15 | 48.43222 | 4.02884 | 97° | 80km/h | 15150m | -3.8m/s | 0°C | 0% | 0hPa | 0V | 00:00:00 | 00:00:00 | 00:00:00 | |
| DF1GD-15 | 2026-09-04 16:16:03 | 48.43167 | 4.02515 | 89° | 58km/h | 15198m | -4.2m/s | 0°C | 0% | 0hPa | 0V | 00:00:00 | 00:00:00 | 00:00:00 | |
| DB0UT-7 | 2026-09-04 16:15:45 | 48.43133 | 4.01988 | 93° | 78km/h | 15270m | -3.9m/s | 0°C | 0% | 0hPa | 0V | 00:00:00 | 00:00:00 | 00:00:00 | |
| DM0DOS-11 | 2026-09-04 16:15:38 | 48.43101 | 4.01654 | 101° | 82km/h | 15318m | -4.2m/s | 0°C | 0% | 0hPa | 0V | 00:00:00 | 00:00:00 | 00:00:00 | |
| DF1GD-15 | 2026-09-04 16:15:35 | 48.43093 | 4.01706 | 102° | 60km/h | 15310m | -4.1m/s | 0°C | 0% | 0hPa | 2.2V | 00:00:00 | 00:00:00 | 00:00:00 | |
| HARRO8 | 2026-09-04 16:15:26 | 48.43078 | 4.01391 | 69° | 62km/h | 15351m | -3.9m/s | -59.5°C | -1.0% | 122.5hPa | 2.2V | 00:00:00 | 00:00:00 | 00:00:00 | |
| DB0UT-7 | 2026-09-04 16:15:15 | 48.43091 | 4.01109 | 82° | 80km/h | 15392m | -4.0m/s | 0°C | 0% | 0hPa | 2.2V | 00:00:00 | 00:00:00 | 00:00:00 | |
| DF1GD-15 | 2026-09-04 16:15:02 | 48.43087 | 4.00743 | 88° | 99km/h | 15446m | -3.9m/s | 0°C | 0% | 0hPa | 2.2V | 00:00:00 | 00:00:00 | 00:00:00 | |
| HARRO8 | 2026-09-04 16:14:55 | 48.43086 | 4.00286 | 81° | 97km/h | 15508m | -3.8m/s | -60.1°C | -1.0% | 119.5hPa | 2.2V | 00:00:00 | 00:00:00 | 00:00:00 | |
| DB0UT-7 | 2026-09-04 16:14:44 | 48.43069 | 4.00190 | 71° | 75km/h | 15521m | -4.5m/s | 0°C | 0% | 0hPa | 2.2V | 00:00:00 | 00:00:00 | 00:00:00 | |
| DF1GD-15 | 2026-09-04 16:14:42 | 48.43059 | 4.00143 | 78° | 55km/h | 15530m | -4.6m/s | 0°C | 0% | 0hPa | 2.2V | 00:00:00 | 00:00:00 | 00:00:00 | |
| HARRO8 | 2026-09-04 16:14:24 | 48.43053 | 3.99500 | 75° | 93km/h | 15628m | -4.5m/s | -59.7°C | -1.0% | 117.2hPa | 2.2V | 00:00:00 | 00:00:00 | 00:00:00 | |
| DB0UT-7 | 2026-09-04 16:14:14 | 48.43020 | 3.99373 | 79° | 73km/h | 15650m | -4.3m/s | 0°C | 0% | 0hPa | 2.2V | 00:00:00 | 00:00:00 | 00:00:00 | |
| HARRO8 | 2026-09-04 16:13:53 | 48.42995 | 3.98677 | 69° | 82km/h | 15757m | -4.6m/s | -60.5°C | -1.0% | 114.8hPa | 2.2V | 00:00:00 | 00:00:00 | 00:00:00 | |
| DF1GD-15 | 2026-09-04 16:13:52 | 48.43008 | 3.98743 | 81° | 99km/h | 15748m | -4.3m/s | 0°C | 0% | 0hPa | 2.2V | 00:00:00 | 00:00:00 | 00:00:00 | |
| DB0UT-7 | 2026-09-04 16:13:44 | 48.42987 | 3.98543 | 110° | 77km/h | 15783m | -4.8m/s | 0°C | 0% | 0hPa | 2.2V | 00:00:00 | 00:00:00 | 00:00:00 | |
| DF1GD-15 | 2026-09-04 16:13:30 | 48.42990 | 3.98142 | 111° | 71km/h | 15847m | -4.3m/s | 0°C | 0% | 0hPa | 2.2V | 00:00:00 | 00:00:00 | 00:00:00 | |
| DB0UT-7 | 2026-09-04 16:13:14 | 48.42997 | 3.97686 | 103° | 77km/h | 15919m | -4.4m/s | 0°C | 0% | 0hPa | 2.2V | 00:00:00 | 00:00:00 | 00:00:00 | |
| DF1GD-15 | 2026-09-04 16:13:09 | 48.42990 | 3.97508 | 73° | 82km/h | 15942m | -4.7m/s | 0°C | 0% | 0hPa | 2.2V | 00:00:00 | 00:00:00 | 00:00:00 | |
| HARRO8 | 2026-09-04 16:12:51 | 48.42985 | 3.97021 | 111° | 55km/h | 16028m | -4.8m/s | -60.8°C | -1.0% | 109.8hPa | 2.2V | 00:00:00 | 00:00:00 | 00:00:00 | |
| DF1GD-15 | 2026-09-04 16:12:48 | 48.42998 | 3.96974 | 112° | 78km/h | 16037m | -4.3m/s | 0°C | 0% | 0hPa | 2.2V | 00:00:00 | 00:00:00 | 00:00:00 | |
| DB0UT-7 | 2026-09-04 16:12:44 | 48.43012 | 3.96838 | 87° | 71km/h | 16055m | -4.6m/s | 0°C | 0% | 0hPa | 2.2V | 00:00:00 | 00:00:00 | 00:00:00 | |
| DF1GD-15 | 2026-09-04 16:12:23 | 48.43011 | 3.96321 | 111° | 40km/h | 16151m | -4.9m/s | 0°C | 0% | 0hPa | 2.2V | 00:00:00 | 00:00:00 | 00:00:00 | |
| HARRO8 | 2026-09-04 16:12:20 | 48.43038 | 3.96106 | 76° | 78km/h | 16188m | -4.8m/s | -59.9°C | -1.0% | 107.0hPa | 2.2V | 00:00:00 | 00:00:00 | 00:00:00 | |
| DB0UT-7 | 2026-09-04 16:12:14 | 48.43032 | 3.96079 | 72° | 64km/h | 16193m | -4.6m/s | 0°C | 0% | 0hPa | 2.2V | 00:00:00 | 00:00:00 | 00:00:00 | |
| HARRO8 | 2026-09-04 16:11:49 | 48.43035 | 3.95413 | 64° | 58km/h | 16323m | -4.6m/s | -60.3°C | -1.0% | 104.8hPa | 2.2V | 00:00:00 | 00:00:00 | 00:00:00 | |
| DB0UT-7 | 2026-09-04 16:11:43 | 48.43023 | 3.95368 | 90° | 57km/h | 16338m | -4.7m/s | 0°C | 0% | 0hPa | 2.2V | 00:00:00 | 00:00:00 | 00:00:00 | |
| DF1GD-15 | 2026-09-04 16:11:33 | 48.43036 | 3.95134 | 65° | 64km/h | 16383m | -4.8m/s | 0°C | 0% | 0hPa | 2.2V | 00:00:00 | 00:00:00 | 00:00:00 | |
| DB0UT-7 | 2026-09-04 16:11:13 | 48.43014 | 3.94771 | 114° | 58km/h | 16477m | -4.1m/s | 0°C | 0% | 0hPa | 2.2V | 00:00:00 | 00:00:00 | 00:00:00 | |
| DF1GD-15 | 2026-09-04 16:11:10 | 48.43026 | 3.94699 | 96° | 78km/h | 16491m | -4.9m/s | 0°C | 0% | 0hPa | 2.2V | 00:00:00 | 00:00:00 | 00:00:00 | |
| DF1GD-15 | 2026-09-04 16:10:45 | 48.43002 | 3.94189 | 121° | 60km/h | 16607m | -4.9m/s | 0°C | 0% | 0hPa | 2.2V | 00:00:00 | 00:00:00 | 00:00:00 | |
| DB0UT-7 | 2026-09-04 16:10:43 | 48.43016 | 3.94141 | 106° | 57km/h | 16617m | -4.5m/s | 0°C | 0% | 0hPa | 2.2V | 00:00:00 | 00:00:00 | 00:00:00 | |
| DF1GD-15 | 2026-09-04 16:10:20 | 48.43008 | 3.93681 | 117° | 31km/h | 16724m | -4.6m/s | 0°C | 0% | 0hPa | 2.2V | 00:00:00 | 00:00:00 | 00:00:00 | |
| HARRO8 | 2026-09-04 16:10:16 | 48.43040 | 3.93586 | 102° | 75km/h | 16749m | -4.6m/s | -60.2°C | -1.0% | 97.8hPa | 2.2V | 00:00:00 | 00:00:00 | 00:00:00 | |
| DB0UT-7 | 2026-09-04 16:10:13 | 48.43042 | 3.93527 | 85° | 58km/h | 16758m | -4.3m/s | 0°C | 0% | 0hPa | 2.2V | 00:00:00 | 00:00:00 | 00:00:00 | |
| HARRO8 | 2026-09-04 16:09:45 | 48.43069 | 3.92923 | 70° | 55km/h | 16901m | -4.8m/s | -60.0°C | -1.0% | 95.4hPa | 2.2V | 00:00:00 | 00:00:00 | 00:00:00 | |
| DB0UT-7 | 2026-09-04 16:09:43 | 48.43069 | 3.92923 | 71° | 57km/h | 16901m | -4.8m/s | 0°C | 0% | 0hPa | 2.2V | 00:00:00 | 00:00:00 | 00:00:00 | |
| DF1GD-15 | 2026-09-04 16:09:32 | 48.43113 | 3.92716 | 93° | 78km/h | 16955m | -4.8m/s | 0°C | 0% | 0hPa | 2.2V | 00:00:00 | 00:00:00 | 00:00:00 | |
| HARRO8 | 2026-09-04 16:09:14 | 48.43150 | 3.92355 | 103° | 20km/h | 17048m | -4.9m/s | -58.7°C | -1.0% | 93.2hPa | 2.2V | 00:00:00 | 00:00:00 | 00:00:00 | |
| DB0UT-7 | 2026-09-04 16:09:13 | 48.43150 | 3.92355 | 104° | 51km/h | 17048m | -4.8m/s | 0°C | 0% | 0hPa | 2.2V | 00:00:00 | 00:00:00 | 00:00:00 | |
| DF1GD-15 | 2026-09-04 16:09:11 | 48.43159 | 3.92339 | 141° | 38km/h | 17059m | -5.2m/s | 0°C | 0% | 0hPa | 2.2V | 00:00:00 | 00:00:00 | 00:00:00 | |
| DF1GD-15 | 2026-09-04 16:08:49 | 48.43212 | 3.91919 | 61° | 49km/h | 17171m | -5.2m/s | 0°C | 0% | 0hPa | 2.2V | 00:00:00 | 00:00:00 | 00:00:00 | |
| HARRO8 | 2026-09-04 16:08:43 | 48.43235 | 3.91831 | 117° | 68km/h | 17211m | -5.3m/s | -58.0°C | -1.0% | 90.8hPa | 2.2V | 00:00:00 | 00:00:00 | 00:00:00 | |
| DF1GD-15 | 2026-09-04 16:08:27 | 48.43257 | 3.91602 | 106° | 69km/h | 17285m | -5.0m/s | 0°C | 0% | 0hPa | 2.2V | 00:00:00 | 00:00:00 | 00:00:00 | |
| DB0UT-7 | 2026-09-04 16:08:13 | 48.43254 | 3.91350 | 95° | 66km/h | 17357m | -4.3m/s | 0°C | 0% | 0hPa | 2.2V | 00:00:00 | 00:00:00 | 00:00:00 | |
| HARRO8 | 2026-09-04 16:08:11 | 48.43251 | 3.91289 | 76° | 80km/h | 17368m | -4.8m/s | -57.6°C | -1.0% | 88.6hPa | 2.2V | 00:00:00 | 00:00:00 | 00:00:00 | |
| DF1GD-15 | 2026-09-04 16:08:06 | 48.43212 | 3.91191 | 60° | 31km/h | 17392m | -4.3m/s | 0°C | 0% | 0hPa | 2.2V | 00:00:00 | 00:00:00 | 00:00:00 | |
| DB0UT-7 | 2026-09-04 16:07:43 | 48.43209 | 3.90647 | 74° | 57km/h | 17512m | -4.7m/s | 0°C | 0% | 0hPa | 2.2V | 00:00:00 | 00:00:00 | 00:00:00 | |
| DF1GD-15 | 2026-09-04 16:07:40 | 48.43188 | 3.90581 | 59° | 46km/h | 17528m | -4.7m/s | 0°C | 0% | 0hPa | 2.2V | 00:00:00 | 00:00:00 | 00:00:00 | |
| DF1GD-15 | 2026-09-04 16:07:18 | 48.43261 | 3.90174 | 108° | 82km/h | 17643m | -4.8m/s | 0°C | 0% | 0hPa | 2.2V | 00:00:00 | 00:00:00 | 00:00:00 | |
| DB0UT-7 | 2026-09-04 16:07:13 | 48.43260 | 3.90063 | 82° | 46km/h | 17669m | -4.1m/s | 0°C | 0% | 0hPa | 2.2V | 00:00:00 | 00:00:00 | 00:00:00 | |
| HARRO8 | 2026-09-04 16:07:09 | 48.43326 | 3.89846 | 161° | 18km/h | 17755m | -4.7m/s | -55.0°C | -1.0% | 83.4hPa | 2.2V | 00:00:00 | 00:00:00 | 00:00:00 | |
| DF1GD-15 | 2026-09-04 16:06:51 | 48.43376 | 3.89763 | 103° | 66km/h | 17786m | -5.1m/s | 0°C | 0% | 0hPa | 2.2V | 00:00:00 | 00:00:00 | 00:00:00 | |
| DB0UT-7 | 2026-09-04 16:06:38 | 48.43400 | 3.89622 | 103° | 44km/h | 17853m | -5.0m/s | 0°C | 0% | 0hPa | 2.2V | 00:00:00 | 00:00:00 | 00:00:00 | |
| DF1GD-15 | 2026-09-04 16:06:30 | 48.43373 | 3.89536 | 180° | 9km/h | 17895m | -4.0m/s | 0°C | 0% | 0hPa | 2.2V | 00:00:00 | 00:00:00 | 00:00:00 | |
| DB0UT-7 | 2026-09-04 16:06:08 | 48.43395 | 3.89246 | 55° | 46km/h | 18011m | -5.9m/s | 0°C | 0% | 0hPa | 2.2V | 00:00:00 | 00:00:00 | 00:00:00 | |
| DF1GD-15 | 2026-09-04 16:06:06 | 48.43378 | 3.89221 | 32° | 37km/h | 18023m | -4.9m/s | 0°C | 0% | 0hPa | 2.2V | 00:00:00 | 00:00:00 | 00:00:00 | |
| DF1GD-15 | 2026-09-04 16:05:46 | 48.43373 | 3.88990 | 121° | 58km/h | 18129m | -4.7m/s | 0°C | 0% | 0hPa | 2.2V | 00:00:00 | 00:00:00 | 00:00:00 | |
| DB0UT-7 | 2026-09-04 16:05:38 | 48.43354 | 3.88819 | 44° | 47km/h | 18172m | -4.2m/s | 0°C | 0% | 0hPa | 2.2V | 00:00:00 | 00:00:00 | 00:00:00 | |
| HARRO8 | 2026-09-04 16:05:36 | 48.43363 | 3.88789 | 132° | 49km/h | 18192m | -4.5m/s | -55.9°C | -1.0% | 77.8hPa | 2.2V | 00:00:00 | 00:00:00 | 00:00:00 | |
| DF1GD-15 | 2026-09-04 16:05:25 | 48.43362 | 3.88588 | 52° | 31km/h | 18240m | -5.3m/s | 0°C | 0% | 0hPa | 2.2V | 00:00:00 | 00:00:00 | 00:00:00 | |
| DB0UT-7 | 2026-09-04 16:05:08 | 48.43384 | 3.88322 | 142° | 51km/h | 18332m | -4.9m/s | 0°C | 0% | 0hPa | 2.2V | 00:00:00 | 00:00:00 | 00:00:00 | |
| DF1GD-15 | 2026-09-04 16:04:42 | 48.43447 | 3.87840 | 134° | 15km/h | 18469m | -5.2m/s | 0°C | 0% | 0hPa | 2.2V | 00:00:00 | 00:00:00 | 00:00:00 | |
| DB0UT-7 | 2026-09-04 16:04:38 | 48.43480 | 3.87802 | 128° | 47km/h | 18492m | -4.4m/s | 0°C | 0% | 0hPa | 2.2V | 00:00:00 | 00:00:00 | 00:00:00 | |
| DF1GD-15 | 2026-09-04 16:04:14 | 48.43488 | 3.87432 | 163° | 20km/h | 18626m | -4.9m/s | 0°C | 0% | 0hPa | 2.2V | 00:00:00 | 00:00:00 | 00:00:00 | |
| DB0UT-7 | 2026-09-04 16:04:08 | 48.43523 | 3.87330 | 86° | 47km/h | 18660m | -4.5m/s | 0°C | 0% | 0hPa | 2.2V | 00:00:00 | 00:00:00 | 00:00:00 | |
| DF1GD-15 | 2026-09-04 16:03:53 | 48.43520 | 3.87116 | 63° | 58km/h | 18744m | -5.9m/s | 0°C | 0% | 0hPa | 2.2V | 00:00:00 | 00:00:00 | 00:00:00 | |
| DB0UT-7 | 2026-09-04 16:03:38 | 48.43495 | 3.86938 | 33° | 46km/h | 18830m | -6.0m/s | 0°C | 0% | 0hPa | 2.2V | 00:00:00 | 00:00:00 | 00:00:00 | |
| DF1GD-15 | 2026-09-04 16:03:32 | 48.43484 | 3.86920 | 137° | 37km/h | 18865m | -4.9m/s | 0°C | 0% | 0hPa | 2.2V | 00:00:00 | 00:00:00 | 00:00:00 | |
| DF1GD-15 | 2026-09-04 16:03:09 | 48.43402 | 3.86568 | 20° | 33km/h | 19000m | -4.7m/s | 0°C | 0% | 0hPa | 2.2V | 00:00:00 | 00:00:00 | 00:00:00 | |
| DB0UT-7 | 2026-09-04 16:03:08 | 48.43397 | 3.86565 | 24° | 47km/h | 19005m | -5.1m/s | 0°C | 0% | 0hPa | 2.2V | 00:00:00 | 00:00:00 | 00:00:00 | |
| DF1GD-15 | 2026-09-04 16:02:48 | 48.43396 | 3.86234 | 94° | 82km/h | 19127m | -5.5m/s | 0°C | 0% | 0hPa | 2.2V | 00:00:00 | 00:00:00 | 00:00:00 | |
| DB0UT-7 | 2026-09-04 16:02:38 | 48.43385 | 3.86081 | 139° | 47km/h | 19186m | -7.0m/s | 0°C | 0% | 0hPa | 2.2V | 00:00:00 | 00:00:00 | 00:00:00 | |
| DF1GD-15 | 2026-09-04 16:02:25 | 48.43408 | 3.85875 | 146° | 51km/h | 19268m | -5.3m/s | 0°C | 0% | 0hPa | 2.2V | 00:00:00 | 00:00:00 | 00:00:00 | |
| DB0UT-7 | 2026-09-04 16:02:08 | 48.43442 | 3.85617 | 90° | 57km/h | 19369m | -5.3m/s | 0°C | 0% | 0hPa | 2.2V | 00:00:00 | 00:00:00 | 00:00:00 | |
| DF1GD-15 | 2026-09-04 16:02:05 | 48.43424 | 3.85545 | 51° | 62km/h | 19387m | -5.2m/s | 0°C | 0% | 0hPa | 2.2V | 00:00:00 | 00:00:00 | 00:00:00 | |
| DB0UT-7 | 2026-09-04 16:01:38 | 48.43419 | 3.85143 | 55° | 49km/h | 19549m | -6.5m/s | 0°C | 0% | 0hPa | 2.2V | 00:00:00 | 00:00:00 | 00:00:00 | |
| DF1GD-15 | 2026-09-04 16:01:27 | 48.43441 | 3.84989 | 87° | 77km/h | 19618m | -6.0m/s | 0°C | 0% | 0hPa | 2.2V | 00:00:00 | 00:00:00 | 00:00:00 | |
| DL1ZP-14 | 2026-09-04 16:01:19 | 48.43453 | 3.84886 | 137° | 66km/h | 19680m | -5.5m/s | -54.9°C | -1.0% | 61.5hPa | 2.2V | 00:00:00 | 00:00:00 | 00:00:00 | |
| DB0UT-7 | 2026-09-04 16:01:08 | 48.43463 | 3.84742 | 211° | 40km/h | 19738m | -4.5m/s | 0°C | 0% | 0hPa | 2.2V | 00:00:00 | 00:00:00 | 00:00:00 | |
| DF1GD-15 | 2026-09-04 16:01:03 | 48.43518 | 3.84717 | 138° | 69km/h | 19768m | -5.5m/s | 0°C | 0% | 0hPa | 2.2V | 00:00:00 | 00:00:00 | 00:00:00 | |
| DL1ZP-14 | 2026-09-04 16:00:47 | 48.43575 | 3.84519 | 20° | 31km/h | 19891m | -5.5m/s | -55.2°C | -1.0% | 59.5hPa | 2.2V | 00:00:00 | 00:00:00 | 00:00:00 | |
| DF1GD-15 | 2026-09-04 16:00:39 | 48.43575 | 3.84535 | 174° | 37km/h | 19923m | -5.2m/s | 0°C | 0% | 0hPa | 2.2V | 00:00:00 | 00:00:00 | 00:00:00 | |
| DB0UT-7 | 2026-09-04 16:00:38 | 48.43585 | 3.84530 | 157° | 46km/h | 19928m | -5.8m/s | 0°C | 0% | 0hPa | 2.2V | 00:00:00 | 00:00:00 | 00:00:00 | |
| DL1ZP-14 | 2026-09-04 16:00:16 | 48.43564 | 3.84235 | 11° | 35km/h | 20079m | -6.3m/s | -55.5°C | -1.0% | 57.8hPa | 2.2V | 00:00:00 | 00:00:00 | 00:00:00 | |
| DF1GD-15 | 2026-09-04 16:00:15 | 48.43557 | 3.84234 | 354° | 18km/h | 20085m | -5.3m/s | 0°C | 0% | 0hPa | 2.2V | 00:00:00 | 00:00:00 | 00:00:00 | |
| DB0UT-7 | 2026-09-04 16:00:07 | 48.43591 | 3.84127 | 84° | 47km/h | 20139m | -6.2m/s | 0°C | 0% | 0hPa | 2.2V | 00:00:00 | 00:00:00 | 00:00:00 | |
| DL1ZP-14 | 2026-09-04 15:59:45 | 48.43579 | 3.83916 | 165° | 44km/h | 20291m | -6.9m/s | -55.2°C | -1.0% | 55.9hPa | 2.2V | 00:00:00 | 00:00:00 | 00:00:00 | |
| DB0UT-7 | 2026-09-04 15:59:36 | 48.43577 | 3.83783 | 348° | 46km/h | 20351m | -6.2m/s | 0°C | 0% | 0hPa | 2.3V | 00:00:00 | 00:00:00 | 00:00:00 | |
| DF1GD-15 | 2026-09-04 15:59:30 | 48.43614 | 3.83750 | 121° | 71km/h | 20396m | -6.8m/s | 0°C | 0% | 0hPa | 2.3V | 00:00:00 | 00:00:00 | 00:00:00 | |
| DL1ZP-14 | 2026-09-04 15:59:14 | 48.43656 | 3.83474 | 82° | 69km/h | 20509m | -5.8m/s | -54.9°C | -1.0% | 54.0hPa | 2.3V | 00:00:00 | 00:00:00 | 00:00:00 | |
| DF1GD-15 | 2026-09-04 15:59:06 | 48.43664 | 3.83413 | 155° | 58km/h | 20566m | -5.9m/s | 0°C | 0% | 0hPa | 2.3V | 00:00:00 | 00:00:00 | 00:00:00 | |
| DB0UT-7 | 2026-09-04 15:58:35 | 48.43777 | 3.83077 | 70° | 46km/h | 20784m | -6.9m/s | 0°C | 0% | 0hPa | 2.3V | 00:00:00 | 00:00:00 | 00:00:00 | |
| DF1GD-15 | 2026-09-04 15:58:18 | 48.43742 | 3.82986 | 310° | 33km/h | 20906m | -7.3m/s | 0°C | 0% | 0hPa | 2.3V | 00:00:00 | 00:00:00 | 00:00:00 | |
| DL1ZP-14 | 2026-09-04 15:58:12 | 48.43730 | 3.82943 | 316° | 42km/h | 20998m | -6.8m/s | -53.9°C | -1.0% | 50.0hPa | 2.3V | 00:00:00 | 00:00:00 | 00:00:00 | |
| DF1GD-15 | 2026-09-04 15:57:58 | 48.43752 | 3.82948 | 85° | 49km/h | 21047m | -7.1m/s | 0°C | 0% | 0hPa | 2.3V | 00:00:00 | 00:00:00 | 00:00:00 | |
| DB0UT-7 | 2026-09-04 15:57:53 | 48.43701 | 3.82902 | 344° | 42km/h | 21081m | -7.3m/s | 0°C | 0% | 0hPa | 2.3V | 00:00:00 | 00:00:00 | 00:00:00 | |
| DF1GD-15 | 2026-09-04 15:57:33 | 48.43673 | 3.82844 | 112° | 58km/h | 21225m | -6.8m/s | 0°C | 0% | 0hPa | 2.3V | 00:00:00 | 00:00:00 | 00:00:00 | |
| DF1GD-15 | 2026-09-04 15:57:12 | 48.43649 | 3.82661 | 228° | 31km/h | 21378m | -6.8m/s | 0°C | 0% | 0hPa | 2.3V | 00:00:00 | 00:00:00 | 00:00:00 | |
| DL1ZP-14 | 2026-09-04 15:57:10 | 48.43705 | 3.82632 | 120° | 69km/h | 21415m | -6.3m/s | -54.0°C | -1.0% | 46.9hPa | 2.3V | 00:00:00 | 00:00:00 | 00:00:00 | |
| DF1GD-15 | 2026-09-04 15:56:44 | 48.43674 | 3.82511 | 175° | 31km/h | 21581m | -7.8m/s | 0°C | 0% | 0hPa | 2.3V | 00:00:00 | 00:00:00 | 00:00:00 | |
| DL1ZP-14 | 2026-09-04 15:56:39 | 48.43634 | 3.82405 | 331° | 44km/h | 21647m | -7.7m/s | -53.8°C | -1.0% | 45.1hPa | 2.3V | 00:00:00 | 00:00:00 | 00:00:00 | |
| DF1GD-15 | 2026-09-04 15:56:19 | 48.43583 | 3.82353 | 196° | 31km/h | 21772m | -7.5m/s | 0°C | 0% | 0hPa | 2.3V | 00:00:00 | 00:00:00 | 00:00:00 | |
| DL1ZP-14 | 2026-09-04 15:56:08 | 48.43595 | 3.82239 | 104° | 55km/h | 21894m | -8.8m/s | -53.4°C | -1.0% | 43.5hPa | 2.3V | 00:00:00 | 00:00:00 | 00:00:00 | |
| DF1GD-15 | 2026-09-04 15:55:57 | 48.43543 | 3.82168 | 332° | 46km/h | 21943m | -7.7m/s | 0°C | 0% | 0hPa | 2.3V | 00:00:00 | 00:00:00 | 00:00:00 | |
| DL1ZP-14 | 2026-09-04 15:55:37 | 48.43529 | 3.82054 | 71° | 66km/h | 22108m | -7.4m/s | -53.8°C | -1.0% | 42.0hPa | 2.3V | 00:00:00 | 00:00:00 | 00:00:00 | |
| DF1GD-15 | 2026-09-04 15:55:32 | 48.43486 | 3.82014 | 337° | 37km/h | 22143m | -6.9m/s | 0°C | 0% | 0hPa | 2.3V | 00:00:00 | 00:00:00 | 00:00:00 | |
| DF1GD-15 | 2026-09-04 15:55:08 | 48.43527 | 3.81886 | 4° | 38km/h | 22340m | -7.8m/s | 0°C | 0% | 0hPa | 2.3V | 00:00:00 | 00:00:00 | 00:00:00 | |
| DF1GD-15 | 2026-09-04 15:54:45 | 48.43577 | 3.81910 | 51° | 49km/h | 22535m | -8.8m/s | 0°C | 0% | 0hPa | 2.3V | 00:00:00 | 00:00:00 | 00:00:00 | |
| DF1GD-15 | 2026-09-04 15:54:24 | 48.43511 | 3.81939 | 144° | 44km/h | 22713m | -7.6m/s | 0°C | 0% | 0hPa | 2.3V | 00:00:00 | 00:00:00 | 00:00:00 | |
| DL1ZP-14 | 2026-09-04 15:54:04 | 48.43467 | 3.81835 | 226° | 47km/h | 22902m | -8.4m/s | -53.1°C | -1.0% | 37.1hPa | 2.3V | 00:00:00 | 00:00:00 | 00:00:00 | |
| DF1GD-15 | 2026-09-04 15:54:02 | 48.43467 | 3.81834 | 228° | 49km/h | 22902m | -8.4m/s | 0°C | 0% | 0hPa | 2.3V | 00:00:00 | 00:00:00 | 00:00:00 | |
| DB0UT-7 | 2026-09-04 15:53:40 | 48.43501 | 3.81713 | 333° | 51km/h | 23097m | -8.8m/s | 0°C | 0% | 0hPa | 2.3V | 00:00:00 | 00:00:00 | 00:00:00 | |
| DL1ZP-14 | 2026-09-04 15:53:33 | 48.43537 | 3.81668 | 134° | 62km/h | 23255m | -9.7m/s | -52.6°C | -1.0% | 35.1hPa | 2.3V | 00:00:00 | 00:00:00 | 00:00:00 | |
| DB0UT-7 | 2026-09-04 15:53:10 | 48.43560 | 3.81625 | 142° | 53km/h | 23363m | -9.6m/s | 0°C | 0% | 0hPa | 2.3V | 00:00:00 | 00:00:00 | 00:00:00 | |
| DL1ZP-14 | 2026-09-04 15:53:02 | 48.43611 | 3.81509 | 36° | 35km/h | 23516m | -9.8m/s | -52.3°C | -1.0% | 33.7hPa | 2.3V | 00:00:00 | 00:00:00 | 00:00:00 | |
| DL1ZP-14 | 2026-09-04 15:52:31 | 48.43622 | 3.81598 | 330° | 64km/h | 23756m | -10.3m/s | -51.5°C | -1.0% | 32.5hPa | 2.3V | 00:00:00 | 00:00:00 | 00:00:00 | |
| DB0UT-7 | 2026-09-04 15:52:28 | 48.43622 | 3.81598 | 331° | 57km/h | 23756m | -10.3m/s | 0°C | 0% | 0hPa | 2.3V | 00:00:00 | 00:00:00 | 00:00:00 | |
| DF1GD-15 | 2026-09-04 15:52:26 | 48.43603 | 3.81635 | 280° | 58km/h | 23778m | -10.7m/s | 0°C | 0% | 0hPa | 2.3V | 00:00:00 | 00:00:00 | 00:00:00 | |
| DL1ZP-14 | 2026-09-04 15:51:59 | 48.43577 | 3.81575 | 213° | 58km/h | 24141m | -9.6m/s | -51.4°C | -1.0% | 30.6hPa | 2.3V | 00:00:00 | 00:00:00 | 00:00:00 | |
| DB0UT-7 | 2026-09-04 15:51:56 | 48.43603 | 3.81578 | 90° | 58km/h | 24069m | -10.1m/s | 0°C | 0% | 0hPa | 2.3V | 00:00:00 | 00:00:00 | 00:00:00 | |
| DF1GD-15 | 2026-09-04 15:51:42 | 48.43638 | 3.81494 | 37° | 38km/h | 24210m | -9.2m/s | 0°C | 0% | 0hPa | 2.3V | 00:00:00 | 00:00:00 | 00:00:00 | |
| DL1ZP-14 | 2026-09-04 15:51:28 | 48.43683 | 3.81523 | 263° | 58km/h | 24359m | -10.5m/s | -51.7°C | -1.0% | 29.6hPa | 2.3V | 00:00:00 | 00:00:00 | 00:00:00 | |
| DF1GD-15 | 2026-09-04 15:51:19 | 48.43753 | 3.81525 | 38° | 42km/h | 24440m | -10.6m/s | 0°C | 0% | 0hPa | 2.4V | 00:00:00 | 00:00:00 | 00:00:00 | |
| DF1GD-15 | 2026-09-04 15:50:57 | 48.43838 | 3.81525 | 98° | 62km/h | 24670m | -10.5m/s | 0°C | 0% | 0hPa | 2.4V | 00:00:00 | 00:00:00 | 00:00:00 | |
| DF1GD-15 | 2026-09-04 15:50:24 | 48.44017 | 3.81587 | 146° | 62km/h | 25019m | -11.1m/s | 0°C | 0% | 0hPa | 2.4V | 00:00:00 | 00:00:00 | 00:00:00 | |
| DB0UT-7 | 2026-09-04 15:50:21 | 48.44025 | 3.81531 | 53° | 57km/h | 25052m | -10.4m/s | 0°C | 0% | 0hPa | 2.4V | 00:00:00 | 00:00:00 | 00:00:00 | |
| DF1GD-15 | 2026-09-04 15:50:04 | 48.44014 | 3.81566 | 243° | 60km/h | 25238m | -10.6m/s | 0°C | 0% | 0hPa | 2.4V | 00:00:00 | 00:00:00 | 00:00:00 | |
| DB0UT-7 | 2026-09-04 15:49:46 | 48.44126 | 3.81567 | 51° | 60km/h | 25438m | -10.5m/s | 0°C | 0% | 0hPa | 2.4V | 00:00:00 | 00:00:00 | 00:00:00 | |
| DJ2DS-15 | 2026-09-04 15:49:38 | 48.44143 | 3.81735 | 176° | 53km/h | 25652m | -11.4m/s | -49.1°C | -1.0% | 24.2hPa | 2.4V | 00:00:00 | 00:00:00 | 00:00:00 | |
| DF1GD-15 | 2026-09-04 15:49:18 | 48.44112 | 3.81738 | 246° | 62km/h | 25757m | -12.3m/s | 0°C | 0% | 0hPa | 2.4V | 00:00:00 | 00:00:00 | 00:00:00 | |
| DB0UT-7 | 2026-09-04 15:49:01 | 48.44178 | 3.81703 | 70° | 62km/h | 25955m | -11.0m/s | 0°C | 0% | 0hPa | 2.4V | 00:00:00 | 00:00:00 | 00:00:00 | |
| DF1GD-15 | 2026-09-04 15:48:45 | 48.44126 | 3.81706 | 272° | 60km/h | 26146m | -12.0m/s | 0°C | 0% | 0hPa | 2.4V | 00:00:00 | 00:00:00 | 00:00:00 | |
| DJ2DS-15 | 2026-09-04 15:48:26 | 48.44099 | 3.81692 | 217° | 64km/h | 26579m | -13.8m/s | -47.4°C | -1.0% | 21.0hPa | 2.4V | 00:00:00 | 00:00:00 | 00:00:00 | |
| DF1GD-15 | 2026-09-04 15:48:10 | 48.44099 | 3.81692 | 219° | 64km/h | 26579m | -13.9m/s | 0°C | 0% | 0hPa | 2.4V | 00:00:00 | 00:00:00 | 00:00:00 | |
| DB0UT-7 | 2026-09-04 15:47:53 | 48.44119 | 3.81698 | 1° | 71km/h | 26801m | -11.8m/s | 0°C | 0% | 0hPa | 2.4V | 00:00:00 | 00:00:00 | 00:00:00 | |
| DL1ZP-14 | 2026-09-04 15:47:20 | 48.43971 | 3.81782 | 90° | 78km/h | 27508m | -13.8m/s | -46.8°C | -1.0% | 18.2hPa | 2.4V | 00:00:00 | 00:00:00 | 00:00:00 | |
| DJ2DS-15 | 2026-09-04 15:47:14 | 48.43954 | 3.81730 | 36° | 78km/h | 27537m | -14.0m/s | -46.7°C | -1.0% | 18.1hPa | 2.4V | 00:00:00 | 00:00:00 | 00:00:00 | |
| DB0UT-7 | 2026-09-04 15:46:57 | 48.43919 | 3.81722 | 336° | 64km/h | 27564m | -14.0m/s | 0°C | 0% | 0hPa | 2.4V | 00:00:00 | 00:00:00 | 00:00:00 | |
| DL1ZP-14 | 2026-09-04 15:46:49 | 48.43885 | 3.81654 | 348° | 60km/h | 28025m | -13.9m/s | -46.5°C | -1.0% | 16.8hPa | 2.4V | 00:00:00 | 00:00:00 | 00:00:00 | |
| DJ2DS-15 | 2026-09-04 15:46:37 | 48.43885 | 3.81654 | 348° | 60km/h | 28025m | -13.9m/s | -46.5°C | -1.0% | 16.8hPa | 2.4V | 00:00:00 | 00:00:00 | 00:00:00 | |
| DB0UT-7 | 2026-09-04 15:46:25 | 48.43884 | 3.81654 | 349° | 71km/h | 28025m | -13.9m/s | 0°C | 0% | 0hPa | 2.4V | 00:00:00 | 00:00:00 | 00:00:00 | |
| DF1GD-15 | 2026-09-04 15:46:14 | 48.43885 | 3.81582 | 331° | 58km/h | 28192m | -15.6m/s | 0°C | 0% | 0hPa | 2.4V | 00:00:00 | 00:00:00 | 00:00:00 | |
| DJ2DS-15 | 2026-09-04 15:46:01 | 48.43940 | 3.81508 | 51° | 73km/h | 28472m | -13.5m/s | -45.3°C | -1.0% | 15.7hPa | 2.4V | 00:00:00 | 00:00:00 | 00:00:00 | |
| DL1ZP-14 | 2026-09-04 15:45:47 | 48.43886 | 3.81379 | 18° | 73km/h | 28819m | -15.7m/s | -44.1°C | -1.0% | 14.9hPa | 2.4V | 00:00:00 | 00:00:00 | 00:00:00 | |
| DJ2DS-15 | 2026-09-04 15:45:25 | 48.43891 | 3.81328 | 242° | 57km/h | 29028m | -14.7m/s | -43.7°C | -1.0% | 14.4hPa | 2.4V | 00:00:00 | 00:00:00 | 00:00:00 | |
| DL1ZP-14 | 2026-09-04 15:45:16 | 48.43990 | 3.81240 | 94° | 88km/h | 29275m | -15.3m/s | -43.4°C | -1.0% | 13.9hPa | 2.4V | 00:00:00 | 00:00:00 | 00:00:00 | |
| DJ2DS-15 | 2026-09-04 15:44:49 | 48.44022 | 3.81189 | 153° | 86km/h | 29578m | -16.6m/s | -42.4°C | -1.0% | 13.3hPa | 2.4V | 00:00:00 | 00:00:00 | 00:00:00 | |
| DL1ZP-14 | 2026-09-04 15:44:45 | 48.44013 | 3.81137 | 188° | 71km/h | 29730m | -16.4m/s | -42.0°C | -1.0% | 13.0hPa | 2.4V | 00:00:00 | 00:00:00 | 00:00:00 | |
| HARRO8 | 2026-09-04 15:44:23 | 48.44054 | 3.80942 | 263° | 60km/h | 30221m | -17.5m/s | -41.5°C | -1.0% | 12.1hPa | 2.4V | 00:00:00 | 00:00:00 | 00:00:00 | |
| DL1ZP-14 | 2026-09-04 15:44:14 | 48.44054 | 3.80942 | 263° | 60km/h | 30221m | -17.5m/s | -41.5°C | -1.0% | 12.1hPa | 2.4V | 00:00:00 | 00:00:00 | 00:00:00 | |
| DJ2DS-15 | 2026-09-04 15:44:13 | 48.44054 | 3.80942 | 263° | 60km/h | 30221m | -17.5m/s | -41.5°C | -1.0% | 12.1hPa | 2.4V | 00:00:00 | 00:00:00 | 00:00:00 | |
| DJ2DS-15 | 2026-09-04 15:43:37 | 48.44214 | 3.80721 | 114° | 88km/h | 30855m | -18.4m/s | -41.8°C | -1.0% | 11.0hPa | 2.4V | 00:00:00 | 00:00:00 | 00:00:00 | |
| DF1GD-15 | 2026-09-04 15:43:12 | 48.44208 | 3.80523 | 27° | 77km/h | 31319m | -15.7m/s | 0°C | 0% | 0hPa | 2.4V | 00:00:00 | 00:00:00 | 00:00:00 | |
| DL1ZP-14 | 2026-09-04 15:43:11 | 48.44192 | 3.80518 | 355° | 60km/h | 31334m | -14.1m/s | -40.8°C | -1.0% | 10.2hPa | 2.4V | 00:00:00 | 00:00:00 | 00:00:00 | |
| DB0UT-7 | 2026-09-04 15:43:01 | 48.44206 | 3.80456 | 58° | 58km/h | 31513m | -23.0m/s | 0°C | 0% | 0hPa | 2.4V | 00:00:00 | 00:00:00 | 00:00:00 | |
| HARRO8 | 2026-09-04 15:42:50 | 48.44233 | 3.80257 | 126° | 82km/h | 31927m | -22.8m/s | -39.8°C | -1.0% | 9.3hPa | 2.4V | 00:00:00 | 00:00:00 | 00:00:00 | |
| DL1ZP-14 | 2026-09-04 15:42:40 | 48.44233 | 3.80257 | 126° | 82km/h | 31927m | -22.8m/s | -39.8°C | -1.0% | 9.3hPa | 2.4V | 00:00:00 | 00:00:00 | 00:00:00 | |
| DB0UT-7 | 2026-09-04 15:42:31 | 48.44198 | 3.80196 | 216° | 42km/h | 32105m | -17.6m/s | 0°C | 0% | 0hPa | 2.4V | 00:00:00 | 00:00:00 | 00:00:00 | |
| DJ2DS-15 | 2026-09-04 15:42:25 | 48.44248 | 3.80074 | 73° | 51km/h | 32235m | -19.9m/s | -39.7°C | -1.0% | 8.9hPa | 2.4V | 00:00:00 | 00:00:00 | 00:00:00 | |
| DF1GD-15 | 2026-09-04 15:42:23 | 48.44243 | 3.80060 | 48° | 37km/h | 32254m | -15.8m/s | 0°C | 0% | 0hPa | 2.4V | 00:00:00 | 00:00:00 | 00:00:00 | |
| HARRO8 | 2026-09-04 15:42:19 | 48.44262 | 3.79990 | 80° | 51km/h | 32469m | -19.7m/s | -39.2°C | -1.0% | 8.6hPa | 2.4V | 00:00:00 | 00:00:00 | 00:00:00 | |
| DL1ZP-14 | 2026-09-04 15:42:09 | 48.44251 | 3.79959 | 350° | 13km/h | 32526m | -16.2m/s | -39.0°C | -1.0% | 8.5hPa | 2.4V | 00:00:00 | 00:00:00 | 00:00:00 | |
| DJ2DS-15 | 2026-09-04 15:41:49 | 48.44175 | 3.79960 | 345° | 7km/h | 32931m | -21.4m/s | -36.6°C | -1.0% | 8.0hPa | 2.3V | 00:00:00 | 00:00:00 | 00:00:00 | |
| DL1ZP-14 | 2026-09-04 15:41:38 | 48.44147 | 3.79901 | 302° | 5km/h | 33246m | -40.1m/s | -35.0°C | -1.0% | 7.6hPa | 2.3V | 00:00:00 | 00:00:00 | 00:00:00 | |
| DB0UT-7 | 2026-09-04 15:41:29 | 48.44119 | 3.79862 | 23° | 26km/h | 33469m | -53.9m/s | 0°C | 0% | 0hPa | 2.3V | 00:00:00 | 00:00:00 | 00:00:00 | |
| DF1GD-15 | 2026-09-04 15:41:27 | 48.44131 | 3.79879 | 222° | 55km/h | 33563m | -32.7m/s | 0°C | 0% | 0hPa | 2.3V | 00:00:00 | 00:00:00 | 00:00:00 | |
| HARRO8 | 2026-09-04 15:41:17 | 48.44134 | 3.79929 | 152° | 15km/h | 33552m | 7.3m/s | -34.4°C | -1.0% | 7.3hPa | 2.3V | 00:00:00 | 00:00:00 | 00:00:00 | |
| DJ2DS-15 | 2026-09-04 15:41:13 | 48.44141 | 3.79929 | 249° | 15km/h | 33534m | 7.6m/s | -34.4°C | -1.0% | 7.3hPa | 2.3V | 00:00:00 | 00:00:00 | 00:00:00 | |
| DF1GD-15 | 2026-09-04 15:41:06 | 48.44121 | 3.79938 | 84° | 35km/h | 33492m | 6.2m/s | 0°C | 0% | 0hPa | 2.3V | 00:00:00 | 00:00:00 | 00:00:00 | |
| HARRO8 | 2026-09-04 15:40:46 | 48.44145 | 3.79916 | 171° | 24km/h | 33333m | 5.4m/s | -34.6°C | -1.0% | 7.6hPa | 2.3V | 00:00:00 | 00:00:00 | 00:00:00 | |
| DF1GD-15 | 2026-09-04 15:40:44 | 48.44135 | 3.79924 | 116° | 20km/h | 33348m | 7.9m/s | 0°C | 0% | 0hPa | 2.3V | 00:00:00 | 00:00:00 | 00:00:00 | |
| DJ2DS-15 | 2026-09-04 15:40:37 | 48.44150 | 3.79909 | 12° | 22km/h | 33294m | 5.6m/s | -34.8°C | -1.0% | 7.6hPa | 2.3V | 00:00:00 | 00:00:00 | 00:00:00 | |
| DL1ZP-14 | 2026-09-04 15:40:36 | 48.44145 | 3.79909 | 350° | 15km/h | 33288m | 5.7m/s | -34.7°C | -1.0% | 7.6hPa | 2.3V | 00:00:00 | 00:00:00 | 00:00:00 | |
| DB0UT-7 | 2026-09-04 15:40:29 | 48.44159 | 3.79900 | 87° | 22km/h | 33248m | 6.9m/s | 0°C | 0% | 0hPa | 2.3V | 00:00:00 | 00:00:00 | 00:00:00 | |
| DF1GD-15 | 2026-09-04 15:40:16 | 48.44154 | 3.79869 | 165° | 18km/h | 33161m | 5.0m/s | 0°C | 0% | 0hPa | 2.3V | 00:00:00 | 00:00:00 | 00:00:00 | |
| HARRO8 | 2026-09-04 15:40:15 | 48.44151 | 3.79867 | 7° | 22km/h | 33140m | 8.1m/s | -35.3°C | -1.0% | 7.8hPa | 2.3V | 00:00:00 | 00:00:00 | 00:00:00 | |
| DL1ZP-14 | 2026-09-04 15:40:05 | 48.44153 | 3.79803 | 358° | 46km/h | 33068m | 6.6m/s | -35.4°C | -1.0% | 7.8hPa | 2.3V | 00:00:00 | 00:00:00 | 00:00:00 | |
| DJ2DS-15 | 2026-09-04 15:40:01 | 48.44133 | 3.79812 | 251° | 7km/h | 33056m | 6.8m/s | -35.3°C | -1.0% | 7.9hPa | 2.3V | 00:00:00 | 00:00:00 | 00:00:00 | |
| DB0UT-7 | 2026-09-04 15:39:59 | 48.44133 | 3.79812 | 252° | 26km/h | 33056m | 6.7m/s | 0°C | 0% | 0hPa | 2.3V | 00:00:00 | 00:00:00 | 00:00:00 | |
| DF1GD-15 | 2026-09-04 15:39:54 | 48.44169 | 3.79765 | 99° | 40km/h | 33019m | 5.2m/s | 0°C | 0% | 0hPa | 2.3V | 00:00:00 | 00:00:00 | 00:00:00 | |
| HARRO8 | 2026-09-04 15:39:44 | 48.44157 | 3.79685 | 96° | 24km/h | 32935m | 6.5m/s | -36.4°C | -1.0% | 8.0hPa | 2.3V | 00:00:00 | 00:00:00 | 00:00:00 | |
| DL1ZP-14 | 2026-09-04 15:39:34 | 48.44142 | 3.79655 | 60° | 40km/h | 32883m | 5.5m/s | -36.6°C | -1.0% | 8.1hPa | 2.3V | 00:00:00 | 00:00:00 | 00:00:00 | |
| DB0UT-7 | 2026-09-04 15:39:28 | 48.44143 | 3.79621 | 273° | 24km/h | 32852m | 4.0m/s | 0°C | 0% | 0hPa | 2.3V | 00:00:00 | 00:00:00 | 00:00:00 | |
| DJ2DS-15 | 2026-09-04 15:39:25 | 48.44118 | 3.79600 | 35° | 47km/h | 32824m | 4.9m/s | -36.6°C | -1.0% | 8.2hPa | 2.3V | 00:00:00 | 00:00:00 | 00:00:00 | |
| DF1GD-15 | 2026-09-04 15:39:24 | 48.44118 | 3.79600 | 37° | 49km/h | 32824m | 4.9m/s | 0°C | 0% | 0hPa | 2.3V | 00:00:00 | 00:00:00 | 00:00:00 | |
| HARRO8 | 2026-09-04 15:39:13 | 48.44069 | 3.79524 | 62° | 16km/h | 32734m | 6.4m/s | -36.5°C | -1.0% | 8.3hPa | 2.3V | 00:00:00 | 00:00:00 | 00:00:00 | |
| DL1ZP-14 | 2026-09-04 15:39:03 | 48.44034 | 3.79476 | 31° | 31km/h | 32665m | 7.6m/s | -37.1°C | -1.0% | 8.3hPa | 2.3V | 00:00:00 | 00:00:00 | 00:00:00 | |
| DB0UT-7 | 2026-09-04 15:38:58 | 48.44015 | 3.79453 | 48° | 16km/h | 32647m | 7.0m/s | 0°C | 0% | 0hPa | 2.3V | 00:00:00 | 00:00:00 | 00:00:00 | |
| DF1GD-15 | 2026-09-04 15:38:49 | 48.43971 | 3.79441 | 40° | 20km/h | 32588m | 8.2m/s | 0°C | 0% | 0hPa | 2.3V | 00:00:00 | 00:00:00 | 00:00:00 | |
| DL1ZP-14 | 2026-09-04 15:38:32 | 48.43934 | 3.79380 | 5° | 4km/h | 32470m | 7.7m/s | -38.6°C | -1.0% | 8.6hPa | 2.3V | 00:00:00 | 00:00:00 | 00:00:00 | |
| DB0UT-7 | 2026-09-04 15:38:28 | 48.43935 | 3.79385 | 139° | 26km/h | 32452m | 6.4m/s | 0°C | 0% | 0hPa | 2.3V | 00:00:00 | 00:00:00 | 00:00:00 | |
| DJ2DS-15 | 2026-09-04 15:38:13 | 48.43970 | 3.79268 | 121° | 33km/h | 32347m | 7.3m/s | -39.3°C | -1.0% | 8.8hPa | 2.3V | 00:00:00 | 00:00:00 | 00:00:00 | |
| DL1ZP-14 | 2026-09-04 15:38:01 | 48.43985 | 3.79147 | 123° | 24km/h | 32259m | 9.6m/s | -39.1°C | -1.0% | 8.9hPa | 2.3V | 00:00:00 | 00:00:00 | 00:00:00 | |
| DB0UT-7 | 2026-09-04 15:37:58 | 48.43985 | 3.79147 | 124° | 22km/h | 32259m | 9.5m/s | 0°C | 0% | 0hPa | 2.3V | 00:00:00 | 00:00:00 | 00:00:00 | |
| DF1GD-15 | 2026-09-04 15:37:40 | 48.44007 | 3.79005 | 123° | 26km/h | 32143m | 6.6m/s | 0°C | 0% | 0hPa | 2.3V | 00:00:00 | 00:00:00 | 00:00:00 | |
| DJ2DS-15 | 2026-09-04 15:37:37 | 48.44016 | 3.78957 | 103° | 29km/h | 32115m | 5.6m/s | -39.3°C | -1.0% | 9.1hPa | 2.3V | 00:00:00 | 00:00:00 | 00:00:00 | |
| DL1ZP-14 | 2026-09-04 15:37:30 | 48.44013 | 3.78933 | 73° | 33km/h | 32068m | 9.1m/s | -39.3°C | -1.0% | 9.2hPa | 2.3V | 00:00:00 | 00:00:00 | 00:00:00 | |
| DB0UT-7 | 2026-09-04 15:37:28 | 48.44012 | 3.78921 | 91° | 26km/h | 32061m | 8.1m/s | 0°C | 0% | 0hPa | 2.3V | 00:00:00 | 00:00:00 | 00:00:00 | |
| DF1GD-15 | 2026-09-04 15:37:15 | 48.44014 | 3.78833 | 115° | 33km/h | 31971m | 8.8m/s | 0°C | 0% | 0hPa | 2.3V | 00:00:00 | 00:00:00 | 00:00:00 | |
| DJ2DS-15 | 2026-09-04 15:37:01 | 48.44021 | 3.78679 | 74° | 27km/h | 31864m | 8.2m/s | -39.5°C | -1.0% | 9.4hPa | 2.3V | 00:00:00 | 00:00:00 | 00:00:00 | |
| DL1ZP-14 | 2026-09-04 15:36:59 | 48.44015 | 3.78657 | 66° | 27km/h | 31850m | 5.3m/s | -39.6°C | -1.0% | 9.4hPa | 2.3V | 00:00:00 | 00:00:00 | 00:00:00 | |
| DB0UT-7 | 2026-09-04 15:36:58 | 48.44015 | 3.78657 | 67° | 26km/h | 31850m | 5.2m/s | 0°C | 0% | 0hPa | 2.3V | 00:00:00 | 00:00:00 | 00:00:00 | |
| DF1GD-15 | 2026-09-04 15:36:41 | 48.44030 | 3.78509 | 106° | 44km/h | 31735m | 5.9m/s | 0°C | 0% | 0hPa | 2.3V | 00:00:00 | 00:00:00 | 00:00:00 | |
| DL1ZP-14 | 2026-09-04 15:36:28 | 48.44037 | 3.78358 | 81° | 49km/h | 31639m | 5.8m/s | -39.9°C | -1.0% | 9.8hPa | 2.3V | 00:00:00 | 00:00:00 | 00:00:00 | |
| DJ2DS-15 | 2026-09-04 15:36:25 | 48.44030 | 3.78315 | 80° | 22km/h | 31622m | 8.0m/s | -40.1°C | -1.0% | 9.8hPa | 2.3V | 00:00:00 | 00:00:00 | 00:00:00 | |
| DF1GD-15 | 2026-09-04 15:36:14 | 48.44027 | 3.78226 | 81° | 11km/h | 31554m | 6.0m/s | 0°C | 0% | 0hPa | 2.3V | 00:00:00 | 00:00:00 | 00:00:00 | |
| DL1ZP-14 | 2026-09-04 15:35:57 | 48.44016 | 3.78099 | 78° | 27km/h | 31429m | 6.6m/s | -40.3°C | -1.0% | 10.1hPa | 2.3V | 00:00:00 | 00:00:00 | 00:00:00 | |
| DJ2DS-15 | 2026-09-04 15:35:49 | 48.44003 | 3.78046 | 66° | 29km/h | 31376m | 8.1m/s | -40.2°C | -1.0% | 10.2hPa | 2.3V | 00:00:00 | 00:00:00 | 00:00:00 | |
| DB0UT-7 | 2026-09-04 15:35:28 | 48.43992 | 3.77890 | 241° | 13km/h | 31242m | 5.0m/s | 0°C | 0% | 0hPa | 2.3V | 00:00:00 | 00:00:00 | 00:00:00 | |
| DL1ZP-14 | 2026-09-04 15:35:25 | 48.43989 | 3.77877 | 70° | 27km/h | 31221m | 6.8m/s | -40.7°C | -1.0% | 10.4hPa | 2.3V | 00:00:00 | 00:00:00 | 00:00:00 | |
| DF1GD-15 | 2026-09-04 15:35:24 | 48.43986 | 3.77865 | 74° | 35km/h | 31215m | 6.0m/s | 0°C | 0% | 0hPa | 2.3V | 00:00:00 | 00:00:00 | 00:00:00 | |
| DJ2DS-15 | 2026-09-04 15:35:13 | 48.43992 | 3.77804 | 171° | 13km/h | 31137m | 7.4m/s | -40.9°C | -1.0% | 10.5hPa | 2.3V | 00:00:00 | 00:00:00 | 00:00:00 | |
| DL1ZP-14 | 2026-09-04 15:34:54 | 48.44024 | 3.77764 | 104° | 13km/h | 31014m | 8.4m/s | -41.2°C | -1.0% | 10.7hPa | 2.3V | 00:00:00 | 00:00:00 | 00:00:00 | |
| DF1GD-15 | 2026-09-04 15:34:38 | 48.44053 | 3.77701 | 96° | 22km/h | 30906m | 4.3m/s | 0°C | 0% | 0hPa | 2.3V | 00:00:00 | 00:00:00 | 00:00:00 | |
| DJ2DS-15 | 2026-09-04 15:34:36 | 48.44058 | 3.77690 | 165° | 22km/h | 30892m | 9.0m/s | -41.4°C | -1.0% | 10.9hPa | 2.3V | 00:00:00 | 00:00:00 | 00:00:00 | |
| DB0UT-7 | 2026-09-04 15:34:28 | 48.44080 | 3.77659 | 111° | 20km/h | 30839m | 6.5m/s | 0°C | 0% | 0hPa | 2.3V | 00:00:00 | 00:00:00 | 00:00:00 | |
| DL1ZP-14 | 2026-09-04 15:34:23 | 48.44091 | 3.77634 | 157° | 13km/h | 30805m | 5.9m/s | -41.4°C | -1.0% | 11.1hPa | 2.3V | 00:00:00 | 00:00:00 | 00:00:00 | |
| DF1GD-15 | 2026-09-04 15:34:09 | 48.44131 | 3.77554 | 86° | 18km/h | 30713m | 6.5m/s | 0°C | 0% | 0hPa | 2.3V | 00:00:00 | 00:00:00 | 00:00:00 | |
| DJ2DS-15 | 2026-09-04 15:34:00 | 48.44140 | 3.77495 | 97° | 7km/h | 30657m | 2.5m/s | -41.4°C | -1.0% | 11.3hPa | 2.3V | 00:00:00 | 00:00:00 | 00:00:00 | |
| DB0UT-7 | 2026-09-04 15:33:58 | 48.44148 | 3.77490 | 160° | 26km/h | 30646m | 9.3m/s | 0°C | 0% | 0hPa | 2.3V | 00:00:00 | 00:00:00 | 00:00:00 | |
| DF1GD-15 | 2026-09-04 15:33:47 | 48.44179 | 3.77418 | 169° | 40km/h | 30580m | 7.0m/s | 0°C | 0% | 0hPa | 2.3V | 00:00:00 | 00:00:00 | 00:00:00 | |
| DB0UT-7 | 2026-09-04 15:33:28 | 48.44234 | 3.77323 | 86° | 20km/h | 30454m | 6.4m/s | 0°C | 0% | 0hPa | 2.3V | 00:00:00 | 00:00:00 | 00:00:00 | |
| DJ2DS-15 | 2026-09-04 15:33:24 | 48.44257 | 3.77306 | 138° | 31km/h | 30428m | 6.4m/s | -41.0°C | -1.0% | 11.7hPa | 2.3V | 00:00:00 | 00:00:00 | 00:00:00 | |
| DF1GD-15 | 2026-09-04 15:33:17 | 48.44264 | 3.77257 | 137° | 20km/h | 30386m | 6.9m/s | 0°C | 0% | 0hPa | 2.3V | 00:00:00 | 00:00:00 | 00:00:00 | |
| DL1ZP-14 | 2026-09-04 15:32:50 | 48.44311 | 3.77090 | 121° | 7km/h | 30209m | 6.2m/s | -41.7°C | -1.0% | 12.1hPa | 2.3V | 00:00:00 | 00:00:00 | 00:00:00 | |
| DJ2DS-15 | 2026-09-04 15:32:48 | 48.44311 | 3.77090 | 121° | 7km/h | 30209m | 6.2m/s | -41.7°C | -1.0% | 12.1hPa | 2.3V | 00:00:00 | 00:00:00 | 00:00:00 | |
| DB0UT-7 | 2026-09-04 15:32:28 | 48.44365 | 3.77017 | 85° | 16km/h | 30083m | 8.0m/s | 0°C | 0% | 0hPa | 2.3V | 00:00:00 | 00:00:00 | 00:00:00 | |
| DF1GD-15 | 2026-09-04 15:32:27 | 48.44365 | 3.77011 | 91° | 13km/h | 30077m | 4.8m/s | 0°C | 0% | 0hPa | 2.3V | 00:00:00 | 00:00:00 | 00:00:00 | |
| DJ2DS-15 | 2026-09-04 15:32:12 | 48.44394 | 3.76951 | 111° | 20km/h | 29992m | 8.3m/s | -42.9°C | -1.0% | 12.5hPa | 2.3V | 00:00:00 | 00:00:00 | 00:00:00 | |
| DF1GD-15 | 2026-09-04 15:32:07 | 48.44407 | 3.76912 | 62° | 18km/h | 29962m | 7.6m/s | 0°C | 0% | 0hPa | 2.3V | 00:00:00 | 00:00:00 | 00:00:00 | |
| DB0UT-7 | 2026-09-04 15:31:58 | 48.44391 | 3.76877 | 96° | 16km/h | 29903m | 6.1m/s | 0°C | 0% | 0hPa | 2.3V | 00:00:00 | 00:00:00 | 00:00:00 | |
| DF1GD-15 | 2026-09-04 15:31:40 | 48.44377 | 3.76786 | 272° | 4km/h | 29799m | 4.1m/s | 0°C | 0% | 0hPa | 2.3V | 00:00:00 | 00:00:00 | 00:00:00 | |
| DJ2DS-15 | 2026-09-04 15:31:36 | 48.44374 | 3.76760 | 84° | 16km/h | 29773m | 5.3m/s | -43.6°C | -1.0% | 12.9hPa | 2.3V | 00:00:00 | 00:00:00 | 00:00:00 | |
| DB0UT-7 | 2026-09-04 15:31:28 | 48.44376 | 3.76738 | 75° | 18km/h | 29731m | 5.6m/s | 0°C | 0% | 0hPa | 2.3V | 00:00:00 | 00:00:00 | 00:00:00 | |
| DF1GD-15 | 2026-09-04 15:31:19 | 48.44392 | 3.76695 | 169° | 15km/h | 29675m | 7.6m/s | 0°C | 0% | 0hPa | 2.3V | 00:00:00 | 00:00:00 | 00:00:00 | |
| DJ2DS-15 | 2026-09-04 15:31:00 | 48.44450 | 3.76600 | 162° | 22km/h | 29540m | 7.0m/s | -44.4°C | -1.0% | 13.4hPa | 2.3V | 00:00:00 | 00:00:00 | 00:00:00 | |
| DB0UT-7 | 2026-09-04 15:30:58 | 48.44445 | 3.76603 | 153° | 15km/h | 29547m | 7.9m/s | 0°C | 0% | 0hPa | 2.3V | 00:00:00 | 00:00:00 | 00:00:00 | |
| DF1GD-15 | 2026-09-04 15:30:48 | 48.44462 | 3.76553 | 104° | 22km/h | 29485m | 7.6m/s | 0°C | 0% | 0hPa | 2.3V | 00:00:00 | 00:00:00 | 00:00:00 | |
| DB0UT-7 | 2026-09-04 15:30:28 | 48.44471 | 3.76462 | 143° | 20km/h | 29357m | 4.8m/s | 0°C | 0% | 0hPa | 2.3V | 00:00:00 | 00:00:00 | 00:00:00 | |
| DF1GD-15 | 2026-09-04 15:30:27 | 48.44472 | 3.76459 | 101° | 13km/h | 29351m | 6.9m/s | 0°C | 0% | 0hPa | 2.3V | 00:00:00 | 00:00:00 | 00:00:00 | |
| DJ2DS-15 | 2026-09-04 15:30:24 | 48.44471 | 3.76433 | 205° | 5km/h | 29318m | 5.9m/s | -45.0°C | -1.0% | 13.9hPa | 2.3V | 00:00:00 | 00:00:00 | 00:00:00 | |
| DL1ZP-14 | 2026-09-04 15:30:15 | 48.44500 | 3.76363 | 139° | 27km/h | 29240m | 6.0m/s | -45.0°C | -1.0% | 14.0hPa | 2.3V | 00:00:00 | 00:00:00 | 00:00:00 | |
| DF1GD-15 | 2026-09-04 15:30:06 | 48.44525 | 3.76349 | 147° | 26km/h | 29218m | 4.3m/s | 0°C | 0% | 0hPa | 2.3V | 00:00:00 | 00:00:00 | 00:00:00 | |
| DJ2DS-15 | 2026-09-04 15:29:48 | 48.44587 | 3.76164 | 128° | 31km/h | 29093m | 8.3m/s | -44.7°C | -1.0% | 14.3hPa | 2.3V | 00:00:00 | 00:00:00 | 00:00:00 | |
| DL1ZP-14 | 2026-09-04 15:29:44 | 48.44615 | 3.76150 | 130° | 24km/h | 29061m | 6.2m/s | -44.6°C | -1.0% | 14.4hPa | 2.3V | 00:00:00 | 00:00:00 | 00:00:00 | |
| DB0UT-7 | 2026-09-04 15:29:28 | 48.44631 | 3.76031 | 69° | 27km/h | 28969m | 7.7m/s | 0°C | 0% | 0hPa | 2.3V | 00:00:00 | 00:00:00 | 00:00:00 | |
| DF1GD-15 | 2026-09-04 15:29:20 | 48.44650 | 3.75969 | 137° | 20km/h | 28915m | 8.0m/s | 0°C | 0% | 0hPa | 2.3V | 00:00:00 | 00:00:00 | 00:00:00 | |
| DL1ZP-14 | 2026-09-04 15:29:13 | 48.44629 | 3.75877 | 108° | 40km/h | 28858m | 7.5m/s | -45.0°C | -1.0% | 14.9hPa | 2.3V | 00:00:00 | 00:00:00 | 00:00:00 | |
| DJ2DS-15 | 2026-09-04 15:29:12 | 48.44633 | 3.75864 | 128° | 37km/h | 28851m | 5.5m/s | -45.1°C | -1.0% | 14.9hPa | 2.3V | 00:00:00 | 00:00:00 | 00:00:00 | |
| DB0UT-7 | 2026-09-04 15:28:58 | 48.44605 | 3.75771 | 80° | 20km/h | 28766m | 8.2m/s | 0°C | 0% | 0hPa | 2.3V | 00:00:00 | 00:00:00 | 00:00:00 | |
| DL1ZP-14 | 2026-09-04 15:28:42 | 48.44546 | 3.75657 | 55° | 31km/h | 28652m | 5.6m/s | -44.8°C | -1.0% | 15.4hPa | 2.3V | 00:00:00 | 00:00:00 | 00:00:00 | |
| DF1GD-15 | 2026-09-04 15:28:35 | 48.44530 | 3.75638 | 79° | 15km/h | 28608m | 6.8m/s | 0°C | 0% | 0hPa | 2.3V | 00:00:00 | 00:00:00 | 00:00:00 | |
| DB0UT-7 | 2026-09-04 15:28:28 | 48.44502 | 3.75613 | 56° | 15km/h | 28557m | 5.3m/s | 0°C | 0% | 0hPa | 2.3V | 00:00:00 | 00:00:00 | 00:00:00 | |
| DL1ZP-14 | 2026-09-04 15:28:11 | 48.44483 | 3.75576 | 145° | 5km/h | 28434m | 6.1m/s | -45.0°C | -1.0% | 15.9hPa | 2.3V | 00:00:00 | 00:00:00 | 00:00:00 | |
| DJ2DS-15 | 2026-09-04 15:28:00 | 48.44492 | 3.75513 | 122° | 18km/h | 28352m | 6.3m/s | -44.8°C | -1.0% | 16.1hPa | 2.3V | 00:00:00 | 00:00:00 | 00:00:00 | |
| DB0UT-7 | 2026-09-04 15:27:58 | 48.44492 | 3.75513 | 123° | 18km/h | 28352m | 6.3m/s | 0°C | 0% | 0hPa | 2.3V | 00:00:00 | 00:00:00 | 00:00:00 | |
| DL1ZP-14 | 2026-09-04 15:27:40 | 48.44487 | 3.75386 | 96° | 29km/h | 28237m | 5.9m/s | -44.8°C | -1.0% | 16.4hPa | 2.3V | 00:00:00 | 00:00:00 | 00:00:00 | |
| DF1GD-15 | 2026-09-04 15:27:38 | 48.44487 | 3.75386 | 98° | 31km/h | 28237m | 5.9m/s | 0°C | 0% | 0hPa | 2.3V | 00:00:00 | 00:00:00 | 00:00:00 | |
| DB0UT-7 | 2026-09-04 15:27:28 | 48.44498 | 3.75320 | 104° | 22km/h | 28174m | 6.6m/s | 0°C | 0% | 0hPa | 2.3V | 00:00:00 | 00:00:00 | 00:00:00 | |
| DJ2DS-15 | 2026-09-04 15:27:24 | 48.44497 | 3.75298 | 83° | 13km/h | 28140m | 6.3m/s | -45.1°C | -1.0% | 16.6hPa | 2.3V | 00:00:00 | 00:00:00 | 00:00:00 | |
| DF1GD-15 | 2026-09-04 15:27:13 | 48.44494 | 3.75208 | 128° | 16km/h | 28074m | 8.9m/s | 0°C | 0% | 0hPa | 2.3V | 00:00:00 | 00:00:00 | 00:00:00 | |
| DL1ZP-14 | 2026-09-04 15:27:08 | 48.44501 | 3.75172 | 82° | 38km/h | 28044m | 4.3m/s | -45.8°C | -1.0% | 16.8hPa | 2.3V | 00:00:00 | 00:00:00 | 00:00:00 | |
| DJ2DS-15 | 2026-09-04 15:26:48 | 48.44497 | 3.75022 | 56° | 11km/h | 27921m | 6.4m/s | -45.7°C | -1.0% | 17.1hPa | 2.3V | 00:00:00 | 00:00:00 | 00:00:00 | |
| DL1ZP-14 | 2026-09-04 15:26:37 | 48.44489 | 3.74973 | 142° | 2km/h | 27864m | 7.2m/s | -45.8°C | -1.0% | 17.3hPa | 2.3V | 00:00:00 | 00:00:00 | 00:00:00 | |
| DB0UT-7 | 2026-09-04 15:26:27 | 48.44477 | 3.74944 | 306° | 11km/h | 27806m | 5.4m/s | 0°C | 0% | 0hPa | 2.3V | 00:00:00 | 00:00:00 | 00:00:00 | |
| DJ2DS-15 | 2026-09-04 15:26:12 | 48.44447 | 3.74950 | 83° | 16km/h | 27709m | 5.8m/s | -46.2°C | -1.0% | 17.7hPa | 2.3V | 00:00:00 | 00:00:00 | 00:00:00 | |
| DF1GD-15 | 2026-09-04 15:26:08 | 48.44451 | 3.74936 | 138° | 5km/h | 27694m | 5.7m/s | 0°C | 0% | 0hPa | 2.3V | 00:00:00 | 00:00:00 | 00:00:00 | |
| DL1ZP-14 | 2026-09-04 15:26:06 | 48.44450 | 3.74940 | 315° | 13km/h | 27682m | 4.8m/s | -46.2°C | -1.0% | 17.8hPa | 2.3V | 00:00:00 | 00:00:00 | 00:00:00 | |
| DB0UT-7 | 2026-09-04 15:25:57 | 48.44446 | 3.74950 | 334° | 16km/h | 27635m | 7.2m/s | 0°C | 0% | 0hPa | 2.3V | 00:00:00 | 00:00:00 | 00:00:00 | |
| DF1GD-15 | 2026-09-04 15:25:47 | 48.44433 | 3.74925 | 360° | 11km/h | 27575m | 5.3m/s | 0°C | 0% | 0hPa | 2.3V | 00:00:00 | 00:00:00 | 00:00:00 | |
| DJ2DS-15 | 2026-09-04 15:25:36 | 48.44421 | 3.74879 | 16° | 18km/h | 27508m | 6.9m/s | -46.7°C | -1.0% | 18.3hPa | 2.3V | 00:00:00 | 00:00:00 | 00:00:00 | |
| DL1ZP-14 | 2026-09-04 15:25:35 | 48.44421 | 3.74879 | 16° | 18km/h | 27508m | 6.9m/s | -46.7°C | -1.0% | 18.3hPa | 2.3V | 00:00:00 | 00:00:00 | 00:00:00 | |
| DB0UT-7 | 2026-09-04 15:25:27 | 48.44386 | 3.74832 | 39° | 24km/h | 27462m | 5.5m/s | 0°C | 0% | 0hPa | 2.3V | 00:00:00 | 00:00:00 | 00:00:00 | |
| DF1GD-15 | 2026-09-04 15:25:05 | 48.44286 | 3.74719 | 30° | 35km/h | 27331m | 4.8m/s | 0°C | 0% | 0hPa | 2.3V | 00:00:00 | 00:00:00 | 00:00:00 | |
| DL1ZP-14 | 2026-09-04 15:25:04 | 48.44273 | 3.74709 | 13° | 18km/h | 27319m | 6.9m/s | -47.6°C | -1.0% | 18.8hPa | 2.3V | 00:00:00 | 00:00:00 | 00:00:00 | |
| DJ2DS-15 | 2026-09-04 15:25:00 | 48.44241 | 3.74706 | 4° | 22km/h | 27283m | 6.2m/s | -47.5°C | -1.0% | 18.9hPa | 2.2V | 00:00:00 | 00:00:00 | 00:00:00 | |
| DB0UT-7 | 2026-09-04 15:24:57 | 48.44240 | 3.74706 | 5° | 20km/h | 27283m | 6.1m/s | 0°C | 0% | 0hPa | 2.2V | 00:00:00 | 00:00:00 | 00:00:00 | |
| DF1GD-15 | 2026-09-04 15:24:44 | 48.44178 | 3.74727 | 353° | 24km/h | 27202m | 5.4m/s | 0°C | 0% | 0hPa | 2.2V | 00:00:00 | 00:00:00 | 00:00:00 | |
| DB0UT-7 | 2026-09-04 15:24:27 | 48.44127 | 3.74804 | 301° | 18km/h | 27101m | 4.9m/s | 0°C | 0% | 0hPa | 2.2V | 00:00:00 | 00:00:00 | 00:00:00 | |
| DJ2DS-15 | 2026-09-04 15:24:24 | 48.44100 | 3.74835 | 267° | 13km/h | 27056m | 6.0m/s | -47.6°C | -1.0% | 19.6hPa | 2.2V | 00:00:00 | 00:00:00 | 00:00:00 | |
| HARRO8 | 2026-09-04 15:24:13 | 48.44046 | 3.74898 | 107° | 5km/h | 26914m | 5.8m/s | -47.6°C | -1.0% | 20.0hPa | 2.2V | 00:00:00 | 00:00:00 | 00:00:00 | |
| DB0UT-7 | 2026-09-04 15:23:57 | 48.44047 | 3.74897 | 186° | 16km/h | 26908m | 5.2m/s | 0°C | 0% | 0hPa | 2.2V | 00:00:00 | 00:00:00 | 00:00:00 | |
| DF1GD-15 | 2026-09-04 15:23:55 | 48.44049 | 3.74905 | 261° | 20km/h | 26894m | 7.4m/s | 0°C | 0% | 0hPa | 2.2V | 00:00:00 | 00:00:00 | 00:00:00 | |
| HARRO8 | 2026-09-04 15:23:42 | 48.44036 | 3.74993 | 288° | 27km/h | 26795m | 5.6m/s | -47.4°C | -1.0% | 20.4hPa | 2.2V | 00:00:00 | 00:00:00 | 00:00:00 | |
| DL1ZP-14 | 2026-09-04 15:23:31 | 48.44048 | 3.75053 | 267° | 15km/h | 26728m | 5.2m/s | -47.3°C | -1.0% | 20.6hPa | 2.2V | 00:00:00 | 00:00:00 | 00:00:00 | |
| DB0UT-7 | 2026-09-04 15:23:27 | 48.44049 | 3.75077 | 272° | 11km/h | 26711m | 6.1m/s | 0°C | 0% | 0hPa | 2.2V | 00:00:00 | 00:00:00 | 00:00:00 | |
| DF1GD-15 | 2026-09-04 15:23:12 | 48.44054 | 3.75141 | 83° | 4km/h | 26616m | 9.0m/s | 0°C | 0% | 0hPa | 2.2V | 00:00:00 | 00:00:00 | 00:00:00 | |
| DL1ZP-14 | 2026-09-04 15:23:00 | 48.44061 | 3.75140 | 109° | 13km/h | 26520m | 4.9m/s | -47.3°C | -1.0% | 21.2hPa | 2.2V | 00:00:00 | 00:00:00 | 00:00:00 | |
| DB0UT-7 | 2026-09-04 15:22:57 | 48.44062 | 3.75136 | 134° | 9km/h | 26515m | 7.2m/s | 0°C | 0% | 0hPa | 2.2V | 00:00:00 | 00:00:00 | 00:00:00 | |
| DF1GD-15 | 2026-09-04 15:22:51 | 48.44058 | 3.75144 | 41° | 16km/h | 26479m | 5.4m/s | 0°C | 0% | 0hPa | 2.2V | 00:00:00 | 00:00:00 | 00:00:00 | |
| HARRO8 | 2026-09-04 15:22:40 | 48.44042 | 3.75120 | 245° | 4km/h | 26379m | 6.2m/s | -47.5°C | -1.0% | 21.7hPa | 2.2V | 00:00:00 | 00:00:00 | 00:00:00 | |
| DL1ZP-14 | 2026-09-04 15:22:29 | 48.44033 | 3.75095 | 110° | 5km/h | 26331m | 6.6m/s | -47.5°C | -1.0% | 21.9hPa | 2.2V | 00:00:00 | 00:00:00 | 00:00:00 | |
| DB0UT-7 | 2026-09-04 15:22:27 | 48.44032 | 3.75093 | 53° | 11km/h | 26325m | 7.1m/s | 0°C | 0% | 0hPa | 2.2V | 00:00:00 | 00:00:00 | 00:00:00 | |
| DF1GD-15 | 2026-09-04 15:22:05 | 48.44019 | 3.75053 | 50° | 26km/h | 26188m | 6.8m/s | 0°C | 0% | 0hPa | 2.2V | 00:00:00 | 00:00:00 | 00:00:00 | |
| DL1ZP-14 | 2026-09-04 15:21:58 | 48.44027 | 3.75037 | 52° | 7km/h | 26127m | 6.6m/s | -47.9°C | -1.0% | 22.6hPa | 2.2V | 00:00:00 | 00:00:00 | 00:00:00 | |
| DB0UT-7 | 2026-09-04 15:21:57 | 48.44026 | 3.75039 | 205° | 13km/h | 26138m | 8.3m/s | 0°C | 0% | 0hPa | 2.2V | 00:00:00 | 00:00:00 | 00:00:00 | |
| DF1GD-15 | 2026-09-04 15:21:43 | 48.44033 | 3.75014 | 43° | 9km/h | 26051m | 6.3m/s | 0°C | 0% | 0hPa | 2.2V | 00:00:00 | 00:00:00 | 00:00:00 | |
| DL1ZP-14 | 2026-09-04 15:21:27 | 48.44059 | 3.74985 | 183° | 13km/h | 25939m | 6.9m/s | -48.0°C | -1.0% | 23.2hPa | 2.2V | 00:00:00 | 00:00:00 | 00:00:00 | |
| DF1GD-15 | 2026-09-04 15:21:21 | 48.44070 | 3.74996 | 239° | 9km/h | 25917m | 5.4m/s | 0°C | 0% | 0hPa | 2.2V | 00:00:00 | 00:00:00 | 00:00:00 | |
| DF1GD-15 | 2026-09-04 15:21:00 | 48.44098 | 3.74977 | 309° | 5km/h | 25789m | 7.3m/s | 0°C | 0% | 0hPa | 2.2V | 00:00:00 | 00:00:00 | 00:00:00 | |
| DL1ZP-14 | 2026-09-04 15:20:56 | 48.44098 | 3.74983 | 194° | 9km/h | 25758m | 4.8m/s | -48.4°C | -1.0% | 23.9hPa | 2.2V | 00:00:00 | 00:00:00 | 00:00:00 | |
| DF1GD-15 | 2026-09-04 15:20:39 | 48.44119 | 3.75001 | 327° | 7km/h | 25661m | 7.3m/s | 0°C | 0% | 0hPa | 2.2V | 00:00:00 | 00:00:00 | 00:00:00 | |
| HARRO8 | 2026-09-04 15:20:35 | 48.44109 | 3.75029 | 344° | 11km/h | 25606m | 5.0m/s | -48.8°C | -1.0% | 24.4hPa | 2.2V | 00:00:00 | 00:00:00 | 00:00:00 | |
| DL1ZP-14 | 2026-09-04 15:20:25 | 48.44105 | 3.75051 | 309° | 13km/h | 25570m | 4.6m/s | -48.7°C | -1.0% | 24.6hPa | 2.2V | 00:00:00 | 00:00:00 | 00:00:00 | |
| DF1GD-15 | 2026-09-04 15:20:18 | 48.44114 | 3.75092 | 223° | 7km/h | 25537m | 6.9m/s | 0°C | 0% | 0hPa | 2.2V | 00:00:00 | 00:00:00 | 00:00:00 | |
| HARRO8 | 2026-09-04 15:20:04 | 48.44202 | 3.75195 | 174° | 13km/h | 25386m | 8.8m/s | -48.4°C | -1.0% | 25.3hPa | 2.2V | 00:00:00 | 00:00:00 | 00:00:00 | |
| DL1ZP-14 | 2026-09-04 15:19:54 | 48.44202 | 3.75195 | 174° | 13km/h | 25386m | 8.8m/s | -48.4°C | -1.0% | 25.3hPa | 2.2V | 00:00:00 | 00:00:00 | 00:00:00 | |
| DF1GD-15 | 2026-09-04 15:19:38 | 48.44267 | 3.75223 | 201° | 16km/h | 25293m | 6.9m/s | 0°C | 0% | 0hPa | 2.2V | 00:00:00 | 00:00:00 | 00:00:00 | |
| DB0UT-7 | 2026-09-04 15:19:27 | 48.44308 | 3.75235 | 193° | 11km/h | 25229m | 6.2m/s | 0°C | 0% | 0hPa | 2.2V | 00:00:00 | 00:00:00 | 00:00:00 | |
| DL1ZP-14 | 2026-09-04 15:19:22 | 48.44326 | 3.75242 | 138° | 16km/h | 25190m | 7.1m/s | -48.5°C | -1.0% | 26.1hPa | 2.2V | 00:00:00 | 00:00:00 | 00:00:00 | |
| DF1GD-15 | 2026-09-04 15:19:17 | 48.44335 | 3.75226 | 133° | 9km/h | 25173m | 7.2m/s | 0°C | 0% | 0hPa | 2.2V | 00:00:00 | 00:00:00 | 00:00:00 | |
| DB0UT-7 | 2026-09-04 15:18:57 | 48.44358 | 3.75208 | 134° | 15km/h | 25049m | 6.2m/s | 0°C | 0% | 0hPa | 2.2V | 00:00:00 | 00:00:00 | 00:00:00 | |
| DF1GD-15 | 2026-09-04 15:18:36 | 48.44390 | 3.75206 | 170° | 9km/h | 24928m | 5.5m/s | 0°C | 0% | 0hPa | 2.2V | 00:00:00 | 00:00:00 | 00:00:00 | |
| HARRO8 | 2026-09-04 15:18:31 | 48.44426 | 3.75199 | 169° | 16km/h | 24892m | 7.7m/s | -49.4°C | -1.0% | 27.3hPa | 2.2V | 00:00:00 | 00:00:00 | 00:00:00 | |
| DB0UT-7 | 2026-09-04 15:18:27 | 48.44434 | 3.75196 | 201° | 20km/h | 24873m | 6.8m/s | 0°C | 0% | 0hPa | 2.2V | 00:00:00 | 00:00:00 | 00:00:00 | |
| DL1ZP-14 | 2026-09-04 15:18:20 | 48.44486 | 3.75204 | 132° | 11km/h | 24811m | 4.9m/s | -49.6°C | -1.0% | 27.6hPa | 2.2V | 00:00:00 | 00:00:00 | 00:00:00 | |
| DF1GD-15 | 2026-09-04 15:18:16 | 48.44488 | 3.75201 | 142° | 11km/h | 24806m | 4.3m/s | 0°C | 0% | 0hPa | 2.2V | 00:00:00 | 00:00:00 | 00:00:00 | |
| HARRO8 | 2026-09-04 15:18:00 | 48.44567 | 3.75206 | 195° | 20km/h | 24707m | 6.3m/s | -49.8°C | -1.0% | 28.1hPa | 2.2V | 00:00:00 | 00:00:00 | 00:00:00 | |
| DB0UT-7 | 2026-09-04 15:17:57 | 48.44580 | 3.75207 | 174° | 18km/h | 24696m | 5.6m/s | 0°C | 0% | 0hPa | 2.2V | 00:00:00 | 00:00:00 | 00:00:00 | |
| DF1GD-15 | 2026-09-04 15:17:54 | 48.44597 | 3.75193 | 132° | 22km/h | 24678m | 5.5m/s | 0°C | 0% | 0hPa | 2.2V | 00:00:00 | 00:00:00 | 00:00:00 | |
| DL1ZP-14 | 2026-09-04 15:17:49 | 48.44638 | 3.75147 | 95° | 13km/h | 24601m | 4.5m/s | -50.5°C | -1.0% | 28.5hPa | 2.2V | 00:00:00 | 00:00:00 | 00:00:00 | |
| DF1GD-15 | 2026-09-04 15:17:33 | 48.44653 | 3.75116 | 165° | 15km/h | 24554m | 7.1m/s | 0°C | 0% | 0hPa | 2.2V | 00:00:00 | 00:00:00 | 00:00:00 | |
| HARRO8 | 2026-09-04 15:17:29 | 48.44674 | 3.75096 | 102° | 26km/h | 24520m | 6.3m/s | -51.4°C | -1.0% | 28.9hPa | 2.2V | 00:00:00 | 00:00:00 | 00:00:00 | |
| DB0UT-7 | 2026-09-04 15:17:27 | 48.44674 | 3.75096 | 103° | 16km/h | 24521m | 6.3m/s | 0°C | 0% | 0hPa | 2.2V | 00:00:00 | 00:00:00 | 00:00:00 | |
| DF1GD-15 | 2026-09-04 15:17:11 | 48.44708 | 3.75095 | 248° | 22km/h | 24427m | 7.6m/s | 0°C | 0% | 0hPa | 2.2V | 00:00:00 | 00:00:00 | 00:00:00 | |
| HARRO8 | 2026-09-04 15:16:58 | 48.44764 | 3.75136 | 176° | 13km/h | 24338m | 5.2m/s | -51.3°C | -1.0% | 29.7hPa | 2.2V | 00:00:00 | 00:00:00 | 00:00:00 | |
| DB0UT-7 | 2026-09-04 15:16:57 | 48.44760 | 3.75135 | 189° | 20km/h | 24345m | 7.6m/s | 0°C | 0% | 0hPa | 2.2V | 00:00:00 | 00:00:00 | 00:00:00 | |
| DF1GD-15 | 2026-09-04 15:16:42 | 48.44834 | 3.75123 | 145° | 22km/h | 24263m | 4.1m/s | 0°C | 0% | 0hPa | 2.2V | 00:00:00 | 00:00:00 | 00:00:00 | |
| DB0UT-7 | 2026-09-04 15:16:27 | 48.44897 | 3.75092 | 197° | 15km/h | 24173m | 5.5m/s | 0°C | 0% | 0hPa | 2.2V | 00:00:00 | 00:00:00 | 00:00:00 | |
| DL1ZP-14 | 2026-09-04 15:16:16 | 48.44941 | 3.75000 | 279° | 9km/h | 24033m | 3.8m/s | -51.8°C | -1.0% | 31.2hPa | 2.2V | 00:00:00 | 00:00:00 | 00:00:00 | |
| HARRO8 | 2026-09-04 15:15:56 | 48.44932 | 3.74974 | 61° | 5km/h | 23973m | 2.9m/s | -51.9°C | -1.0% | 31.5hPa | 2.2V | 00:00:00 | 00:00:00 | 00:00:00 | |
| DF1GD-15 | 2026-09-04 15:15:40 | 48.44903 | 3.74985 | 199° | 7km/h | 23911m | 3.8m/s | 0°C | 0% | 0hPa | 2.2V | 00:00:00 | 00:00:00 | 00:00:00 | |
| DB0UT-7 | 2026-09-04 15:15:27 | 48.44886 | 3.75011 | 183° | 16km/h | 23840m | 4.6m/s | 0°C | 0% | 0hPa | 2.2V | 00:00:00 | 00:00:00 | 00:00:00 | |
| HARRO8 | 2026-09-04 15:15:25 | 48.44884 | 3.75030 | 335° | 18km/h | 23816m | 8.2m/s | -51.6°C | -1.0% | 32.2hPa | 2.2V | 00:00:00 | 00:00:00 | 00:00:00 | |
| DL1ZP-14 | 2026-09-04 15:15:14 | 48.44862 | 3.75109 | 247° | 16km/h | 23715m | 5.3m/s | -51.3°C | -1.0% | 32.7hPa | 2.2V | 00:00:00 | 00:00:00 | 00:00:00 | |
| HARRO8 | 2026-09-04 15:14:54 | 48.44900 | 3.75209 | 234° | 22km/h | 23619m | 7.1m/s | -52.0°C | -1.0% | 33.3hPa | 2.2V | 00:00:00 | 00:00:00 | 00:00:00 | |
| DL1ZP-14 | 2026-09-04 15:14:43 | 48.44982 | 3.75235 | 177° | 15km/h | 23530m | 5.8m/s | -52.5°C | -1.0% | 33.7hPa | 2.2V | 00:00:00 | 00:00:00 | 00:00:00 | |
| DB0UT-7 | 2026-09-04 15:14:27 | 48.45000 | 3.75225 | 202° | 16km/h | 23500m | 5.4m/s | 0°C | 0% | 0hPa | 2.2V | 00:00:00 | 00:00:00 | 00:00:00 | |
| HARRO8 | 2026-09-04 15:14:23 | 48.45016 | 3.75202 | 108° | 20km/h | 23472m | 5.5m/s | -53.0°C | -1.0% | 34.0hPa | 2.2V | 00:00:00 | 00:00:00 | 00:00:00 | |
| DL1ZP-14 | 2026-09-04 15:14:12 | 48.45050 | 3.75130 | 115° | 15km/h | 23382m | 5.6m/s | -53.0°C | -1.0% | 34.5hPa | 2.2V | 00:00:00 | 00:00:00 | 00:00:00 | |
| HARRO8 | 2026-09-04 15:13:52 | 48.45066 | 3.75060 | 196° | 9km/h | 23294m | 5.4m/s | -52.9°C | -1.0% | 35.0hPa | 2.2V | 00:00:00 | 00:00:00 | 00:00:00 | |
| DL1ZP-14 | 2026-09-04 15:13:41 | 48.45070 | 3.75015 | 103° | 20km/h | 23238m | 4.8m/s | -53.1°C | -1.0% | 35.3hPa | 2.2V | 00:00:00 | 00:00:00 | 00:00:00 | |
| DF1GD-15 | 2026-09-04 15:13:32 | 48.45058 | 3.74977 | 46° | 24km/h | 23196m | 6.2m/s | 0°C | 0% | 0hPa | 2.2V | 00:00:00 | 00:00:00 | 00:00:00 | |
| DB0UT-7 | 2026-09-04 15:13:24 | 48.45048 | 3.74945 | 67° | 15km/h | 23151m | 5.0m/s | 0°C | 0% | 0hPa | 2.2V | 00:00:00 | 00:00:00 | 00:00:00 | |
| HARRO8 | 2026-09-04 15:13:21 | 48.45038 | 3.74896 | 124° | 7km/h | 23112m | 5.4m/s | -53.2°C | -1.0% | 36.0hPa | 2.2V | 00:00:00 | 00:00:00 | 00:00:00 | |
| DL1ZP-14 | 2026-09-04 15:13:10 | 48.45048 | 3.74841 | 76° | 20km/h | 23058m | 6.6m/s | -53.2°C | -1.0% | 36.3hPa | 2.2V | 00:00:00 | 00:00:00 | 00:00:00 | |
| DB0UT-7 | 2026-09-04 15:12:54 | 48.45057 | 3.74797 | 162° | 13km/h | 22989m | 7.3m/s | 0°C | 0% | 0hPa | 2.2V | 00:00:00 | 00:00:00 | 00:00:00 | |
| DL1ZP-14 | 2026-09-04 15:12:39 | 48.45083 | 3.74696 | 48° | 7km/h | 22846m | 8.2m/s | -54.3°C | -1.0% | 37.5hPa | 2.2V | 00:00:00 | 00:00:00 | 00:00:00 | |
| DB0UT-7 | 2026-09-04 15:12:24 | 48.45076 | 3.74683 | 24° | 18km/h | 22823m | 3.6m/s | 0°C | 0% | 0hPa | 2.2V | 00:00:00 | 00:00:00 | 00:00:00 | |
| DL1ZP-14 | 2026-09-04 15:12:08 | 48.44956 | 3.74577 | 21° | 5km/h | 22614m | 6.7m/s | -53.5°C | -1.0% | 38.9hPa | 2.2V | 00:00:00 | 00:00:00 | 00:00:00 | |
| DB0UT-7 | 2026-09-04 15:11:53 | 48.44965 | 3.74577 | 22° | 9km/h | 22648m | 6.6m/s | 0°C | 0% | 0hPa | 2.2V | 00:00:00 | 00:00:00 | 00:00:00 | |
| DL1ZP-14 | 2026-09-04 15:11:36 | 48.44938 | 3.74583 | 328° | 5km/h | 22553m | 2.8m/s | -53.4°C | -1.0% | 39.3hPa | 2.2V | 00:00:00 | 00:00:00 | 00:00:00 | |
| DB0UT-7 | 2026-09-04 15:11:23 | 48.44940 | 3.74581 | 238° | 15km/h | 22481m | 3.8m/s | 0°C | 0% | 0hPa | 2.2V | 00:00:00 | 00:00:00 | 00:00:00 | |
| DL1ZP-14 | 2026-09-04 15:11:05 | 48.44982 | 3.74567 | 173° | 15km/h | 22386m | 6.7m/s | -53.4°C | -1.0% | 40.3hPa | 2.2V | 00:00:00 | 00:00:00 | 00:00:00 | |
| DB0UT-7 | 2026-09-04 15:10:53 | 48.45036 | 3.74534 | 143° | 20km/h | 22324m | 6.4m/s | 0°C | 0% | 0hPa | 2.2V | 00:00:00 | 00:00:00 | 00:00:00 | |
| DL1ZP-14 | 2026-09-04 15:10:34 | 48.45102 | 3.74425 | 109° | 18km/h | 22220m | 5.3m/s | -53.6°C | -1.0% | 41.4hPa | 2.2V | 00:00:00 | 00:00:00 | 00:00:00 | |
| DB0UT-7 | 2026-09-04 15:10:23 | 48.45118 | 3.74348 | 84° | 24km/h | 22162m | 3.9m/s | 0°C | 0% | 0hPa | 2.2V | 00:00:00 | 00:00:00 | 00:00:00 | |
| DL1ZP-14 | 2026-09-04 15:10:03 | 48.45121 | 3.74187 | 90° | 29km/h | 22055m | 4.8m/s | -53.6°C | -1.0% | 42.5hPa | 2.2V | 00:00:00 | 00:00:00 | 00:00:00 | |
| DB0UT-7 | 2026-09-04 15:09:53 | 48.45095 | 3.74112 | 47° | 16km/h | 22004m | 6.5m/s | 0°C | 0% | 0hPa | 2.2V | 00:00:00 | 00:00:00 | 00:00:00 | |
| DL1ZP-14 | 2026-09-04 15:09:32 | 48.45066 | 3.73986 | 61° | 22km/h | 21877m | 4.0m/s | -53.2°C | -1.0% | 43.7hPa | 2.2V | 00:00:00 | 00:00:00 | 00:00:00 | |
| DB0UT-7 | 2026-09-04 15:09:23 | 48.45069 | 3.73932 | 111° | 20km/h | 21833m | 7.0m/s | 0°C | 0% | 0hPa | 2.2V | 00:00:00 | 00:00:00 | 00:00:00 | |
| DL1ZP-14 | 2026-09-04 15:09:01 | 48.45043 | 3.73760 | 64° | 15km/h | 21693m | 6.7m/s | -53.8°C | -1.0% | 44.9hPa | 2.2V | 00:00:00 | 00:00:00 | 00:00:00 | |
| DB0UT-7 | 2026-09-04 15:08:53 | 48.45034 | 3.73727 | 71° | 18km/h | 21664m | 3.6m/s | 0°C | 0% | 0hPa | 2.2V | 00:00:00 | 00:00:00 | 00:00:00 | |
| DL1ZP-14 | 2026-09-04 15:08:30 | 48.45002 | 3.73559 | 63° | 15km/h | 21520m | 4.2m/s | -53.8°C | -1.0% | 46.2hPa | 2.2V | 00:00:00 | 00:00:00 | 00:00:00 | |
| DB0UT-7 | 2026-09-04 15:08:23 | 48.45004 | 3.73539 | 103° | 26km/h | 21498m | 5.7m/s | 0°C | 0% | 0hPa | 2.2V | 00:00:00 | 00:00:00 | 00:00:00 | |
| DL1ZP-14 | 2026-09-04 15:07:59 | 48.45063 | 3.73330 | 118° | 27km/h | 21358m | 5.8m/s | -53.9°C | -1.0% | 47.4hPa | 2.2V | 00:00:00 | 00:00:00 | 00:00:00 | |
| DB0UT-7 | 2026-09-04 15:07:53 | 48.45080 | 3.73281 | 117° | 24km/h | 21329m | 4.9m/s | 0°C | 0% | 0hPa | 2.2V | 00:00:00 | 00:00:00 | 00:00:00 | |
| DL1ZP-14 | 2026-09-04 15:07:28 | 48.45076 | 3.73066 | 50° | 22km/h | 21185m | 4.6m/s | -53.7°C | -1.0% | 48.7hPa | 2.2V | 00:00:00 | 00:00:00 | 00:00:00 | |
| DB0UT-7 | 2026-09-04 15:07:23 | 48.45070 | 3.73036 | 101° | 11km/h | 21163m | 4.1m/s | 0°C | 0% | 0hPa | 2.2V | 00:00:00 | 00:00:00 | 00:00:00 | |
| HARRO8 | 2026-09-04 15:07:08 | 48.45035 | 3.72959 | 350° | 4km/h | 21065m | 5.3m/s | -53.3°C | -1.0% | 49.6hPa | 2.2V | 00:00:00 | 00:00:00 | 00:00:00 | |
| DL1ZP-14 | 2026-09-04 15:06:57 | 48.45020 | 3.72953 | 50° | 7km/h | 21016m | 5.2m/s | -53.2°C | -1.0% | 50.0hPa | 2.2V | 00:00:00 | 00:00:00 | 00:00:00 | |
| DB0UT-7 | 2026-09-04 15:06:52 | 48.45019 | 3.72947 | 107° | 9km/h | 20996m | 4.3m/s | 0°C | 0% | 0hPa | 2.2V | 00:00:00 | 00:00:00 | 00:00:00 | |
| HARRO8 | 2026-09-04 15:06:37 | 48.44999 | 3.72924 | 174° | 7km/h | 20881m | 2.5m/s | -53.5°C | -1.0% | 51.0hPa | 2.2V | 00:00:00 | 00:00:00 | 00:00:00 | |
| DL1ZP-14 | 2026-09-04 15:06:26 | 48.45001 | 3.72899 | 124° | 7km/h | 20850m | 3.7m/s | -53.7°C | -1.0% | 51.3hPa | 2.2V | 00:00:00 | 00:00:00 | 00:00:00 | |
| DB0UT-7 | 2026-09-04 15:06:20 | 48.44999 | 3.72883 | 67° | 15km/h | 20829m | 5.3m/s | 0°C | 0% | 0hPa | 2.2V | 00:00:00 | 00:00:00 | 00:00:00 | |
| HARRO8 | 2026-09-04 15:06:06 | 48.44996 | 3.72826 | 98° | 22km/h | 20745m | 4.0m/s | -54.7°C | -1.0% | 52.1hPa | 2.2V | 00:00:00 | 00:00:00 | 00:00:00 | |
| DL1ZP-14 | 2026-09-04 15:05:55 | 48.45011 | 3.72765 | 83° | 16km/h | 20681m | 3.8m/s | -54.7°C | -1.0% | 52.7hPa | 2.2V | 00:00:00 | 00:00:00 | 00:00:00 | |
| DB0UT-7 | 2026-09-04 15:05:49 | 48.45012 | 3.72759 | 106° | 26km/h | 20676m | 6.6m/s | 0°C | 0% | 0hPa | 2.2V | 00:00:00 | 00:00:00 | 00:00:00 | |
| HARRO8 | 2026-09-04 15:05:35 | 48.45042 | 3.72642 | 106° | 31km/h | 20591m | 4.1m/s | -54.4°C | -1.0% | 53.4hPa | 2.2V | 00:00:00 | 00:00:00 | 00:00:00 | |
| DL1ZP-14 | 2026-09-04 15:05:24 | 48.45064 | 3.72542 | 102° | 29km/h | 20540m | 4.8m/s | -54.3°C | -1.0% | 53.8hPa | 2.2V | 00:00:00 | 00:00:00 | 00:00:00 | |
| DB0UT-7 | 2026-09-04 15:05:19 | 48.45073 | 3.72491 | 113° | 37km/h | 20519m | 5.6m/s | 0°C | 0% | 0hPa | 2.2V | 00:00:00 | 00:00:00 | 00:00:00 | |
| HARRO8 | 2026-09-04 15:05:04 | 48.45106 | 3.72261 | 108° | 46km/h | 20438m | 3.9m/s | -54.9°C | -1.0% | 54.7hPa | 2.2V | 00:00:00 | 00:00:00 | 00:00:00 | |
| DL1ZP-14 | 2026-09-04 15:04:53 | 48.45102 | 3.72110 | 86° | 37km/h | 20379m | 4.5m/s | -54.8°C | -1.0% | 55.2hPa | 2.2V | 00:00:00 | 00:00:00 | 00:00:00 | |
| DB0UT-7 | 2026-09-04 15:04:49 | 48.45099 | 3.72086 | 73° | 24km/h | 20370m | 5.2m/s | 0°C | 0% | 0hPa | 2.2V | 00:00:00 | 00:00:00 | 00:00:00 | |
| HARRO8 | 2026-09-04 15:04:33 | 48.45100 | 3.71930 | 64° | 22km/h | 20273m | 3.4m/s | -55.3°C | -1.0% | 56.1hPa | 2.2V | 00:00:00 | 00:00:00 | 00:00:00 | |
| DL1ZP-14 | 2026-09-04 15:04:22 | 48.45095 | 3.71828 | 73° | 22km/h | 20224m | 5.9m/s | -55.3°C | -1.0% | 56.6hPa | 2.2V | 00:00:00 | 00:00:00 | 00:00:00 | |
| DB0UT-7 | 2026-09-04 15:04:19 | 48.45093 | 3.71821 | 60° | 31km/h | 20219m | 5.5m/s | 0°C | 0% | 0hPa | 2.2V | 00:00:00 | 00:00:00 | 00:00:00 | |
| HARRO8 | 2026-09-04 15:04:02 | 48.45058 | 3.71620 | 76° | 31km/h | 20129m | 5.5m/s | -55.6°C | -1.0% | 57.4hPa | 2.2V | 00:00:00 | 00:00:00 | 00:00:00 | |
| DL1ZP-14 | 2026-09-04 15:03:51 | 48.45011 | 3.71514 | 79° | 29km/h | 20072m | 5.5m/s | -55.3°C | -1.0% | 58.0hPa | 2.2V | 00:00:00 | 00:00:00 | 00:00:00 | |
| DB0UT-7 | 2026-09-04 15:03:49 | 48.45009 | 3.71504 | 72° | 24km/h | 20066m | 5.9m/s | 0°C | 0% | 0hPa | 2.3V | 00:00:00 | 00:00:00 | 00:00:00 | |
| HARRO8 | 2026-09-04 15:03:31 | 48.44929 | 3.71365 | 61° | 18km/h | 19965m | 4.8m/s | -54.5°C | -1.0% | 59.0hPa | 2.3V | 00:00:00 | 00:00:00 | 00:00:00 | |
| DB0UT-7 | 2026-09-04 15:03:19 | 48.44913 | 3.71276 | 62° | 22km/h | 19909m | 5.3m/s | 0°C | 0% | 0hPa | 2.3V | 00:00:00 | 00:00:00 | 00:00:00 | |
| HARRO8 | 2026-09-04 15:03:00 | 48.44920 | 3.71116 | 86° | 27km/h | 19805m | 5.5m/s | -54.4°C | -1.0% | 60.5hPa | 2.3V | 00:00:00 | 00:00:00 | 00:00:00 | |
| DB0UT-7 | 2026-09-04 15:02:49 | 48.44941 | 3.71041 | 108° | 35km/h | 19757m | 5.3m/s | 0°C | 0% | 0hPa | 2.3V | 00:00:00 | 00:00:00 | 00:00:00 | |
| HARRO8 | 2026-09-04 15:02:29 | 48.45004 | 3.70789 | 99° | 42km/h | 19645m | 5.8m/s | -54.3°C | -1.0% | 62.0hPa | 2.3V | 00:00:00 | 00:00:00 | 00:00:00 | |
| DB0UT-7 | 2026-09-04 15:02:19 | 48.45023 | 3.70675 | 93° | 37km/h | 19599m | 5.8m/s | 0°C | 0% | 0hPa | 2.3V | 00:00:00 | 00:00:00 | 00:00:00 | |
| HARRO8 | 2026-09-04 15:01:58 | 48.45014 | 3.70377 | 87° | 27km/h | 19477m | 5.2m/s | -55.3°C | -1.0% | 63.6hPa | 2.3V | 00:00:00 | 00:00:00 | 00:00:00 | |
| DB0UT-7 | 2026-09-04 15:01:49 | 48.45006 | 3.70273 | 78° | 37km/h | 19433m | 4.2m/s | 0°C | 0% | 0hPa | 2.3V | 00:00:00 | 00:00:00 | 00:00:00 | |
| HARRO8 | 2026-09-04 15:01:27 | 48.44949 | 3.69923 | 94° | 35km/h | 19292m | 4.9m/s | -55.9°C | -1.0% | 65.6hPa | 2.3V | 00:00:00 | 00:00:00 | 00:00:00 | |
| DB0UT-7 | 2026-09-04 15:01:19 | 48.44949 | 3.69878 | 83° | 44km/h | 19277m | 5.6m/s | 0°C | 0% | 0hPa | 2.3V | 00:00:00 | 00:00:00 | 00:00:00 | |
| HARRO8 | 2026-09-04 15:00:56 | 48.44938 | 3.69467 | 73° | 40km/h | 19145m | 5.3m/s | -56.1°C | -1.0% | 67.0hPa | 2.3V | 00:00:00 | 00:00:00 | 00:00:00 | |
| DB0UT-7 | 2026-09-04 15:00:48 | 48.44923 | 3.69369 | 76° | 38km/h | 19108m | 5.7m/s | 0°C | 0% | 0hPa | 2.3V | 00:00:00 | 00:00:00 | 00:00:00 | |
| HARRO8 | 2026-09-04 15:00:24 | 48.44835 | 3.69017 | 86° | 38km/h | 18975m | 5.8m/s | -57.7°C | -1.0% | 68.8hPa | 2.3V | 00:00:00 | 00:00:00 | 00:00:00 | |
| DB0UT-7 | 2026-09-04 15:00:18 | 48.44830 | 3.68969 | 80° | 33km/h | 18955m | 5.0m/s | 0°C | 0% | 0hPa | 2.3V | 00:00:00 | 00:00:00 | 00:00:00 | |
| HARRO8 | 2026-09-04 14:59:53 | 48.44859 | 3.68667 | 101° | 26km/h | 18825m | 5.1m/s | -57.7°C | -1.0% | 70.5hPa | 2.3V | 00:00:00 | 00:00:00 | 00:00:00 | |
| DL9SK-14 | 2026-09-04 14:59:46 | 48.44873 | 3.68572 | 106° | 37km/h | 18787m | 4.3m/s | -57.5°C | -1.0% | 71.0hPa | 2.3V | 00:00:00 | 00:00:00 | 00:00:00 | |
| HARRO8 | 2026-09-04 14:59:22 | 48.44917 | 3.68266 | 104° | 40km/h | 18665m | 3.8m/s | -57.4°C | -1.0% | 72.3hPa | 2.3V | 00:00:00 | 00:00:00 | 00:00:00 | |
| DB0UT-7 | 2026-09-04 14:59:17 | 48.44930 | 3.68194 | 98° | 42km/h | 18642m | 2.4m/s | 0°C | 0% | 0hPa | 2.3V | 00:00:00 | 00:00:00 | 00:00:00 | |
| DL9SK-14 | 2026-09-04 14:59:15 | 48.44935 | 3.68149 | 105° | 40km/h | 18628m | 4.2m/s | -57.4°C | -1.0% | 72.8hPa | 2.3V | 00:00:00 | 00:00:00 | 00:00:00 | |
| DL1ZP-14 | 2026-09-04 14:59:11 | 48.45006 | 3.67812 | 89° | 44km/h | 18514m | 5.3m/s | -57.2°C | -1.0% | 74.2hPa | 2.3V | 00:00:00 | 00:00:00 | 00:00:00 | |
| HARRO8 | 2026-09-04 14:58:51 | 48.45006 | 3.67796 | 90° | 42km/h | 18510m | 4.0m/s | -57.3°C | -1.0% | 74.2hPa | 2.3V | 00:00:00 | 00:00:00 | 00:00:00 | |
| DL9SK-14 | 2026-09-04 14:58:44 | 48.45021 | 3.67661 | 100° | 40km/h | 18469m | 3.7m/s | -57.2°C | -1.0% | 74.7hPa | 2.3V | 00:00:00 | 00:00:00 | 00:00:00 | |
| DL1ZP-14 | 2026-09-04 14:58:40 | 48.45027 | 3.67589 | 100° | 51km/h | 18450m | 4.8m/s | -57.2°C | -1.0% | 74.9hPa | 2.3V | 00:00:00 | 00:00:00 | 00:00:00 | |
| HARRO8 | 2026-09-04 14:58:20 | 48.45055 | 3.67243 | 95° | 40km/h | 18346m | 5.8m/s | -56.9°C | -1.0% | 76.1hPa | 2.3V | 00:00:00 | 00:00:00 | 00:00:00 | |
| DB0UT-7 | 2026-09-04 14:58:17 | 48.45057 | 3.67210 | 100° | 40km/h | 18337m | 5.4m/s | 0°C | 0% | 0hPa | 2.3V | 00:00:00 | 00:00:00 | 00:00:00 | |
| DL9SK-14 | 2026-09-04 14:58:13 | 48.45064 | 3.67111 | 87° | 35km/h | 18306m | 6.8m/s | -56.8°C | -1.0% | 76.6hPa | 2.3V | 00:00:00 | 00:00:00 | 00:00:00 | |
| DL1ZP-14 | 2026-09-04 14:58:09 | 48.45063 | 3.67071 | 91° | 40km/h | 18291m | 5.2m/s | -56.8°C | -1.0% | 76.8hPa | 2.3V | 00:00:00 | 00:00:00 | 00:00:00 | |
| HARRO8 | 2026-09-04 14:57:49 | 48.45063 | 3.66778 | 81° | 33km/h | 18195m | 4.0m/s | -56.7°C | -1.0% | 78.0hPa | 0V | 00:00:00 | 00:00:00 | 00:00:00 | |
| DB0UT-7 | 2026-09-04 14:57:47 | 48.45063 | 3.66751 | 96° | 29km/h | 18186m | 4.3m/s | 0°C | 0% | 0hPa | 0V | 00:00:00 | 00:00:00 | 00:00:00 | |
| DL9SK-14 | 2026-09-04 14:57:42 | 48.45066 | 3.66673 | 94° | 44km/h | 18157m | 4.0m/s | -57.0°C | -1.0% | 78.5hPa | 0V | 00:00:00 | 00:00:00 | 00:00:00 | |
| DB0UT-7 | 2026-09-04 14:57:17 | 48.45084 | 3.66432 | 105° | 27km/h | 18041m | 4.8m/s | 0°C | 0% | 0hPa | 0V | 00:00:00 | 00:00:00 | 00:00:00 | |
| DL9SK-14 | 2026-09-04 14:57:11 | 48.45092 | 3.66364 | 121° | 26km/h | 18006m | 4.1m/s | -56.1°C | -1.0% | 80.4hPa | 0V | 00:00:00 | 00:00:00 | 00:00:00 | |
| DB0UT-7 | 2026-09-04 14:56:47 | 48.45152 | 3.66145 | 120° | 42km/h | 17887m | 5.7m/s | 0°C | 0% | 0hPa | 0V | 00:00:00 | 00:00:00 | 00:00:00 | |
| DL9SK-14 | 2026-09-04 14:56:40 | 48.45192 | 3.66059 | 115° | 20km/h | 17847m | 5.0m/s | -55.8°C | -1.0% | 82.4hPa | 0V | 00:00:00 | 00:00:00 | 00:00:00 | |
| DB0UT-7 | 2026-09-04 14:56:17 | 48.45315 | 3.65746 | 109° | 53km/h | 17741m | 6.3m/s | 0°C | 0% | 0hPa | 0V | 00:00:00 | 00:00:00 | 00:00:00 | |
| DL9SK-14 | 2026-09-04 14:56:09 | 48.45346 | 3.65584 | 116° | 57km/h | 17691m | 5.5m/s | -56.4°C | -1.0% | 84.4hPa | 0V | 00:00:00 | 00:00:00 | 00:00:00 | |
| DB0UT-7 | 2026-09-04 14:55:47 | 48.45367 | 3.65161 | 80° | 57km/h | 17590m | 6.2m/s | 0°C | 0% | 0hPa | 0V | 00:00:00 | 00:00:00 | 00:00:00 | |
| DL9SK-14 | 2026-09-04 14:55:38 | 48.45336 | 3.64910 | 81° | 58km/h | 17536m | 6.0m/s | -58.3°C | -1.0% | 86.6hPa | 0V | 00:00:00 | 00:00:00 | 00:00:00 | |
| DB0UT-7 | 2026-09-04 14:55:17 | 48.45290 | 3.64529 | 75° | 47km/h | 17448m | 4.4m/s | 0°C | 0% | 0hPa | 0V | 00:00:00 | 00:00:00 | 00:00:00 | |
| DB0UT-7 | 2026-09-04 14:54:47 | 48.45295 | 3.64009 | 102° | 46km/h | 17297m | 5.7m/s | 0°C | 0% | 0hPa | 0V | 00:00:00 | 00:00:00 | 00:00:00 | |
| DB0UT-7 | 2026-09-04 14:54:17 | 48.45360 | 3.63497 | 113° | 51km/h | 17146m | 6.3m/s | 0°C | 0% | 0hPa | 0V | 00:00:00 | 00:00:00 | 00:00:00 | |
| DB0UT-7 | 2026-09-04 14:53:47 | 48.45434 | 3.62938 | 88° | 57km/h | 16991m | 2.9m/s | 0°C | 0% | 0hPa | 0V | 00:00:00 | 00:00:00 | 00:00:00 | |
| DB0UT-7 | 2026-09-04 14:53:17 | 48.45442 | 3.62290 | 80° | 55km/h | 16845m | 5.2m/s | 0°C | 0% | 0hPa | 0V | 00:00:00 | 00:00:00 | 00:00:00 | |
| DB0UT-7 | 2026-09-04 14:52:17 | 48.45382 | 3.61035 | 82° | 57km/h | 16554m | 2.6m/s | 0°C | 0% | 0hPa | 0V | 00:00:00 | 00:00:00 | 00:00:00 | |
| DB0UT-7 | 2026-09-04 14:51:47 | 48.45332 | 3.60399 | 88° | 60km/h | 16406m | 5.4m/s | 0°C | 0% | 0hPa | 0V | 00:00:00 | 00:00:00 | 00:00:00 | |
| DB0UT-7 | 2026-09-04 14:51:17 | 48.45304 | 3.59701 | 87° | 68km/h | 16257m | 5.7m/s | 0°C | 0% | 0hPa | 0V | 00:00:00 | 00:00:00 | 00:00:00 | |
| DB0UT-7 | 2026-09-04 14:50:47 | 48.45320 | 3.58927 | 97° | 73km/h | 16112m | 4.9m/s | 0°C | 0% | 0hPa | 0V | 00:00:00 | 00:00:00 | 00:00:00 | |
| DB0UT-7 | 2026-09-04 14:50:17 | 48.45366 | 3.58092 | 94° | 77km/h | 15960m | 4.9m/s | 0°C | 0% | 0hPa | 0V | 00:00:00 | 00:00:00 | 00:00:00 | |
| DB0UT-7 | 2026-09-04 14:49:47 | 48.45375 | 3.57222 | 90° | 77km/h | 15816m | 3.7m/s | 0°C | 0% | 0hPa | 0V | 00:00:00 | 00:00:00 | 00:00:00 | |
| DB0UT-7 | 2026-09-04 14:49:17 | 48.45297 | 3.56370 | 71° | 77km/h | 15672m | 5.3m/s | 0°C | 0% | 0hPa | 0V | 00:00:00 | 00:00:00 | 00:00:00 | |
| DB0UT-7 | 2026-09-04 14:48:47 | 48.45184 | 3.55526 | 87° | 77km/h | 15530m | 5.1m/s | 0°C | 0% | 0hPa | 0V | 00:00:00 | 00:00:00 | 00:00:00 | |
| DB0UT-7 | 2026-09-04 14:48:17 | 48.45105 | 3.54651 | 80° | 77km/h | 15388m | 3.8m/s | 0°C | 0% | 0hPa | 0V | 00:00:00 | 00:00:00 | 00:00:00 | |
| DB0UT-7 | 2026-09-04 14:47:47 | 48.45001 | 3.53799 | 80° | 78km/h | 15247m | 4.8m/s | 0°C | 0% | 0hPa | 0V | 00:00:00 | 00:00:00 | 00:00:00 | |
| DB0UT-7 | 2026-09-04 14:47:17 | 48.44878 | 3.52926 | 82° | 78km/h | 15105m | 5.1m/s | 0°C | 0% | 0hPa | 0V | 00:00:00 | 00:00:00 | 00:00:00 | |
| DB0UT-7 | 2026-09-04 14:46:47 | 48.44819 | 3.52029 | 93° | 80km/h | 14955m | 5.0m/s | 0°C | 0% | 0hPa | 0V | 00:00:00 | 00:00:00 | 00:00:00 | |
| DB0UT-7 | 2026-09-04 14:46:17 | 48.44846 | 3.51120 | 90° | 84km/h | 14807m | 6.5m/s | 0°C | 0% | 0hPa | 0V | 00:00:00 | 00:00:00 | 00:00:00 | |
| DB0UT-7 | 2026-09-04 14:45:46 | 48.44849 | 3.50142 | 94° | 86km/h | 14656m | 5.3m/s | 0°C | 0% | 0hPa | 0V | 00:00:00 | 00:00:00 | 00:00:00 | |
| DB0UT-7 | 2026-09-04 14:45:16 | 48.44821 | 3.49163 | 82° | 86km/h | 14522m | 5.5m/s | 0°C | 0% | 0hPa | 0V | 00:00:00 | 00:00:00 | 00:00:00 | |
| DB0UT-7 | 2026-09-04 14:44:46 | 48.44778 | 3.48182 | 84° | 95km/h | 14387m | 3.5m/s | 0°C | 0% | 0hPa | 0V | 00:00:00 | 00:00:00 | 00:00:00 | |
| DB0UT-7 | 2026-09-04 14:44:16 | 48.44761 | 3.47108 | 83° | 99km/h | 14247m | 5.1m/s | 0°C | 0% | 0hPa | 0V | 00:00:00 | 00:00:00 | 00:00:00 | |
| DB0UT-7 | 2026-09-04 14:43:46 | 48.44712 | 3.45997 | 77° | 99km/h | 14092m | 6.6m/s | 0°C | 0% | 0hPa | 0V | 00:00:00 | 00:00:00 | 00:00:00 | |
| DB0UT-7 | 2026-09-04 14:43:16 | 48.44505 | 3.44922 | 70° | 91km/h | 13923m | 4.8m/s | 0°C | 0% | 0hPa | 0V | 00:00:00 | 00:00:00 | 00:00:00 | |
| DB0UT-7 | 2026-09-04 14:42:45 | 48.44225 | 3.43924 | 70° | 89km/h | 13762m | 5.4m/s | 0°C | 0% | 0hPa | 0V | 00:00:00 | 00:00:00 | 00:00:00 | |
| DB0UT-7 | 2026-09-04 14:42:15 | 48.44027 | 3.42947 | 80° | 91km/h | 13617m | 3.6m/s | 0°C | 0% | 0hPa | 0V | 00:00:00 | 00:00:00 | 00:00:00 | |
| DB0UT-7 | 2026-09-04 14:41:45 | 48.43847 | 3.41943 | 71° | 97km/h | 13476m | 5.2m/s | 0°C | 0% | 0hPa | 0V | 00:00:00 | 00:00:00 | 00:00:00 | |
| DB0UT-7 | 2026-09-04 14:41:15 | 48.43614 | 3.40885 | 68° | 99km/h | 13320m | 4.6m/s | 0°C | 0% | 0hPa | 0V | 00:00:00 | 00:00:00 | 00:00:00 | |
| DB0UT-7 | 2026-09-04 14:40:45 | 48.43285 | 3.39869 | 66° | 93km/h | 13167m | 4.3m/s | 0°C | 0% | 0hPa | 0V | 00:00:00 | 00:00:00 | 00:00:00 | |
| DB0UT-7 | 2026-09-04 14:40:15 | 48.42961 | 3.38930 | 61° | 86km/h | 13022m | 3.2m/s | 0°C | 0% | 0hPa | 0V | 00:00:00 | 00:00:00 | 00:00:00 | |
| DB0UT-7 | 2026-09-04 14:39:45 | 48.42654 | 3.38063 | 69° | 84km/h | 12870m | 4.9m/s | 0°C | 0% | 0hPa | 0V | 00:00:00 | 00:00:00 | 00:00:00 | |
| DB0UT-7 | 2026-09-04 14:39:13 | 48.42387 | 3.37130 | 71° | 82km/h | 12714m | 4.6m/s | 0°C | 0% | 0hPa | 0V | 00:00:00 | 00:00:00 | 00:00:00 | |
| DB0UT-7 | 2026-09-04 14:38:43 | 48.42118 | 3.36281 | 64° | 77km/h | 12571m | 5.0m/s | 0°C | 0% | 0hPa | 0V | 00:00:00 | 00:00:00 | 00:00:00 | |
| DB0UT-7 | 2026-09-04 14:38:13 | 48.41873 | 3.35492 | 70° | 78km/h | 12423m | 5.1m/s | 0°C | 0% | 0hPa | 0V | 00:00:00 | 00:00:00 | 00:00:00 | |
| DB0UT-7 | 2026-09-04 14:37:43 | 48.41635 | 3.34682 | 63° | 82km/h | 12282m | 4.1m/s | 0°C | 0% | 0hPa | 0V | 00:00:00 | 00:00:00 | 00:00:00 | |
| DB0UT-7 | 2026-09-04 14:37:12 | 48.41385 | 3.33796 | 67° | 88km/h | 12132m | 4.3m/s | 0°C | 0% | 0hPa | 0V | 00:00:00 | 00:00:00 | 00:00:00 | |
| DB0UT-7 | 2026-09-04 14:36:42 | 48.41139 | 3.32865 | 70° | 88km/h | 11978m | 5.0m/s | 0°C | 0% | 0hPa | 0V | 00:00:00 | 00:00:00 | 00:00:00 | |
| DB0UT-7 | 2026-09-04 14:36:12 | 48.40919 | 3.31925 | 78° | 88km/h | 11833m | 4.5m/s | 0°C | 0% | 0hPa | 0V | 00:00:00 | 00:00:00 | 00:00:00 | |
| DB0UT-7 | 2026-09-04 14:35:42 | 48.40749 | 3.30971 | 82° | 82km/h | 11686m | 2.2m/s | 0°C | 0% | 0hPa | 0V | 00:00:00 | 00:00:00 | 00:00:00 | |
| DB0UT-7 | 2026-09-04 14:35:11 | 48.40584 | 3.30030 | 78° | 78km/h | 11533m | 5.6m/s | 0°C | 0% | 0hPa | 0V | 00:00:00 | 00:00:00 | 00:00:00 | |
| DB0UT-7 | 2026-09-04 14:34:41 | 48.40399 | 3.29167 | 75° | 78km/h | 11392m | 5.4m/s | 0°C | 0% | 0hPa | 0V | 00:00:00 | 00:00:00 | 00:00:00 | |
| DB0UT-7 | 2026-09-04 14:34:11 | 48.40210 | 3.28321 | 67° | 73km/h | 11237m | 5.3m/s | 0°C | 0% | 0hPa | 0V | 00:00:00 | 00:00:00 | 00:00:00 | |
| DB0UT-7 | 2026-09-04 14:33:41 | 48.40002 | 3.27547 | 74° | 69km/h | 11080m | 5.4m/s | 0°C | 0% | 0hPa | 0V | 00:00:00 | 00:00:00 | 00:00:00 | |
| DB0UT-7 | 2026-09-04 14:33:11 | 48.39792 | 3.26834 | 69° | 77km/h | 10933m | 4.5m/s | 0°C | 0% | 0hPa | 0V | 00:00:00 | 00:00:00 | 00:00:00 | |
| DB0UT-7 | 2026-09-04 14:32:38 | 48.39571 | 3.25906 | 77° | 89km/h | 10758m | 3.9m/s | 0°C | 0% | 0hPa | 0V | 00:00:00 | 00:00:00 | 00:00:00 | |
| DB0UT-7 | 2026-09-04 14:32:03 | 48.39349 | 3.24776 | 81° | 91km/h | 10586m | 4.0m/s | 0°C | 0% | 0hPa | 0V | 00:00:00 | 00:00:00 | 00:00:00 | |
| DB0UT-7 | 2026-09-04 14:31:33 | 48.39140 | 3.23767 | 71° | 99km/h | 10424m | 6.5m/s | 0°C | 0% | 0hPa | 0V | 00:00:00 | 00:00:00 | 00:00:00 | |
| DB0UT-7 | 2026-09-04 14:31:03 | 48.38917 | 3.22697 | 70° | 97km/h | 10255m | 5.5m/s | 0°C | 0% | 0hPa | 0V | 00:00:00 | 00:00:00 | 00:00:00 | |
| DB0UT-7 | 2026-09-04 14:30:33 | 48.38662 | 3.21652 | 72° | 100km/h | 10083m | 5.5m/s | 0°C | 0% | 0hPa | 0V | 00:00:00 | 00:00:00 | 00:00:00 | |
| DB0UT-7 | 2026-09-04 14:29:33 | 48.38260 | 3.19438 | 71° | 97km/h | 9785m | 4.9m/s | 0°C | 0% | 0hPa | 0V | 00:00:00 | 00:00:00 | 00:00:00 | |
| DB0UT-7 | 2026-09-04 14:29:03 | 48.38073 | 3.18390 | 80° | 89km/h | 9634m | 6.2m/s | 0°C | 0% | 0hPa | 0V | 00:00:00 | 00:00:00 | 00:00:00 | |
| DB0UT-7 | 2026-09-04 14:28:33 | 48.37964 | 3.17372 | 85° | 89km/h | 9478m | 6.0m/s | 0°C | 0% | 0hPa | 0V | 00:00:00 | 00:00:00 | 00:00:00 | |
| DB0UT-7 | 2026-09-04 14:27:33 | 48.37825 | 3.15327 | 84° | 91km/h | 9148m | 7.6m/s | 0°C | 0% | 0hPa | 0V | 00:00:00 | 00:00:00 | 00:00:00 | |
| DB0UT-7 | 2026-09-04 14:26:33 | 48.37705 | 3.13326 | 83° | 88km/h | 8835m | 6.0m/s | 0°C | 0% | 0hPa | 0V | 00:00:00 | 00:00:00 | 00:00:00 | |
| DB0UT-7 | 2026-09-04 14:26:03 | 48.37626 | 3.12344 | 78° | 89km/h | 8679m | 4.2m/s | 0°C | 0% | 0hPa | 0V | 00:00:00 | 00:00:00 | 00:00:00 | |
| DB0UT-7 | 2026-09-04 14:25:33 | 48.37528 | 3.11329 | 81° | 91km/h | 8536m | 7.0m/s | 0°C | 0% | 0hPa | 0V | 00:00:00 | 00:00:00 | 00:00:00 | |
| DB0UT-7 | 2026-09-04 14:25:03 | 48.37419 | 3.10301 | 76° | 95km/h | 8383m | 6.4m/s | 0°C | 0% | 0hPa | 0V | 00:00:00 | 00:00:00 | 00:00:00 | |
| DB0UT-7 | 2026-09-04 14:24:33 | 48.37268 | 3.09257 | 78° | 93km/h | 8221m | 4.2m/s | 0°C | 0% | 0hPa | 0V | 00:00:00 | 00:00:00 | 00:00:00 | |
| DB0UT-7 | 2026-09-04 14:24:03 | 48.37148 | 3.08205 | 78° | 91km/h | 8051m | 5.1m/s | 0°C | 0% | 0hPa | 0V | 00:00:00 | 00:00:00 | 00:00:00 | |
| DB0UT-7 | 2026-09-04 14:23:33 | 48.37061 | 3.07179 | 89° | 91km/h | 7877m | 4.5m/s | 0°C | 0% | 0hPa | 0V | 00:00:00 | 00:00:00 | 00:00:00 | |
| DB0UT-7 | 2026-09-04 14:23:03 | 48.36971 | 3.06149 | 82° | 95km/h | 7728m | 4.3m/s | 0°C | 0% | 0hPa | 0V | 00:00:00 | 00:00:00 | 00:00:00 | |
| DB0UT-7 | 2026-09-04 14:22:03 | 48.36598 | 3.04111 | 73° | 89km/h | 7423m | 5.6m/s | 0°C | 0% | 0hPa | 0V | 00:00:00 | 00:00:00 | 00:00:00 | |
| DB0UT-7 | 2026-09-04 14:21:33 | 48.36453 | 3.03115 | 80° | 91km/h | 7263m | 4.1m/s | 0°C | 0% | 0hPa | 0V | 00:00:00 | 00:00:00 | 00:00:00 | |
| DB0UT-7 | 2026-09-04 14:21:03 | 48.36319 | 3.02089 | 82° | 95km/h | 7114m | 4.1m/s | 0°C | 0% | 0hPa | 0V | 00:00:00 | 00:00:00 | 00:00:00 | |
| DB0UT-7 | 2026-09-04 14:20:33 | 48.36217 | 3.01016 | 87° | 95km/h | 6962m | 4.8m/s | 0°C | 0% | 0hPa | 0V | 00:00:00 | 00:00:00 | 00:00:00 | |
| DB0UT-7 | 2026-09-04 14:20:03 | 48.36090 | 2.99954 | 84° | 95km/h | 6807m | 6.6m/s | 0°C | 0% | 0hPa | 0V | 00:00:00 | 00:00:00 | 00:00:00 | |
| DB0UT-7 | 2026-09-04 14:19:31 | 48.35903 | 2.98850 | 71° | 88km/h | 6634m | 6.0m/s | 0°C | 0% | 0hPa | 0V | 00:00:00 | 00:00:00 | 00:00:00 |